﻿<?xml version="1.0" encoding="utf-8"?><gpx creator="Garmin Desktop App" version="1.1" xsi:schemaLocation="http://www.topografix.com/GPX/1/1 http://www.topografix.com/GPX/1/1/gpx.xsd http://www.garmin.com/xmlschemas/WaypointExtension/v1 http://www8.garmin.com/xmlschemas/WaypointExtensionv1.xsd http://www.garmin.com/xmlschemas/TrackPointExtension/v1 http://www.garmin.com/xmlschemas/TrackPointExtensionv1.xsd http://www.garmin.com/xmlschemas/GpxExtensions/v3 http://www8.garmin.com/xmlschemas/GpxExtensionsv3.xsd http://www.garmin.com/xmlschemas/ActivityExtension/v1 http://www8.garmin.com/xmlschemas/ActivityExtensionv1.xsd http://www.garmin.com/xmlschemas/AdventuresExtensions/v1 http://www8.garmin.com/xmlschemas/AdventuresExtensionv1.xsd http://www.garmin.com/xmlschemas/PressureExtension/v1 http://www.garmin.com/xmlschemas/PressureExtensionv1.xsd http://www.garmin.com/xmlschemas/TripExtensions/v1 http://www.garmin.com/xmlschemas/TripExtensionsv1.xsd http://www.garmin.com/xmlschemas/TripMetaDataExtensions/v1 http://www.garmin.com/xmlschemas/TripMetaDataExtensionsv1.xsd http://www.garmin.com/xmlschemas/ViaPointTransportationModeExtensions/v1 http://www.garmin.com/xmlschemas/ViaPointTransportationModeExtensionsv1.xsd http://www.garmin.com/xmlschemas/CreationTimeExtension/v1 http://www.garmin.com/xmlschemas/CreationTimeExtensionsv1.xsd http://www.garmin.com/xmlschemas/AccelerationExtension/v1 http://www.garmin.com/xmlschemas/AccelerationExtensionv1.xsd http://www.garmin.com/xmlschemas/PowerExtension/v1 http://www.garmin.com/xmlschemas/PowerExtensionv1.xsd http://www.garmin.com/xmlschemas/VideoExtension/v1 http://www.garmin.com/xmlschemas/VideoExtensionv1.xsd" xmlns="http://www.topografix.com/GPX/1/1" xmlns:xsi="http://www.w3.org/2001/XMLSchema-instance" xmlns:wptx1="http://www.garmin.com/xmlschemas/WaypointExtension/v1" xmlns:gpxtrx="http://www.garmin.com/xmlschemas/GpxExtensions/v3" xmlns:gpxtpx="http://www.garmin.com/xmlschemas/TrackPointExtension/v1" xmlns:gpxx="http://www.garmin.com/xmlschemas/GpxExtensions/v3" xmlns:trp="http://www.garmin.com/xmlschemas/TripExtensions/v1" xmlns:adv="http://www.garmin.com/xmlschemas/AdventuresExtensions/v1" xmlns:prs="http://www.garmin.com/xmlschemas/PressureExtension/v1" xmlns:tmd="http://www.garmin.com/xmlschemas/TripMetaDataExtensions/v1" xmlns:vptm="http://www.garmin.com/xmlschemas/ViaPointTransportationModeExtensions/v1" xmlns:ctx="http://www.garmin.com/xmlschemas/CreationTimeExtension/v1" xmlns:gpxacc="http://www.garmin.com/xmlschemas/AccelerationExtension/v1" xmlns:gpxpx="http://www.garmin.com/xmlschemas/PowerExtension/v1" xmlns:vidx1="http://www.garmin.com/xmlschemas/VideoExtension/v1">

  <metadata>
    <link href="http://www.garmin.com">
      <text>Garmin International</text>
    </link>
    <time>2022-01-17T08:53:54Z</time>
    <bounds maxlat="45.943303741514683" maxlon="9.547317624092102" minlat="45.932760229334235" minlon="9.523930856958032" />
  </metadata>

  <trk>
    <name>monte-sodadura2022-01-16</name>
    <extensions>
      <gpxx:TrackExtension>
        <gpxx:DisplayColor>Yellow</gpxx:DisplayColor>
      </gpxx:TrackExtension>
      <gpxtrkx:TrackStatsExtension xmlns:gpxtrkx="http://www.garmin.com/xmlschemas/TrackStatsExtension/v1">
        <gpxtrkx:Distance>6334</gpxtrkx:Distance>
        <gpxtrkx:TotalElapsedTime>22164</gpxtrkx:TotalElapsedTime>
        <gpxtrkx:MovingTime>8287</gpxtrkx:MovingTime>
        <gpxtrkx:StoppedTime>13868</gpxtrkx:StoppedTime>
        <gpxtrkx:MovingSpeed>0.764</gpxtrkx:MovingSpeed>
        <gpxtrkx:MaxSpeed>2.413</gpxtrkx:MaxSpeed>
        <gpxtrkx:MaxElevation>2014.047</gpxtrkx:MaxElevation>
        <gpxtrkx:MinElevation>1624.035</gpxtrkx:MinElevation>
        <gpxtrkx:Ascent>437</gpxtrkx:Ascent>
        <gpxtrkx:Descent>442.266</gpxtrkx:Descent>
        <gpxtrkx:AvgAscentRate>0.03</gpxtrkx:AvgAscentRate>
        <gpxtrkx:MaxAscentRate>0.262</gpxtrkx:MaxAscentRate>
        <gpxtrkx:AvgDescentRate>0.042</gpxtrkx:AvgDescentRate>
        <gpxtrkx:MaxDescentRate>-0.69</gpxtrkx:MaxDescentRate>
      </gpxtrkx:TrackStatsExtension>
    </extensions>
    <trkseg>
      <trkpt lat="45.934057328850031" lon="9.527462068945169">
        <ele>1653.5699999999999</ele>
        <time>2022-01-16T07:51:35Z</time>
      </trkpt>
      <trkpt lat="45.93405825085938" lon="9.527460560202599">
        <ele>1653.5699999999999</ele>
        <time>2022-01-16T07:51:36Z</time>
      </trkpt>
      <trkpt lat="45.93405925668776" lon="9.52746793627739">
        <ele>1650.8199999999999</ele>
        <time>2022-01-16T07:52:04Z</time>
      </trkpt>
      <trkpt lat="45.934045258909464" lon="9.527443964034319">
        <ele>1651.0699999999999</ele>
        <time>2022-01-16T07:52:26Z</time>
      </trkpt>
      <trkpt lat="45.934052467346191" lon="9.527452597394586">
        <ele>1651.02</ele>
        <time>2022-01-16T07:53:02Z</time>
      </trkpt>
      <trkpt lat="45.934043163433671" lon="9.527481850236654">
        <ele>1650.9000000000001</ele>
        <time>2022-01-16T07:53:36Z</time>
      </trkpt>
      <trkpt lat="45.934027237817645" lon="9.527514204382896">
        <ele>1651.2</ele>
        <time>2022-01-16T07:54:14Z</time>
      </trkpt>
      <trkpt lat="45.934003936126828" lon="9.527541026473045">
        <ele>1651.1600000000001</ele>
        <time>2022-01-16T07:54:51Z</time>
      </trkpt>
      <trkpt lat="45.934000415727496" lon="9.527551336213946">
        <ele>1651.5899999999999</ele>
        <time>2022-01-16T07:55:25Z</time>
      </trkpt>
      <trkpt lat="45.933978790417314" lon="9.527566591277719">
        <ele>1651.97</ele>
        <time>2022-01-16T07:56:07Z</time>
      </trkpt>
      <trkpt lat="45.933983065187931" lon="9.527554269880056">
        <ele>1652</ele>
        <time>2022-01-16T07:56:48Z</time>
      </trkpt>
      <trkpt lat="45.934003684669733" lon="9.527514623478055">
        <ele>1652.46</ele>
        <time>2022-01-16T07:57:31Z</time>
      </trkpt>
      <trkpt lat="45.93401625752449" lon="9.527500877156854">
        <ele>1652.55</ele>
        <time>2022-01-16T07:58:08Z</time>
      </trkpt>
      <trkpt lat="45.93403285369277" lon="9.527494506910443">
        <ele>1652.75</ele>
        <time>2022-01-16T07:58:49Z</time>
      </trkpt>
      <trkpt lat="45.934035535901785" lon="9.527513617649674">
        <ele>1653.2</ele>
        <time>2022-01-16T07:59:35Z</time>
      </trkpt>
      <trkpt lat="45.934025226160884" lon="9.527515796944499">
        <ele>1652.9000000000001</ele>
        <time>2022-01-16T08:00:16Z</time>
      </trkpt>
      <trkpt lat="45.934020113199949" lon="9.527515796944499">
        <ele>1653.4000000000001</ele>
        <time>2022-01-16T08:00:55Z</time>
      </trkpt>
      <trkpt lat="45.934019275009632" lon="9.52752317301929">
        <ele>1653.6700000000001</ele>
        <time>2022-01-16T08:01:37Z</time>
      </trkpt>
      <trkpt lat="45.934004941955209" lon="9.527529794722796">
        <ele>1653.79</ele>
        <time>2022-01-16T08:02:16Z</time>
      </trkpt>
      <trkpt lat="45.934013072401285" lon="9.527515461668372">
        <ele>1654.0599999999999</ele>
        <time>2022-01-16T08:02:59Z</time>
      </trkpt>
      <trkpt lat="45.934030087664723" lon="9.527501882985234">
        <ele>1654.1700000000001</ele>
        <time>2022-01-16T08:03:48Z</time>
      </trkpt>
      <trkpt lat="45.934035032987595" lon="9.527489058673382">
        <ele>1654.0799999999999</ele>
        <time>2022-01-16T08:04:30Z</time>
      </trkpt>
      <trkpt lat="45.934023801237345" lon="9.527488555759192">
        <ele>1654.3099999999999</ele>
        <time>2022-01-16T08:05:11Z</time>
      </trkpt>
      <trkpt lat="45.934023968875408" lon="9.527477575466037">
        <ele>1654.3299999999999</ele>
        <time>2022-01-16T08:05:49Z</time>
      </trkpt>
      <trkpt lat="45.934041067957878" lon="9.527461566030979">
        <ele>1653.8399999999999</ele>
        <time>2022-01-16T08:06:37Z</time>
      </trkpt>
      <trkpt lat="45.934032434597611" lon="9.527460392564535">
        <ele>1654</ele>
        <time>2022-01-16T08:07:16Z</time>
      </trkpt>
      <trkpt lat="45.93404215760529" lon="9.527457542717457">
        <ele>1654.01</ele>
        <time>2022-01-16T08:08:01Z</time>
      </trkpt>
      <trkpt lat="45.934051629155874" lon="9.527453184127808">
        <ele>1653.8900000000001</ele>
        <time>2022-01-16T08:08:39Z</time>
      </trkpt>
      <trkpt lat="45.934046432375908" lon="9.52745720744133">
        <ele>1654.01</ele>
        <time>2022-01-16T08:09:21Z</time>
      </trkpt>
      <trkpt lat="45.934051545336843" lon="9.527455531060696">
        <ele>1653.99</ele>
        <time>2022-01-16T08:09:57Z</time>
      </trkpt>
      <trkpt lat="45.934043079614639" lon="9.527452429756522">
        <ele>1653.76</ele>
        <time>2022-01-16T08:10:32Z</time>
      </trkpt>
      <trkpt lat="45.934037547558546" lon="9.527451172471046">
        <ele>1653.3900000000001</ele>
        <time>2022-01-16T08:11:14Z</time>
      </trkpt>
      <trkpt lat="45.934043833985925" lon="9.527441700920463">
        <ele>1653.5999999999999</ele>
        <time>2022-01-16T08:11:49Z</time>
      </trkpt>
      <trkpt lat="45.934049701318145" lon="9.527445053681731">
        <ele>1653.6600000000001</ele>
        <time>2022-01-16T08:12:30Z</time>
      </trkpt>
      <trkpt lat="45.93404995277524" lon="9.527444634586573">
        <ele>1653.8499999999999</ele>
        <time>2022-01-16T08:13:03Z</time>
      </trkpt>
      <trkpt lat="45.934053724631667" lon="9.527443796396256">
        <ele>1653.8900000000001</ele>
        <time>2022-01-16T08:13:45Z</time>
      </trkpt>
      <trkpt lat="45.934052467346191" lon="9.527452178299427">
        <ele>1653.48</ele>
        <time>2022-01-16T08:14:09Z</time>
      </trkpt>
      <trkpt lat="45.934041235595942" lon="9.527467684820294">
        <ele>1653.49</ele>
        <time>2022-01-16T08:14:26Z</time>
      </trkpt>
      <trkpt lat="45.934039391577244" lon="9.527468858286738">
        <ele>1653.49</ele>
        <time>2022-01-16T08:14:43Z</time>
      </trkpt>
      <trkpt lat="45.934039810672402" lon="9.527466678991914">
        <ele>1653.5</ele>
        <time>2022-01-16T08:15:02Z</time>
      </trkpt>
      <trkpt lat="45.934046432375908" lon="9.527462907135487">
        <ele>1653.3</ele>
        <time>2022-01-16T08:15:27Z</time>
      </trkpt>
      <trkpt lat="45.934046935290098" lon="9.527455782517791">
        <ele>1653.5699999999999</ele>
        <time>2022-01-16T08:15:55Z</time>
      </trkpt>
      <trkpt lat="45.934045845642686" lon="9.527454944327474">
        <ele>1653.3</ele>
        <time>2022-01-16T08:16:20Z</time>
      </trkpt>
      <trkpt lat="45.934048695489764" lon="9.527447652071714">
        <ele>1653.0599999999999</ele>
        <time>2022-01-16T08:16:44Z</time>
      </trkpt>
      <trkpt lat="45.934044672176242" lon="9.527452429756522">
        <ele>1653.24</ele>
        <time>2022-01-16T08:17:16Z</time>
      </trkpt>
      <trkpt lat="45.934048444032669" lon="9.527460727840662">
        <ele>1653.1300000000001</ele>
        <time>2022-01-16T08:17:47Z</time>
      </trkpt>
      <trkpt lat="45.934047102928162" lon="9.52745963819325">
        <ele>1653.29</ele>
        <time>2022-01-16T08:18:18Z</time>
      </trkpt>
      <trkpt lat="45.934045678004622" lon="9.527456788346171">
        <ele>1653.1500000000001</ele>
        <time>2022-01-16T08:18:49Z</time>
      </trkpt>
      <trkpt lat="45.934037379920483" lon="9.527467601001263">
        <ele>1653.2</ele>
        <time>2022-01-16T08:19:31Z</time>
      </trkpt>
      <trkpt lat="45.934050790965557" lon="9.527459889650345">
        <ele>1653.0999999999999</ele>
        <time>2022-01-16T08:20:05Z</time>
      </trkpt>
      <trkpt lat="45.934047605842352" lon="9.527459722012281">
        <ele>1653.1700000000001</ele>
        <time>2022-01-16T08:20:55Z</time>
      </trkpt>
      <trkpt lat="45.934056574478745" lon="9.527452178299427">
        <ele>1653.02</ele>
        <time>2022-01-16T08:21:42Z</time>
      </trkpt>
      <trkpt lat="45.934071829542518" lon="9.527439353987575">
        <ele>1652.8699999999999</ele>
        <time>2022-01-16T08:22:29Z</time>
      </trkpt>
      <trkpt lat="45.934071745723486" lon="9.527443964034319">
        <ele>1652.6600000000001</ele>
        <time>2022-01-16T08:23:13Z</time>
      </trkpt>
      <trkpt lat="45.934081636369228" lon="9.527439940720797">
        <ele>1652.3699999999999</ele>
        <time>2022-01-16T08:23:57Z</time>
      </trkpt>
      <trkpt lat="45.934105357155204" lon="9.527418985962868">
        <ele>1652.1900000000001</ele>
        <time>2022-01-16T08:24:41Z</time>
      </trkpt>
      <trkpt lat="45.934090605005622" lon="9.527402305975556">
        <ele>1651.9400000000001</ele>
        <time>2022-01-16T08:25:20Z</time>
      </trkpt>
      <trkpt lat="45.934082390740514" lon="9.527416722849011">
        <ele>1651.5999999999999</ele>
        <time>2022-01-16T08:26:00Z</time>
      </trkpt>
      <trkpt lat="45.934071829542518" lon="9.527444131672382">
        <ele>1651.6199999999999</ele>
        <time>2022-01-16T08:26:38Z</time>
      </trkpt>
      <trkpt lat="45.934072164818645" lon="9.527452345937491">
        <ele>1651.3800000000001</ele>
        <time>2022-01-16T08:27:21Z</time>
      </trkpt>
      <trkpt lat="45.934067890048027" lon="9.527439689263701">
        <ele>1651.46</ele>
        <time>2022-01-16T08:28:11Z</time>
      </trkpt>
      <trkpt lat="45.934062609449029" lon="9.527434073388577">
        <ele>1651.1800000000001</ele>
        <time>2022-01-16T08:29:02Z</time>
      </trkpt>
      <trkpt lat="45.934057496488094" lon="9.527440443634987">
        <ele>1651.24</ele>
        <time>2022-01-16T08:29:53Z</time>
      </trkpt>
      <trkpt lat="45.934062693268061" lon="9.527445305138826">
        <ele>1651.25</ele>
        <time>2022-01-16T08:30:28Z</time>
      </trkpt>
      <trkpt lat="45.934060849249363" lon="9.527436923235655">
        <ele>1651.29</ele>
        <time>2022-01-16T08:31:04Z</time>
      </trkpt>
      <trkpt lat="45.934063447639346" lon="9.527434660121799">
        <ele>1651.1400000000001</ele>
        <time>2022-01-16T08:31:46Z</time>
      </trkpt>
      <trkpt lat="45.934069147333503" lon="9.527427535504103">
        <ele>1651.05</ele>
        <time>2022-01-16T08:32:25Z</time>
      </trkpt>
      <trkpt lat="45.934070153161883" lon="9.527437509968877">
        <ele>1651.1099999999999</ele>
        <time>2022-01-16T08:32:50Z</time>
      </trkpt>
      <trkpt lat="45.934065375477076" lon="9.527422590181232">
        <ele>1651.1800000000001</ele>
        <time>2022-01-16T08:33:13Z</time>
      </trkpt>
      <trkpt lat="45.934069566428661" lon="9.527424518018961">
        <ele>1651.1600000000001</ele>
        <time>2022-01-16T08:33:42Z</time>
      </trkpt>
      <trkpt lat="45.934080462902784" lon="9.527432983741164">
        <ele>1652.78</ele>
        <time>2022-01-16T08:33:59Z</time>
      </trkpt>
      <trkpt lat="45.934065040200949" lon="9.527441700920463">
        <ele>1651.6099999999999</ele>
        <time>2022-01-16T08:34:16Z</time>
      </trkpt>
      <trkpt lat="45.934065040200949" lon="9.527444550767541">
        <ele>1644.27</ele>
        <time>2022-01-16T08:34:20Z</time>
      </trkpt>
      <trkpt lat="45.93406462110579" lon="9.527443293482065">
        <ele>1645.0599999999999</ele>
        <time>2022-01-16T08:34:21Z</time>
      </trkpt>
      <trkpt lat="45.934066465124488" lon="9.527442287653685">
        <ele>1651.76</ele>
        <time>2022-01-16T08:34:22Z</time>
      </trkpt>
      <trkpt lat="45.934067219495773" lon="9.527441449463368">
        <ele>1656.4300000000001</ele>
        <time>2022-01-16T08:34:24Z</time>
      </trkpt>
      <trkpt lat="45.934067973867059" lon="9.527441617101431">
        <ele>1656.5799999999999</ele>
        <time>2022-01-16T08:34:25Z</time>
      </trkpt>
      <trkpt lat="45.934064788743854" lon="9.527441533282399">
        <ele>1652.6600000000001</ele>
        <time>2022-01-16T08:34:27Z</time>
      </trkpt>
      <trkpt lat="45.934073757380247" lon="9.527427367866039">
        <ele>1651.49</ele>
        <time>2022-01-16T08:34:41Z</time>
      </trkpt>
      <trkpt lat="45.934083145111799" lon="9.527440695092082">
        <ele>1651.4000000000001</ele>
        <time>2022-01-16T08:34:56Z</time>
      </trkpt>
      <trkpt lat="45.934071745723486" lon="9.527447735890746">
        <ele>1651.54</ele>
        <time>2022-01-16T08:35:23Z</time>
      </trkpt>
      <trkpt lat="45.934049617499113" lon="9.527433821931481">
        <ele>1651.6099999999999</ele>
        <time>2022-01-16T08:35:41Z</time>
      </trkpt>
      <trkpt lat="45.934049030765891" lon="9.527442455291748">
        <ele>1651.5999999999999</ele>
        <time>2022-01-16T08:36:03Z</time>
      </trkpt>
      <trkpt lat="45.934043414890766" lon="9.527431894093752">
        <ele>1651.9100000000001</ele>
        <time>2022-01-16T08:36:18Z</time>
      </trkpt>
      <trkpt lat="45.934018520638347" lon="9.527374478057027">
        <ele>1651.95</ele>
        <time>2022-01-16T08:36:31Z</time>
      </trkpt>
      <trkpt lat="45.933971498161554" lon="9.527390990406275">
        <ele>1651.6099999999999</ele>
        <time>2022-01-16T08:36:54Z</time>
      </trkpt>
      <trkpt lat="45.933960936963558" lon="9.52749777585268">
        <ele>1650.54</ele>
        <time>2022-01-16T08:37:06Z</time>
      </trkpt>
      <trkpt lat="45.933974515646696" lon="9.527628868818283">
        <ele>1648.6099999999999</ele>
        <time>2022-01-16T08:37:22Z</time>
      </trkpt>
      <trkpt lat="45.93397275544703" lon="9.527710257098079">
        <ele>1647.5699999999999</ele>
        <time>2022-01-16T08:37:33Z</time>
      </trkpt>
      <trkpt lat="45.933969654142857" lon="9.527743114158511">
        <ele>1647.0799999999999</ele>
        <time>2022-01-16T08:37:36Z</time>
      </trkpt>
      <trkpt lat="45.933927241712809" lon="9.527866076678038">
        <ele>1645.23</ele>
        <time>2022-01-16T08:37:46Z</time>
      </trkpt>
      <trkpt lat="45.933877620846033" lon="9.527989709749818">
        <ele>1643.3</ele>
        <time>2022-01-16T08:37:57Z</time>
      </trkpt>
      <trkpt lat="45.933848200365901" lon="9.528077803552151">
        <ele>1642.01</ele>
        <time>2022-01-16T08:38:08Z</time>
      </trkpt>
      <trkpt lat="45.933806961402297" lon="9.528202274814248">
        <ele>1640.79</ele>
        <time>2022-01-16T08:38:19Z</time>
      </trkpt>
      <trkpt lat="45.933759184554219" lon="9.528270000591874">
        <ele>1638.6800000000001</ele>
        <time>2022-01-16T08:38:31Z</time>
      </trkpt>
      <trkpt lat="45.933758346363902" lon="9.528291961178184">
        <ele>1638.29</ele>
        <time>2022-01-16T08:38:43Z</time>
      </trkpt>
      <trkpt lat="45.93374845571816" lon="9.528315262869">
        <ele>1637.9400000000001</ele>
        <time>2022-01-16T08:38:49Z</time>
      </trkpt>
      <trkpt lat="45.933718113228679" lon="9.528324482962489">
        <ele>1637.47</ele>
        <time>2022-01-16T08:38:52Z</time>
      </trkpt>
      <trkpt lat="45.933604873716831" lon="9.528391202911735">
        <ele>1637.3800000000001</ele>
        <time>2022-01-16T08:39:04Z</time>
      </trkpt>
      <trkpt lat="45.933581236749887" lon="9.528421964496374">
        <ele>1637.1600000000001</ele>
        <time>2022-01-16T08:39:07Z</time>
      </trkpt>
      <trkpt lat="45.933563802391291" lon="9.528501844033599">
        <ele>1636.9200000000001</ele>
        <time>2022-01-16T08:39:19Z</time>
      </trkpt>
      <trkpt lat="45.933540081605315" lon="9.528581388294697">
        <ele>1637.23</ele>
        <time>2022-01-16T08:39:34Z</time>
      </trkpt>
      <trkpt lat="45.93351736664772" lon="9.528613742440939">
        <ele>1636.8499999999999</ele>
        <time>2022-01-16T08:40:00Z</time>
      </trkpt>
      <trkpt lat="45.933503117412329" lon="9.528655903413892">
        <ele>1636.0899999999999</ele>
        <time>2022-01-16T08:40:04Z</time>
      </trkpt>
      <trkpt lat="45.933494064956903" lon="9.528681049123406">
        <ele>1636.3199999999999</ele>
        <time>2022-01-16T08:40:06Z</time>
      </trkpt>
      <trkpt lat="45.933437570929527" lon="9.528816752135754">
        <ele>1634.95</ele>
        <time>2022-01-16T08:40:19Z</time>
      </trkpt>
      <trkpt lat="45.933416029438376" lon="9.528875844553113">
        <ele>1634.8699999999999</ele>
        <time>2022-01-16T08:40:23Z</time>
      </trkpt>
      <trkpt lat="45.933263059705496" lon="9.529143562540412">
        <ele>1633.21</ele>
        <time>2022-01-16T08:40:42Z</time>
      </trkpt>
      <trkpt lat="45.933113694190979" lon="9.529322348535061">
        <ele>1632.0699999999999</ele>
        <time>2022-01-16T08:41:00Z</time>
      </trkpt>
      <trkpt lat="45.933028450235724" lon="9.529445059597492">
        <ele>1631.6400000000001</ele>
        <time>2022-01-16T08:41:11Z</time>
      </trkpt>
      <trkpt lat="45.932936333119869" lon="9.529617559164763">
        <ele>1630.3399999999999</ele>
        <time>2022-01-16T08:41:24Z</time>
      </trkpt>
      <trkpt lat="45.932865422219038" lon="9.529730631038547">
        <ele>1629.6600000000001</ele>
        <time>2022-01-16T08:41:35Z</time>
      </trkpt>
      <trkpt lat="45.932850418612361" lon="9.52976843342185">
        <ele>1629.6600000000001</ele>
        <time>2022-01-16T08:41:38Z</time>
      </trkpt>
      <trkpt lat="45.932771461084485" lon="9.530065068975091">
        <ele>1629.6700000000001</ele>
        <time>2022-01-16T08:41:56Z</time>
      </trkpt>
      <trkpt lat="45.932760229334235" lon="9.530351394787431">
        <ele>1630.2</ele>
        <time>2022-01-16T08:42:14Z</time>
      </trkpt>
      <trkpt lat="45.932784704491496" lon="9.530553398653865">
        <ele>1631.3699999999999</ele>
        <time>2022-01-16T08:42:28Z</time>
      </trkpt>
      <trkpt lat="45.932797696441412" lon="9.530770992860198">
        <ele>1632.79</ele>
        <time>2022-01-16T08:42:43Z</time>
      </trkpt>
      <trkpt lat="45.932808592915535" lon="9.530978947877884">
        <ele>1633.28</ele>
        <time>2022-01-16T08:42:58Z</time>
      </trkpt>
      <trkpt lat="45.932813957333565" lon="9.531010212376714">
        <ele>1633.24</ele>
        <time>2022-01-16T08:43:00Z</time>
      </trkpt>
      <trkpt lat="45.932889059185982" lon="9.531236104667187">
        <ele>1634.22</ele>
        <time>2022-01-16T08:43:15Z</time>
      </trkpt>
      <trkpt lat="45.932974386960268" lon="9.531425200402737">
        <ele>1635.3599999999999</ele>
        <time>2022-01-16T08:43:29Z</time>
      </trkpt>
      <trkpt lat="45.933074215427041" lon="9.531589988619089">
        <ele>1636.46</ele>
        <time>2022-01-16T08:43:43Z</time>
      </trkpt>
      <trkpt lat="45.933169517666101" lon="9.531796686351299">
        <ele>1637.3299999999999</ele>
        <time>2022-01-16T08:43:59Z</time>
      </trkpt>
      <trkpt lat="45.933088883757591" lon="9.531998438760638">
        <ele>1637.6400000000001</ele>
        <time>2022-01-16T08:44:13Z</time>
      </trkpt>
      <trkpt lat="45.93297983519733" lon="9.532255260273814">
        <ele>1637.5999999999999</ele>
        <time>2022-01-16T08:44:30Z</time>
      </trkpt>
      <trkpt lat="45.93295980244875" lon="9.532439997419715">
        <ele>1638.23</ele>
        <time>2022-01-16T08:44:42Z</time>
      </trkpt>
      <trkpt lat="45.932954186573625" lon="9.532452737912536">
        <ele>1638.3399999999999</ele>
        <time>2022-01-16T08:44:51Z</time>
      </trkpt>
      <trkpt lat="45.932946894317865" lon="9.532500430941582">
        <ele>1638.3699999999999</ele>
        <time>2022-01-16T08:45:02Z</time>
      </trkpt>
      <trkpt lat="45.932946810498834" lon="9.5325150154531">
        <ele>1638.4400000000001</ele>
        <time>2022-01-16T08:45:09Z</time>
      </trkpt>
      <trkpt lat="45.932948486879468" lon="9.532683826982975">
        <ele>1638.9100000000001</ele>
        <time>2022-01-16T08:45:24Z</time>
      </trkpt>
      <trkpt lat="45.93294370919466" lon="9.532690448686481">
        <ele>1638.78</ele>
        <time>2022-01-16T08:45:36Z</time>
      </trkpt>
      <trkpt lat="45.932944798842072" lon="9.532691622152925">
        <ele>1639.5599999999999</ele>
        <time>2022-01-16T08:45:40Z</time>
      </trkpt>
      <trkpt lat="45.932945720851421" lon="9.532697489485145">
        <ele>1638.6199999999999</ele>
        <time>2022-01-16T08:45:57Z</time>
      </trkpt>
      <trkpt lat="45.932961227372289" lon="9.532673349604011">
        <ele>1638.54</ele>
        <time>2022-01-16T08:46:11Z</time>
      </trkpt>
      <trkpt lat="45.932967262342572" lon="9.532673936337233">
        <ele>1638.75</ele>
        <time>2022-01-16T08:46:27Z</time>
      </trkpt>
      <trkpt lat="45.933038089424372" lon="9.532642001286149">
        <ele>1639.21</ele>
        <time>2022-01-16T08:46:38Z</time>
      </trkpt>
      <trkpt lat="45.933073461055756" lon="9.532636720687151">
        <ele>1639.4400000000001</ele>
        <time>2022-01-16T08:46:42Z</time>
      </trkpt>
      <trkpt lat="45.933117885142565" lon="9.532635966315866">
        <ele>1639.0699999999999</ele>
        <time>2022-01-16T08:46:56Z</time>
      </trkpt>
      <trkpt lat="45.933104809373617" lon="9.532666224986315">
        <ele>1638.73</ele>
        <time>2022-01-16T08:47:09Z</time>
      </trkpt>
      <trkpt lat="45.933125177398324" lon="9.532664380967617">
        <ele>1638.78</ele>
        <time>2022-01-16T08:47:15Z</time>
      </trkpt>
      <trkpt lat="45.933296671137214" lon="9.532677456736565">
        <ele>1637.3800000000001</ele>
        <time>2022-01-16T08:47:29Z</time>
      </trkpt>
      <trkpt lat="45.933434804901481" lon="9.532679468393326">
        <ele>1636.99</ele>
        <time>2022-01-16T08:47:41Z</time>
      </trkpt>
      <trkpt lat="45.933531615883112" lon="9.532673768699169">
        <ele>1637.28</ele>
        <time>2022-01-16T08:47:51Z</time>
      </trkpt>
      <trkpt lat="45.933542428538203" lon="9.532676283270121">
        <ele>1637.3299999999999</ele>
        <time>2022-01-16T08:47:52Z</time>
      </trkpt>
      <trkpt lat="45.933661367744207" lon="9.532726490870118">
        <ele>1637.48</ele>
        <time>2022-01-16T08:48:05Z</time>
      </trkpt>
      <trkpt lat="45.933784414082766" lon="9.532709224149585">
        <ele>1638.77</ele>
        <time>2022-01-16T08:48:19Z</time>
      </trkpt>
      <trkpt lat="45.933808889240026" lon="9.532721545547247">
        <ele>1639.3699999999999</ele>
        <time>2022-01-16T08:48:30Z</time>
      </trkpt>
      <trkpt lat="45.933870915323496" lon="9.532799329608679">
        <ele>1641.3399999999999</ele>
        <time>2022-01-16T08:48:41Z</time>
      </trkpt>
      <trkpt lat="45.933873681351542" lon="9.532822798937559">
        <ele>1640.74</ele>
        <time>2022-01-16T08:48:48Z</time>
      </trkpt>
      <trkpt lat="45.933865802362561" lon="9.532813830301166">
        <ele>1640.48</ele>
        <time>2022-01-16T08:49:21Z</time>
      </trkpt>
      <trkpt lat="45.933879297226667" lon="9.53280477784574">
        <ele>1640.97</ele>
        <time>2022-01-16T08:49:37Z</time>
      </trkpt>
      <trkpt lat="45.933901006355882" lon="9.532844005152583">
        <ele>1641.1400000000001</ele>
        <time>2022-01-16T08:49:50Z</time>
      </trkpt>
      <trkpt lat="45.934012737125158" lon="9.532875940203667">
        <ele>1642.26</ele>
        <time>2022-01-16T08:50:03Z</time>
      </trkpt>
      <trkpt lat="45.934062693268061" lon="9.532904522493482">
        <ele>1642.5599999999999</ele>
        <time>2022-01-16T08:50:09Z</time>
      </trkpt>
      <trkpt lat="45.934103094041348" lon="9.532938217744231">
        <ele>1643.1700000000001</ele>
        <time>2022-01-16T08:50:14Z</time>
      </trkpt>
      <trkpt lat="45.934160677716136" lon="9.532992783933878">
        <ele>1645.1199999999999</ele>
        <time>2022-01-16T08:50:22Z</time>
      </trkpt>
      <trkpt lat="45.934246256947517" lon="9.533103844150901">
        <ele>1647.8</ele>
        <time>2022-01-16T08:50:37Z</time>
      </trkpt>
      <trkpt lat="45.93435044400394" lon="9.533181795850396">
        <ele>1650.1800000000001</ele>
        <time>2022-01-16T08:50:52Z</time>
      </trkpt>
      <trkpt lat="45.934448512271047" lon="9.533312637358904">
        <ele>1652.9100000000001</ele>
        <time>2022-01-16T08:51:09Z</time>
      </trkpt>
      <trkpt lat="45.934527134522796" lon="9.53344683162868">
        <ele>1655.29</ele>
        <time>2022-01-16T08:51:25Z</time>
      </trkpt>
      <trkpt lat="45.934597542509437" lon="9.533516401425004">
        <ele>1657.6900000000001</ele>
        <time>2022-01-16T08:51:39Z</time>
      </trkpt>
      <trkpt lat="45.934679182246327" lon="9.533604076132178">
        <ele>1660.75</ele>
        <time>2022-01-16T08:51:56Z</time>
      </trkpt>
      <trkpt lat="45.93473793938756" lon="9.533679513260722">
        <ele>1663.54</ele>
        <time>2022-01-16T08:52:10Z</time>
      </trkpt>
      <trkpt lat="45.934813041239977" lon="9.533774731680751">
        <ele>1666.8099999999999</ele>
        <time>2022-01-16T08:52:28Z</time>
      </trkpt>
      <trkpt lat="45.934898369014263" lon="9.533891072496772">
        <ele>1669.8800000000001</ele>
        <time>2022-01-16T08:52:46Z</time>
      </trkpt>
      <trkpt lat="45.934954527765512" lon="9.533972293138504">
        <ele>1670.3599999999999</ele>
        <time>2022-01-16T08:52:56Z</time>
      </trkpt>
      <trkpt lat="45.935044046491385" lon="9.534102296456695">
        <ele>1672.29</ele>
        <time>2022-01-16T08:53:12Z</time>
      </trkpt>
      <trkpt lat="45.935114286839962" lon="9.534216457977891">
        <ele>1674.0799999999999</ele>
        <time>2022-01-16T08:53:25Z</time>
      </trkpt>
      <trkpt lat="45.935175893828273" lon="9.534344701096416">
        <ele>1674.9200000000001</ele>
        <time>2022-01-16T08:53:39Z</time>
      </trkpt>
      <trkpt lat="45.935180587694049" lon="9.534354088827968">
        <ele>1675.1300000000001</ele>
        <time>2022-01-16T08:53:40Z</time>
      </trkpt>
      <trkpt lat="45.93525979667902" lon="9.534437153488398">
        <ele>1677.04</ele>
        <time>2022-01-16T08:53:52Z</time>
      </trkpt>
      <trkpt lat="45.935271782800555" lon="9.534492306411266">
        <ele>1677.9300000000001</ele>
        <time>2022-01-16T08:53:57Z</time>
      </trkpt>
      <trkpt lat="45.935284942388535" lon="9.534612083807588">
        <ele>1679.6400000000001</ele>
        <time>2022-01-16T08:54:07Z</time>
      </trkpt>
      <trkpt lat="45.935300029814243" lon="9.534727083519101">
        <ele>1681.0699999999999</ele>
        <time>2022-01-16T08:54:20Z</time>
      </trkpt>
      <trkpt lat="45.935293743386865" lon="9.534772597253323">
        <ele>1681.29</ele>
        <time>2022-01-16T08:54:32Z</time>
      </trkpt>
      <trkpt lat="45.93530086800456" lon="9.534857338294387">
        <ele>1682.1600000000001</ele>
        <time>2022-01-16T08:54:44Z</time>
      </trkpt>
      <trkpt lat="45.935298353433609" lon="9.534875946119428">
        <ele>1682.05</ele>
        <time>2022-01-16T08:54:57Z</time>
      </trkpt>
      <trkpt lat="45.935303717851639" lon="9.534881226718426">
        <ele>1682.1600000000001</ele>
        <time>2022-01-16T08:55:04Z</time>
      </trkpt>
      <trkpt lat="45.935311010107398" lon="9.53491953201592">
        <ele>1682.45</ele>
        <time>2022-01-16T08:55:07Z</time>
      </trkpt>
      <trkpt lat="45.935311680659652" lon="9.534998070448637">
        <ele>1683.3099999999999</ele>
        <time>2022-01-16T08:55:13Z</time>
      </trkpt>
      <trkpt lat="45.935331964865327" lon="9.535095049068332">
        <ele>1683.4400000000001</ele>
        <time>2022-01-16T08:55:19Z</time>
      </trkpt>
      <trkpt lat="45.935456603765488" lon="9.535257238894701">
        <ele>1686.23</ele>
        <time>2022-01-16T08:55:34Z</time>
      </trkpt>
      <trkpt lat="45.935616698116064" lon="9.535355810075998">
        <ele>1687.8599999999999</ele>
        <time>2022-01-16T08:55:49Z</time>
      </trkpt>
      <trkpt lat="45.93575675971806" lon="9.535462344065309">
        <ele>1689.74</ele>
        <time>2022-01-16T08:56:03Z</time>
      </trkpt>
      <trkpt lat="45.935846110805869" lon="9.535537529736757">
        <ele>1691.45</ele>
        <time>2022-01-16T08:56:14Z</time>
      </trkpt>
      <trkpt lat="45.935956249013543" lon="9.535627802833915">
        <ele>1693.49</ele>
        <time>2022-01-16T08:56:27Z</time>
      </trkpt>
      <trkpt lat="45.936010228469968" lon="9.535683123394847">
        <ele>1694.0899999999999</ele>
        <time>2022-01-16T08:56:34Z</time>
      </trkpt>
      <trkpt lat="45.936117433011532" lon="9.535797452554107">
        <ele>1695.95</ele>
        <time>2022-01-16T08:56:48Z</time>
      </trkpt>
      <trkpt lat="45.936159091070294" lon="9.535846738144755">
        <ele>1696.53</ele>
        <time>2022-01-16T08:56:54Z</time>
      </trkpt>
      <trkpt lat="45.936218518763781" lon="9.535938687622547">
        <ele>1697.73</ele>
        <time>2022-01-16T08:57:03Z</time>
      </trkpt>
      <trkpt lat="45.936299404129386" lon="9.536086963489652">
        <ele>1699.4200000000001</ele>
        <time>2022-01-16T08:57:19Z</time>
      </trkpt>
      <trkpt lat="45.936344163492322" lon="9.53615334816277">
        <ele>1700.1199999999999</ele>
        <time>2022-01-16T08:57:26Z</time>
      </trkpt>
      <trkpt lat="45.936323795467615" lon="9.536152509972453">
        <ele>1699.5599999999999</ele>
        <time>2022-01-16T08:57:44Z</time>
      </trkpt>
      <trkpt lat="45.936325052753091" lon="9.53614940866828">
        <ele>1699.3</ele>
        <time>2022-01-16T08:57:53Z</time>
      </trkpt>
      <trkpt lat="45.936425551772118" lon="9.536221493035555">
        <ele>1699.71</ele>
        <time>2022-01-16T08:58:03Z</time>
      </trkpt>
      <trkpt lat="45.936555471271276" lon="9.536392735317349">
        <ele>1700.6099999999999</ele>
        <time>2022-01-16T08:58:18Z</time>
      </trkpt>
      <trkpt lat="45.936659574508667" lon="9.536566827446222">
        <ele>1702.0799999999999</ele>
        <time>2022-01-16T08:58:32Z</time>
      </trkpt>
      <trkpt lat="45.936665777117014" lon="9.536581914871931">
        <ele>1702.1400000000001</ele>
        <time>2022-01-16T08:58:33Z</time>
      </trkpt>
      <trkpt lat="45.936745321378112" lon="9.536741422489286">
        <ele>1704.01</ele>
        <time>2022-01-16T08:58:46Z</time>
      </trkpt>
      <trkpt lat="45.936844227835536" lon="9.536911239847541">
        <ele>1705.5</ele>
        <time>2022-01-16T08:59:00Z</time>
      </trkpt>
      <trkpt lat="45.93694363720715" lon="9.537091450765729">
        <ele>1706.9000000000001</ele>
        <time>2022-01-16T08:59:15Z</time>
      </trkpt>
      <trkpt lat="45.937014548107982" lon="9.5372967235744">
        <ele>1708.72</ele>
        <time>2022-01-16T08:59:30Z</time>
      </trkpt>
      <trkpt lat="45.937031228095293" lon="9.537367885932326">
        <ele>1709.96</ele>
        <time>2022-01-16T08:59:44Z</time>
      </trkpt>
      <trkpt lat="45.937048075720668" lon="9.537387499585748">
        <ele>1710.02</ele>
        <time>2022-01-16T08:59:58Z</time>
      </trkpt>
      <trkpt lat="45.937067605555058" lon="9.537466708570719">
        <ele>1710.97</ele>
        <time>2022-01-16T09:00:08Z</time>
      </trkpt>
      <trkpt lat="45.937057211995125" lon="9.537464110180736">
        <ele>1710.97</ele>
        <time>2022-01-16T09:00:23Z</time>
      </trkpt>
      <trkpt lat="45.937056625261903" lon="9.53750342130661">
        <ele>1710.9400000000001</ele>
        <time>2022-01-16T09:00:36Z</time>
      </trkpt>
      <trkpt lat="45.937051679939032" lon="9.537507696077228">
        <ele>1710.46</ele>
        <time>2022-01-16T09:00:54Z</time>
      </trkpt>
      <trkpt lat="45.93708042986691" lon="9.537549521774054">
        <ele>1711.5699999999999</ele>
        <time>2022-01-16T09:01:10Z</time>
      </trkpt>
      <trkpt lat="45.937092499807477" lon="9.537601657211781">
        <ele>1712.0699999999999</ele>
        <time>2022-01-16T09:01:18Z</time>
      </trkpt>
      <trkpt lat="45.937064420431852" lon="9.537598639726639">
        <ele>1711.77</ele>
        <time>2022-01-16T09:01:32Z</time>
      </trkpt>
      <trkpt lat="45.937060983851552" lon="9.53759428113699">
        <ele>1708.74</ele>
        <time>2022-01-16T09:01:43Z</time>
      </trkpt>
      <trkpt lat="45.93706039711833" lon="9.537593610584736">
        <ele>1711.75</ele>
        <time>2022-01-16T09:01:44Z</time>
      </trkpt>
      <trkpt lat="45.937060816213489" lon="9.537594700232148">
        <ele>1713.1099999999999</ele>
        <time>2022-01-16T09:01:46Z</time>
      </trkpt>
      <trkpt lat="45.937061989679933" lon="9.537595119327307">
        <ele>1712.01</ele>
        <time>2022-01-16T09:02:09Z</time>
      </trkpt>
      <trkpt lat="45.937058134004474" lon="9.537595957517624">
        <ele>1712.0599999999999</ele>
        <time>2022-01-16T09:02:30Z</time>
      </trkpt>
      <trkpt lat="45.937056457623839" lon="9.5375972148031">
        <ele>1712.0699999999999</ele>
        <time>2022-01-16T09:02:55Z</time>
      </trkpt>
      <trkpt lat="45.937059307470918" lon="9.537599310278893">
        <ele>1711.77</ele>
        <time>2022-01-16T09:03:16Z</time>
      </trkpt>
      <trkpt lat="45.937063414603472" lon="9.537622444331646">
        <ele>1711.8900000000001</ele>
        <time>2022-01-16T09:03:29Z</time>
      </trkpt>
      <trkpt lat="45.937091410160065" lon="9.537627305835486">
        <ele>1711.98</ele>
        <time>2022-01-16T09:03:42Z</time>
      </trkpt>
      <trkpt lat="45.937168020755053" lon="9.537751358002424">
        <ele>1713.23</ele>
        <time>2022-01-16T09:03:57Z</time>
      </trkpt>
      <trkpt lat="45.937214037403464" lon="9.537841966375709">
        <ele>1714.71</ele>
        <time>2022-01-16T09:04:10Z</time>
      </trkpt>
      <trkpt lat="45.93728612177074" lon="9.538006084039807">
        <ele>1717.0699999999999</ele>
        <time>2022-01-16T09:04:31Z</time>
      </trkpt>
      <trkpt lat="45.937308166176081" lon="9.538109181448817">
        <ele>1718.78</ele>
        <time>2022-01-16T09:04:45Z</time>
      </trkpt>
      <trkpt lat="45.937321744859219" lon="9.538209764286876">
        <ele>1720.51</ele>
        <time>2022-01-16T09:04:58Z</time>
      </trkpt>
      <trkpt lat="45.937332892790437" lon="9.538304060697556">
        <ele>1722.6199999999999</ele>
        <time>2022-01-16T09:05:10Z</time>
      </trkpt>
      <trkpt lat="45.937346052378416" lon="9.538405984640122">
        <ele>1723.8599999999999</ele>
        <time>2022-01-16T09:05:23Z</time>
      </trkpt>
      <trkpt lat="45.937367593869567" lon="9.538482762873173">
        <ele>1724.9200000000001</ele>
        <time>2022-01-16T09:05:35Z</time>
      </trkpt>
      <trkpt lat="45.937416795641184" lon="9.538610586896539">
        <ele>1725.29</ele>
        <time>2022-01-16T09:05:49Z</time>
      </trkpt>
      <trkpt lat="45.93747865408659" lon="9.538788199424744">
        <ele>1727.23</ele>
        <time>2022-01-16T09:06:07Z</time>
      </trkpt>
      <trkpt lat="45.937524838373065" lon="9.538948126137257">
        <ele>1728.99</ele>
        <time>2022-01-16T09:06:25Z</time>
      </trkpt>
      <trkpt lat="45.937549564987421" lon="9.539112411439419">
        <ele>1731.45</ele>
        <time>2022-01-16T09:06:41Z</time>
      </trkpt>
      <trkpt lat="45.937555264681578" lon="9.539171252399683">
        <ele>1731.8299999999999</ele>
        <time>2022-01-16T09:06:47Z</time>
      </trkpt>
      <trkpt lat="45.937563562765718" lon="9.539298741146922">
        <ele>1733.4300000000001</ele>
        <time>2022-01-16T09:06:59Z</time>
      </trkpt>
      <trkpt lat="45.937559120357037" lon="9.539439976215363">
        <ele>1735.96</ele>
        <time>2022-01-16T09:07:13Z</time>
      </trkpt>
      <trkpt lat="45.937548726797104" lon="9.539493285119534">
        <ele>1736.77</ele>
        <time>2022-01-16T09:07:25Z</time>
      </trkpt>
      <trkpt lat="45.937568675726652" lon="9.539568806067109">
        <ele>1736.6099999999999</ele>
        <time>2022-01-16T09:07:39Z</time>
      </trkpt>
      <trkpt lat="45.93761159107089" lon="9.53967341221869">
        <ele>1738.28</ele>
        <time>2022-01-16T09:07:53Z</time>
      </trkpt>
      <trkpt lat="45.937673449516296" lon="9.539687242358923">
        <ele>1740.98</ele>
        <time>2022-01-16T09:08:05Z</time>
      </trkpt>
      <trkpt lat="45.937740923836827" lon="9.539707861840725">
        <ele>1743.6300000000001</ele>
        <time>2022-01-16T09:08:18Z</time>
      </trkpt>
      <trkpt lat="45.937763974070549" lon="9.539695205166936">
        <ele>1744.1199999999999</ele>
        <time>2022-01-16T09:08:30Z</time>
      </trkpt>
      <trkpt lat="45.937767662107944" lon="9.539690427482128">
        <ele>1744.03</ele>
        <time>2022-01-16T09:08:44Z</time>
      </trkpt>
      <trkpt lat="45.937785850837827" lon="9.539674250409007">
        <ele>1744.0699999999999</ele>
        <time>2022-01-16T09:09:01Z</time>
      </trkpt>
      <trkpt lat="45.937793394550681" lon="9.539668718352914">
        <ele>1744.03</ele>
        <time>2022-01-16T09:09:02Z</time>
      </trkpt>
      <trkpt lat="45.937829101458192" lon="9.539654469117522">
        <ele>1744.25</ele>
        <time>2022-01-16T09:09:06Z</time>
      </trkpt>
      <trkpt lat="45.937955332919955" lon="9.539585234597325">
        <ele>1746.0899999999999</ele>
        <time>2022-01-16T09:09:22Z</time>
      </trkpt>
      <trkpt lat="45.938006630167365" lon="9.539560424163938">
        <ele>1746.25</ele>
        <time>2022-01-16T09:09:28Z</time>
      </trkpt>
      <trkpt lat="45.938122803345323" lon="9.539467301219702">
        <ele>1748.53</ele>
        <time>2022-01-16T09:09:44Z</time>
      </trkpt>
      <trkpt lat="45.938217015936971" lon="9.539471156895161">
        <ele>1751.22</ele>
        <time>2022-01-16T09:09:57Z</time>
      </trkpt>
      <trkpt lat="45.938303517177701" lon="9.539456991478801">
        <ele>1753.8199999999999</ele>
        <time>2022-01-16T09:10:10Z</time>
      </trkpt>
      <trkpt lat="45.938365794718266" lon="9.539425056427717">
        <ele>1755.9000000000001</ele>
        <time>2022-01-16T09:10:22Z</time>
      </trkpt>
      <trkpt lat="45.938380798324943" lon="9.539448274299502">
        <ele>1755.98</ele>
        <time>2022-01-16T09:10:34Z</time>
      </trkpt>
      <trkpt lat="45.93837870284915" lon="9.539450202137232">
        <ele>1756.0799999999999</ele>
        <time>2022-01-16T09:10:50Z</time>
      </trkpt>
      <trkpt lat="45.938425473868847" lon="9.539455650374293">
        <ele>1756.4100000000001</ele>
        <time>2022-01-16T09:11:03Z</time>
      </trkpt>
      <trkpt lat="45.938487499952316" lon="9.539474844932556">
        <ele>1757.8199999999999</ele>
        <time>2022-01-16T09:11:16Z</time>
      </trkpt>
      <trkpt lat="45.938559584319592" lon="9.53953561373055">
        <ele>1759.9300000000001</ele>
        <time>2022-01-16T09:11:31Z</time>
      </trkpt>
      <trkpt lat="45.938598895445466" lon="9.539555814117193">
        <ele>1761.01</ele>
        <time>2022-01-16T09:11:43Z</time>
      </trkpt>
      <trkpt lat="45.938714817166328" lon="9.539603758603334">
        <ele>1763.1199999999999</ele>
        <time>2022-01-16T09:11:58Z</time>
      </trkpt>
      <trkpt lat="45.938824620097876" lon="9.539581881836057">
        <ele>1764.54</ele>
        <time>2022-01-16T09:12:12Z</time>
      </trkpt>
      <trkpt lat="45.93893333338201" lon="9.539575763046742">
        <ele>1766.3800000000001</ele>
        <time>2022-01-16T09:12:26Z</time>
      </trkpt>
      <trkpt lat="45.939023103564978" lon="9.539579702541232">
        <ele>1768.27</ele>
        <time>2022-01-16T09:12:38Z</time>
      </trkpt>
      <trkpt lat="45.939109269529581" lon="9.539603590965271">
        <ele>1769.1500000000001</ele>
        <time>2022-01-16T09:12:51Z</time>
      </trkpt>
      <trkpt lat="45.939208343625069" lon="9.53966804780066">
        <ele>1770.1900000000001</ele>
        <time>2022-01-16T09:13:04Z</time>
      </trkpt>
      <trkpt lat="45.93930272385478" lon="9.539713561534882">
        <ele>1771.5899999999999</ele>
        <time>2022-01-16T09:13:17Z</time>
      </trkpt>
      <trkpt lat="45.939421076327562" lon="9.539753207936883">
        <ele>1773.46</ele>
        <time>2022-01-16T09:13:33Z</time>
      </trkpt>
      <trkpt lat="45.939503805711865" lon="9.539735689759255">
        <ele>1775.1900000000001</ele>
        <time>2022-01-16T09:13:46Z</time>
      </trkpt>
      <trkpt lat="45.939551163464785" lon="9.5396470092237">
        <ele>1777.97</ele>
        <time>2022-01-16T09:14:00Z</time>
      </trkpt>
      <trkpt lat="45.9395348187536" lon="9.539581211283803">
        <ele>1778.6800000000001</ele>
        <time>2022-01-16T09:14:11Z</time>
      </trkpt>
      <trkpt lat="45.939520066604018" lon="9.53954097814858">
        <ele>1778.8599999999999</ele>
        <time>2022-01-16T09:14:16Z</time>
      </trkpt>
      <trkpt lat="45.939488634467125" lon="9.539436371996999">
        <ele>1777.5799999999999</ele>
        <time>2022-01-16T09:14:29Z</time>
      </trkpt>
      <trkpt lat="45.939479330554605" lon="9.539371412247419">
        <ele>1776.21</ele>
        <time>2022-01-16T09:14:36Z</time>
      </trkpt>
      <trkpt lat="45.939426943659782" lon="9.539258424192667">
        <ele>1775.8699999999999</ele>
        <time>2022-01-16T09:14:45Z</time>
      </trkpt>
      <trkpt lat="45.939314542338252" lon="9.539116099476814">
        <ele>1776.8</ele>
        <time>2022-01-16T09:15:01Z</time>
      </trkpt>
      <trkpt lat="45.939297443255782" lon="9.539106879383326">
        <ele>1777.1900000000001</ele>
        <time>2022-01-16T09:15:15Z</time>
      </trkpt>
      <trkpt lat="45.939206583425403" lon="9.538968494161964">
        <ele>1778.6300000000001</ele>
        <time>2022-01-16T09:15:30Z</time>
      </trkpt>
      <trkpt lat="45.939160147681832" lon="9.53882222995162">
        <ele>1780.9300000000001</ele>
        <time>2022-01-16T09:15:44Z</time>
      </trkpt>
      <trkpt lat="45.93909895978868" lon="9.538702704012394">
        <ele>1782.79</ele>
        <time>2022-01-16T09:15:59Z</time>
      </trkpt>
      <trkpt lat="45.939051015302539" lon="9.538556020706892">
        <ele>1784.71</ele>
        <time>2022-01-16T09:16:15Z</time>
      </trkpt>
      <trkpt lat="45.939090829342604" lon="9.538429956883192">
        <ele>1786.3299999999999</ele>
        <time>2022-01-16T09:16:29Z</time>
      </trkpt>
      <trkpt lat="45.939168445765972" lon="9.538368349894881">
        <ele>1788.74</ele>
        <time>2022-01-16T09:16:44Z</time>
      </trkpt>
      <trkpt lat="45.93919962644577" lon="9.538353513926268">
        <ele>1789.6900000000001</ele>
        <time>2022-01-16T09:16:56Z</time>
      </trkpt>
      <trkpt lat="45.939245894551277" lon="9.538270113989711">
        <ele>1791.28</ele>
        <time>2022-01-16T09:17:09Z</time>
      </trkpt>
      <trkpt lat="45.939259305596352" lon="9.538102727383375">
        <ele>1792.78</ele>
        <time>2022-01-16T09:17:24Z</time>
      </trkpt>
      <trkpt lat="45.939312698319554" lon="9.537952775135636">
        <ele>1794.04</ele>
        <time>2022-01-16T09:17:39Z</time>
      </trkpt>
      <trkpt lat="45.939398696646094" lon="9.537854371592403">
        <ele>1795.48</ele>
        <time>2022-01-16T09:17:52Z</time>
      </trkpt>
      <trkpt lat="45.939479414373636" lon="9.537807013839483">
        <ele>1797.1099999999999</ele>
        <time>2022-01-16T09:18:03Z</time>
      </trkpt>
      <trkpt lat="45.939590642228723" lon="9.537799470126629">
        <ele>1799.2</ele>
        <time>2022-01-16T09:18:19Z</time>
      </trkpt>
      <trkpt lat="45.9396090824157" lon="9.537797123193741">
        <ele>1799.5899999999999</ele>
        <time>2022-01-16T09:18:22Z</time>
      </trkpt>
      <trkpt lat="45.939740259200335" lon="9.537770720198751">
        <ele>1800.9400000000001</ele>
        <time>2022-01-16T09:18:38Z</time>
      </trkpt>
      <trkpt lat="45.93984947539866" lon="9.537733923643827">
        <ele>1802.99</ele>
        <time>2022-01-16T09:18:52Z</time>
      </trkpt>
      <trkpt lat="45.939953159540892" lon="9.537708526477218">
        <ele>1804.6700000000001</ele>
        <time>2022-01-16T09:19:05Z</time>
      </trkpt>
      <trkpt lat="45.939961122348905" lon="9.537706095725298">
        <ele>1804.76</ele>
        <time>2022-01-16T09:19:06Z</time>
      </trkpt>
      <trkpt lat="45.940042091533542" lon="9.537685895338655">
        <ele>1805.53</ele>
        <time>2022-01-16T09:19:18Z</time>
      </trkpt>
      <trkpt lat="45.940052568912506" lon="9.537685140967369">
        <ele>1805.3399999999999</ele>
        <time>2022-01-16T09:19:20Z</time>
      </trkpt>
      <trkpt lat="45.940099842846394" lon="9.537689751014113">
        <ele>1805.3199999999999</ele>
        <time>2022-01-16T09:19:25Z</time>
      </trkpt>
      <trkpt lat="45.940235294401646" lon="9.537711292505264">
        <ele>1806.0899999999999</ele>
        <time>2022-01-16T09:19:39Z</time>
      </trkpt>
      <trkpt lat="45.940326573327184" lon="9.537794860079885">
        <ele>1807.95</ele>
        <time>2022-01-16T09:19:52Z</time>
      </trkpt>
      <trkpt lat="45.940387593582273" lon="9.537888821214438">
        <ele>1810.3599999999999</ele>
        <time>2022-01-16T09:20:05Z</time>
      </trkpt>
      <trkpt lat="45.940413409844041" lon="9.537914972752333">
        <ele>1811.01</ele>
        <time>2022-01-16T09:20:13Z</time>
      </trkpt>
      <trkpt lat="45.940487673506141" lon="9.53798521310091">
        <ele>1813.5699999999999</ele>
        <time>2022-01-16T09:20:28Z</time>
      </trkpt>
      <trkpt lat="45.940505024045706" lon="9.538009017705917">
        <ele>1814.1400000000001</ele>
        <time>2022-01-16T09:20:42Z</time>
      </trkpt>
      <trkpt lat="45.940569983795285" lon="9.538063919171691">
        <ele>1814.98</ele>
        <time>2022-01-16T09:20:56Z</time>
      </trkpt>
      <trkpt lat="45.94065623357892" lon="9.538133405148983">
        <ele>1815.9400000000001</ele>
        <time>2022-01-16T09:21:09Z</time>
      </trkpt>
      <trkpt lat="45.940753296017647" lon="9.538175985217094">
        <ele>1816.46</ele>
        <time>2022-01-16T09:21:22Z</time>
      </trkpt>
      <trkpt lat="45.940829822793603" lon="9.538294086232781">
        <ele>1818.4000000000001</ele>
        <time>2022-01-16T09:21:37Z</time>
      </trkpt>
      <trkpt lat="45.940857483074069" lon="9.538447223603725">
        <ele>1820.78</ele>
        <time>2022-01-16T09:21:52Z</time>
      </trkpt>
      <trkpt lat="45.940856309607625" lon="9.538527354598045">
        <ele>1821.9400000000001</ele>
        <time>2022-01-16T09:22:07Z</time>
      </trkpt>
      <trkpt lat="45.940865278244019" lon="9.538643108680844">
        <ele>1823.4300000000001</ele>
        <time>2022-01-16T09:22:20Z</time>
      </trkpt>
      <trkpt lat="45.94089075922966" lon="9.538757186383009">
        <ele>1824.6199999999999</ele>
        <time>2022-01-16T09:22:33Z</time>
      </trkpt>
      <trkpt lat="45.940955551341176" lon="9.53886573202908">
        <ele>1826.9200000000001</ele>
        <time>2022-01-16T09:22:49Z</time>
      </trkpt>
      <trkpt lat="45.941031575202942" lon="9.538922980427742">
        <ele>1828.5699999999999</ele>
        <time>2022-01-16T09:23:03Z</time>
      </trkpt>
      <trkpt lat="45.941120507195592" lon="9.538965811952949">
        <ele>1829.54</ele>
        <time>2022-01-16T09:23:18Z</time>
      </trkpt>
      <trkpt lat="45.941202398389578" lon="9.539035968482494">
        <ele>1831.2</ele>
        <time>2022-01-16T09:23:32Z</time>
      </trkpt>
      <trkpt lat="45.94124598428607" lon="9.539068741723895">
        <ele>1831.8800000000001</ele>
        <time>2022-01-16T09:23:48Z</time>
      </trkpt>
      <trkpt lat="45.941238021478057" lon="9.539072345942259">
        <ele>1830.8800000000001</ele>
        <time>2022-01-16T09:24:04Z</time>
      </trkpt>
      <trkpt lat="45.941232405602932" lon="9.539069663733244">
        <ele>1831.02</ele>
        <time>2022-01-16T09:24:42Z</time>
      </trkpt>
      <trkpt lat="45.941226622089744" lon="9.539066394791007">
        <ele>1831.1500000000001</ele>
        <time>2022-01-16T09:25:28Z</time>
      </trkpt>
      <trkpt lat="45.941220922395587" lon="9.53906798735261">
        <ele>1831.1300000000001</ele>
        <time>2022-01-16T09:26:05Z</time>
      </trkpt>
      <trkpt lat="45.941219665110111" lon="9.539063461124897">
        <ele>1831.1400000000001</ele>
        <time>2022-01-16T09:26:43Z</time>
      </trkpt>
      <trkpt lat="45.941222263500094" lon="9.539063544943929">
        <ele>1832.24</ele>
        <time>2022-01-16T09:27:14Z</time>
      </trkpt>
      <trkpt lat="45.941225700080395" lon="9.539064634591341">
        <ele>1832.77</ele>
        <time>2022-01-16T09:27:29Z</time>
      </trkpt>
      <trkpt lat="45.941231986507773" lon="9.539069328457117">
        <ele>1833.0599999999999</ele>
        <time>2022-01-16T09:27:46Z</time>
      </trkpt>
      <trkpt lat="45.941233159974217" lon="9.539063544943929">
        <ele>1832.8199999999999</ele>
        <time>2022-01-16T09:28:07Z</time>
      </trkpt>
      <trkpt lat="45.941234417259693" lon="9.539060108363628">
        <ele>1832.9400000000001</ele>
        <time>2022-01-16T09:28:25Z</time>
      </trkpt>
      <trkpt lat="45.941235590726137" lon="9.539060611277819">
        <ele>1832.95</ele>
        <time>2022-01-16T09:28:49Z</time>
      </trkpt>
      <trkpt lat="45.941240536049008" lon="9.539060443639755">
        <ele>1832.95</ele>
        <time>2022-01-16T09:29:04Z</time>
      </trkpt>
      <trkpt lat="45.941251516342163" lon="9.539055414497852">
        <ele>1833.0599999999999</ele>
        <time>2022-01-16T09:29:13Z</time>
      </trkpt>
      <trkpt lat="45.941274985671043" lon="9.539073519408703">
        <ele>1832.98</ele>
        <time>2022-01-16T09:29:37Z</time>
      </trkpt>
      <trkpt lat="45.941321672871709" lon="9.53906312584877">
        <ele>1833.49</ele>
        <time>2022-01-16T09:29:46Z</time>
      </trkpt>
      <trkpt lat="45.9413808491081" lon="9.538953909650445">
        <ele>1835.5599999999999</ele>
        <time>2022-01-16T09:30:00Z</time>
      </trkpt>
      <trkpt lat="45.941441198810935" lon="9.5388422627002">
        <ele>1837.9400000000001</ele>
        <time>2022-01-16T09:30:16Z</time>
      </trkpt>
      <trkpt lat="45.941542703658342" lon="9.538772273808718">
        <ele>1840.3699999999999</ele>
        <time>2022-01-16T09:30:33Z</time>
      </trkpt>
      <trkpt lat="45.941637754440308" lon="9.538747882470489">
        <ele>1841.21</ele>
        <time>2022-01-16T09:30:44Z</time>
      </trkpt>
      <trkpt lat="45.941771948710084" lon="9.538677055388689">
        <ele>1841.77</ele>
        <time>2022-01-16T09:30:59Z</time>
      </trkpt>
      <trkpt lat="45.941870603710413" lon="9.53854420222342">
        <ele>1843.4000000000001</ele>
        <time>2022-01-16T09:31:16Z</time>
      </trkpt>
      <trkpt lat="45.941926594823599" lon="9.538439679890871">
        <ele>1845.2</ele>
        <time>2022-01-16T09:31:29Z</time>
      </trkpt>
      <trkpt lat="45.941997338086367" lon="9.538306323811412">
        <ele>1847.4200000000001</ele>
        <time>2022-01-16T09:31:46Z</time>
      </trkpt>
      <trkpt lat="45.94206833280623" lon="9.53818897716701">
        <ele>1849.77</ele>
        <time>2022-01-16T09:32:03Z</time>
      </trkpt>
      <trkpt lat="45.942164892330766" lon="9.538116473704577">
        <ele>1851.45</ele>
        <time>2022-01-16T09:32:18Z</time>
      </trkpt>
      <trkpt lat="45.942273857071996" lon="9.538031732663512">
        <ele>1854.02</ele>
        <time>2022-01-16T09:32:35Z</time>
      </trkpt>
      <trkpt lat="45.942347031086683" lon="9.537968784570694">
        <ele>1856.9200000000001</ele>
        <time>2022-01-16T09:32:51Z</time>
      </trkpt>
      <trkpt lat="45.942410985007882" lon="9.537960570305586">
        <ele>1858.95</ele>
        <time>2022-01-16T09:33:02Z</time>
      </trkpt>
      <trkpt lat="45.942490613088012" lon="9.537984877824783">
        <ele>1861.6300000000001</ele>
        <time>2022-01-16T09:33:15Z</time>
      </trkpt>
      <trkpt lat="45.942566217854619" lon="9.538057716563344">
        <ele>1863.9300000000001</ele>
        <time>2022-01-16T09:33:29Z</time>
      </trkpt>
      <trkpt lat="45.942589435726404" lon="9.538076408207417">
        <ele>1864.71</ele>
        <time>2022-01-16T09:33:41Z</time>
      </trkpt>
      <trkpt lat="45.942617263644934" lon="9.538117898628116">
        <ele>1865.4200000000001</ele>
        <time>2022-01-16T09:33:56Z</time>
      </trkpt>
      <trkpt lat="45.942669734358788" lon="9.538206160068512">
        <ele>1866.9100000000001</ele>
        <time>2022-01-16T09:34:08Z</time>
      </trkpt>
      <trkpt lat="45.942659508436918" lon="9.538342533633113">
        <ele>1868.3599999999999</ele>
        <time>2022-01-16T09:34:23Z</time>
      </trkpt>
      <trkpt lat="45.942661687731743" lon="9.53842006623745">
        <ele>1869.0699999999999</ele>
        <time>2022-01-16T09:34:34Z</time>
      </trkpt>
      <trkpt lat="45.94267032109201" lon="9.538421910256147">
        <ele>1869.1199999999999</ele>
        <time>2022-01-16T09:34:41Z</time>
      </trkpt>
      <trkpt lat="45.942696975544095" lon="9.538442529737949">
        <ele>1868.55</ele>
        <time>2022-01-16T09:34:44Z</time>
      </trkpt>
      <trkpt lat="45.942685157060623" lon="9.538552248850465">
        <ele>1867.46</ele>
        <time>2022-01-16T09:34:56Z</time>
      </trkpt>
      <trkpt lat="45.942688090726733" lon="9.538596589118242">
        <ele>1866.9400000000001</ele>
        <time>2022-01-16T09:35:11Z</time>
      </trkpt>
      <trkpt lat="45.942679708823562" lon="9.53860086388886">
        <ele>1867.27</ele>
        <time>2022-01-16T09:35:25Z</time>
      </trkpt>
      <trkpt lat="45.94268306158483" lon="9.538599941879511">
        <ele>1866.3900000000001</ele>
        <time>2022-01-16T09:35:39Z</time>
      </trkpt>
      <trkpt lat="45.942678032442927" lon="9.538590973243117">
        <ele>1865.6900000000001</ele>
        <time>2022-01-16T09:35:52Z</time>
      </trkpt>
      <trkpt lat="45.942668309435248" lon="9.538580914959312">
        <ele>1865.47</ele>
        <time>2022-01-16T09:36:17Z</time>
      </trkpt>
      <trkpt lat="45.942682977765799" lon="9.53858619555831">
        <ele>1865.49</ele>
        <time>2022-01-16T09:36:40Z</time>
      </trkpt>
      <trkpt lat="45.942677445709705" lon="9.538587117567658">
        <ele>1865.6900000000001</ele>
        <time>2022-01-16T09:37:05Z</time>
      </trkpt>
      <trkpt lat="45.942661184817553" lon="9.538598181679845">
        <ele>1865.52</ele>
        <time>2022-01-16T09:37:38Z</time>
      </trkpt>
      <trkpt lat="45.942663112655282" lon="9.538597594946623">
        <ele>1866.0699999999999</ele>
        <time>2022-01-16T09:38:18Z</time>
      </trkpt>
      <trkpt lat="45.942667555063963" lon="9.538600528612733">
        <ele>1865.8499999999999</ele>
        <time>2022-01-16T09:39:00Z</time>
      </trkpt>
      <trkpt lat="45.942665124312043" lon="9.538590721786022">
        <ele>1866.71</ele>
        <time>2022-01-16T09:39:38Z</time>
      </trkpt>
      <trkpt lat="45.942652970552444" lon="9.538574879989028">
        <ele>1867.27</ele>
        <time>2022-01-16T09:39:55Z</time>
      </trkpt>
      <trkpt lat="45.942654060199857" lon="9.538567839190364">
        <ele>1867.3800000000001</ele>
        <time>2022-01-16T09:40:09Z</time>
      </trkpt>
      <trkpt lat="45.942687336355448" lon="9.538564654067159">
        <ele>1867.4200000000001</ele>
        <time>2022-01-16T09:40:19Z</time>
      </trkpt>
      <trkpt lat="45.942668644711375" lon="9.5386643987149">
        <ele>1866.53</ele>
        <time>2022-01-16T09:40:30Z</time>
      </trkpt>
      <trkpt lat="45.942647103220224" lon="9.538695747032762">
        <ele>1866.04</ele>
        <time>2022-01-16T09:40:39Z</time>
      </trkpt>
      <trkpt lat="45.942687168717384" lon="9.538663392886519">
        <ele>1866.6500000000001</ele>
        <time>2022-01-16T09:40:53Z</time>
      </trkpt>
      <trkpt lat="45.942708710208535" lon="9.538584435358644">
        <ele>1866.8599999999999</ele>
        <time>2022-01-16T09:41:04Z</time>
      </trkpt>
      <trkpt lat="45.942742992192507" lon="9.53849776647985">
        <ele>1868.1300000000001</ele>
        <time>2022-01-16T09:41:19Z</time>
      </trkpt>
      <trkpt lat="45.942749530076981" lon="9.538511177524924">
        <ele>1868.0699999999999</ele>
        <time>2022-01-16T09:41:35Z</time>
      </trkpt>
      <trkpt lat="45.942741064354777" lon="9.53844110481441">
        <ele>1868.75</ele>
        <time>2022-01-16T09:41:48Z</time>
      </trkpt>
      <trkpt lat="45.942711727693677" lon="9.538391064852476">
        <ele>1868.8299999999999</ele>
        <time>2022-01-16T09:41:54Z</time>
      </trkpt>
      <trkpt lat="45.942647689953446" lon="9.538299534469843">
        <ele>1868.6400000000001</ele>
        <time>2022-01-16T09:42:04Z</time>
      </trkpt>
      <trkpt lat="45.942575186491013" lon="9.538268269971013">
        <ele>1868.1800000000001</ele>
        <time>2022-01-16T09:42:15Z</time>
      </trkpt>
      <trkpt lat="45.94256822951138" lon="9.538264246657491">
        <ele>1868.1800000000001</ele>
        <time>2022-01-16T09:42:32Z</time>
      </trkpt>
      <trkpt lat="45.942597901448607" lon="9.538316046819091">
        <ele>1868.5599999999999</ele>
        <time>2022-01-16T09:42:45Z</time>
      </trkpt>
      <trkpt lat="45.942638637498021" lon="9.538412522524595">
        <ele>1869.4300000000001</ele>
        <time>2022-01-16T09:42:59Z</time>
      </trkpt>
      <trkpt lat="45.942659927532077" lon="9.538410762324929">
        <ele>1868.6099999999999</ele>
        <time>2022-01-16T09:43:16Z</time>
      </trkpt>
      <trkpt lat="45.94265615567565" lon="9.538407493382692">
        <ele>1868.6199999999999</ele>
        <time>2022-01-16T09:43:36Z</time>
      </trkpt>
      <trkpt lat="45.942654898390174" lon="9.538405230268836">
        <ele>1868.71</ele>
        <time>2022-01-16T09:43:56Z</time>
      </trkpt>
      <trkpt lat="45.94265322200954" lon="9.538399782031775">
        <ele>1868.8499999999999</ele>
        <time>2022-01-16T09:44:17Z</time>
      </trkpt>
      <trkpt lat="45.942646348848939" lon="9.538398692384362">
        <ele>1868.79</ele>
        <time>2022-01-16T09:44:41Z</time>
      </trkpt>
      <trkpt lat="45.942643331363797" lon="9.538400117307901">
        <ele>1869.0799999999999</ele>
        <time>2022-01-16T09:45:04Z</time>
      </trkpt>
      <trkpt lat="45.942649533972144" lon="9.538416629657149">
        <ele>1869.8699999999999</ele>
        <time>2022-01-16T09:45:18Z</time>
      </trkpt>
      <trkpt lat="45.942660262808204" lon="9.538439763709903">
        <ele>1869.4400000000001</ele>
        <time>2022-01-16T09:45:33Z</time>
      </trkpt>
      <trkpt lat="45.942638134583831" lon="9.538424927741289">
        <ele>1869.8699999999999</ele>
        <time>2022-01-16T09:45:50Z</time>
      </trkpt>
      <trkpt lat="45.942642660811543" lon="9.538421658799052">
        <ele>1869.9200000000001</ele>
        <time>2022-01-16T09:46:11Z</time>
      </trkpt>
      <trkpt lat="45.942647103220224" lon="9.538426352664828">
        <ele>1869.8599999999999</ele>
        <time>2022-01-16T09:46:25Z</time>
      </trkpt>
      <trkpt lat="45.942649031057954" lon="9.538428196683526">
        <ele>1869.72</ele>
        <time>2022-01-16T09:46:40Z</time>
      </trkpt>
      <trkpt lat="45.942655736580491" lon="9.53844403848052">
        <ele>1870.0599999999999</ele>
        <time>2022-01-16T09:46:54Z</time>
      </trkpt>
      <trkpt lat="45.942650958895683" lon="9.538447558879852">
        <ele>1869.8099999999999</ele>
        <time>2022-01-16T09:47:08Z</time>
      </trkpt>
      <trkpt lat="45.942657915875316" lon="9.538493826985359">
        <ele>1869.4000000000001</ele>
        <time>2022-01-16T09:47:15Z</time>
      </trkpt>
      <trkpt lat="45.942670237272978" lon="9.53851830214262">
        <ele>1869.0699999999999</ele>
        <time>2022-01-16T09:47:17Z</time>
      </trkpt>
      <trkpt lat="45.942689180374146" lon="9.538563815876842">
        <ele>1868.6500000000001</ele>
        <time>2022-01-16T09:47:29Z</time>
      </trkpt>
      <trkpt lat="45.942691527307034" lon="9.538561133667827">
        <ele>1868.8499999999999</ele>
        <time>2022-01-16T09:47:52Z</time>
      </trkpt>
      <trkpt lat="45.94269379042089" lon="9.538568928837776">
        <ele>1867.96</ele>
        <time>2022-01-16T09:48:11Z</time>
      </trkpt>
      <trkpt lat="45.94268255867064" lon="9.538556691259146">
        <ele>1868.5</ele>
        <time>2022-01-16T09:48:37Z</time>
      </trkpt>
      <trkpt lat="45.942678702995181" lon="9.53855199739337">
        <ele>1868.3199999999999</ele>
        <time>2022-01-16T09:48:54Z</time>
      </trkpt>
      <trkpt lat="45.942677361890674" lon="9.5385417714715">
        <ele>1868.46</ele>
        <time>2022-01-16T09:49:11Z</time>
      </trkpt>
      <trkpt lat="45.942679708823562" lon="9.538548309355974">
        <ele>1868.52</ele>
        <time>2022-01-16T09:49:26Z</time>
      </trkpt>
      <trkpt lat="45.942686414346099" lon="9.538555182516575">
        <ele>1868.2</ele>
        <time>2022-01-16T09:49:44Z</time>
      </trkpt>
      <trkpt lat="45.942684654146433" lon="9.538558535277844">
        <ele>1868.04</ele>
        <time>2022-01-16T09:49:45Z</time>
      </trkpt>
      <trkpt lat="45.942690186202526" lon="9.538563480600715">
        <ele>1868.3399999999999</ele>
        <time>2022-01-16T09:50:08Z</time>
      </trkpt>
      <trkpt lat="45.942688761278987" lon="9.538561385124922">
        <ele>1868.4300000000001</ele>
        <time>2022-01-16T09:50:23Z</time>
      </trkpt>
      <trkpt lat="45.94268792308867" lon="9.538565240800381">
        <ele>1867.9400000000001</ele>
        <time>2022-01-16T09:50:42Z</time>
      </trkpt>
      <trkpt lat="45.942682726308703" lon="9.53855887055397">
        <ele>1867.78</ele>
        <time>2022-01-16T09:51:03Z</time>
      </trkpt>
      <trkpt lat="45.942691946402192" lon="9.5385573618114">
        <ele>1868.1199999999999</ele>
        <time>2022-01-16T09:51:26Z</time>
      </trkpt>
      <trkpt lat="45.942687084898353" lon="9.5385573618114">
        <ele>1868.3299999999999</ele>
        <time>2022-01-16T09:51:50Z</time>
      </trkpt>
      <trkpt lat="45.942701669409871" lon="9.538550991564989">
        <ele>1868.24</ele>
        <time>2022-01-16T09:52:10Z</time>
      </trkpt>
      <trkpt lat="45.942687168717384" lon="9.538562642410398">
        <ele>1869.52</ele>
        <time>2022-01-16T09:52:29Z</time>
      </trkpt>
      <trkpt lat="45.9426932875067" lon="9.538554679602385">
        <ele>1869.28</ele>
        <time>2022-01-16T09:52:40Z</time>
      </trkpt>
      <trkpt lat="45.94269479624927" lon="9.538560630753636">
        <ele>1869.46</ele>
        <time>2022-01-16T09:52:58Z</time>
      </trkpt>
      <trkpt lat="45.942694209516048" lon="9.538559122011066">
        <ele>1869.0999999999999</ele>
        <time>2022-01-16T09:53:14Z</time>
      </trkpt>
      <trkpt lat="45.942696891725063" lon="9.538562390953302">
        <ele>1869.3599999999999</ele>
        <time>2022-01-16T09:53:30Z</time>
      </trkpt>
      <trkpt lat="45.942719941958785" lon="9.538593990728259">
        <ele>1868.5999999999999</ele>
        <time>2022-01-16T09:53:41Z</time>
      </trkpt>
      <trkpt lat="45.942730503156781" lon="9.538613185286522">
        <ele>1868.4200000000001</ele>
        <time>2022-01-16T09:53:55Z</time>
      </trkpt>
      <trkpt lat="45.942750032991171" lon="9.538672948256135">
        <ele>1868.25</ele>
        <time>2022-01-16T09:54:11Z</time>
      </trkpt>
      <trkpt lat="45.942782973870635" lon="9.538724329322577">
        <ele>1866.4300000000001</ele>
        <time>2022-01-16T09:54:25Z</time>
      </trkpt>
      <trkpt lat="45.942791858687997" lon="9.538748217746615">
        <ele>1868.2</ele>
        <time>2022-01-16T09:54:28Z</time>
      </trkpt>
      <trkpt lat="45.94279982149601" lon="9.538764813914895">
        <ele>1867.5599999999999</ele>
        <time>2022-01-16T09:54:40Z</time>
      </trkpt>
      <trkpt lat="45.942847430706024" lon="9.538858775049448">
        <ele>1868.2</ele>
        <time>2022-01-16T09:54:53Z</time>
      </trkpt>
      <trkpt lat="45.942921442911029" lon="9.538970338180661">
        <ele>1869.6400000000001</ele>
        <time>2022-01-16T09:55:07Z</time>
      </trkpt>
      <trkpt lat="45.943019930273294" lon="9.539107549935579">
        <ele>1871.8</ele>
        <time>2022-01-16T09:55:25Z</time>
      </trkpt>
      <trkpt lat="45.943083046004176" lon="9.539236128330231">
        <ele>1873.21</ele>
        <time>2022-01-16T09:55:40Z</time>
      </trkpt>
      <trkpt lat="45.943141132593155" lon="9.539341740310192">
        <ele>1873.4200000000001</ele>
        <time>2022-01-16T09:55:52Z</time>
      </trkpt>
      <trkpt lat="45.943156220018864" lon="9.539394378662109">
        <ele>1873.4300000000001</ele>
        <time>2022-01-16T09:56:00Z</time>
      </trkpt>
      <trkpt lat="45.943175246939063" lon="9.539454896003008">
        <ele>1873.5599999999999</ele>
        <time>2022-01-16T09:56:07Z</time>
      </trkpt>
      <trkpt lat="45.943191340193152" lon="9.539503594860435">
        <ele>1873.74</ele>
        <time>2022-01-16T09:56:11Z</time>
      </trkpt>
      <trkpt lat="45.943249594420195" lon="9.539655726402998">
        <ele>1874.29</ele>
        <time>2022-01-16T09:56:24Z</time>
      </trkpt>
      <trkpt lat="45.943302735686302" lon="9.539755387231708">
        <ele>1875.4400000000001</ele>
        <time>2022-01-16T09:56:35Z</time>
      </trkpt>
      <trkpt lat="45.943303741514683" lon="9.539852701127529">
        <ele>1876.0699999999999</ele>
        <time>2022-01-16T09:56:44Z</time>
      </trkpt>
      <trkpt lat="45.943266861140728" lon="9.539998462423682">
        <ele>1877.03</ele>
        <time>2022-01-16T09:56:57Z</time>
      </trkpt>
      <trkpt lat="45.94324104487896" lon="9.540136680006981">
        <ele>1878.6700000000001</ele>
        <time>2022-01-16T09:57:10Z</time>
      </trkpt>
      <trkpt lat="45.943199219182134" lon="9.54025779850781">
        <ele>1880.0999999999999</ele>
        <time>2022-01-16T09:57:23Z</time>
      </trkpt>
      <trkpt lat="45.943167535588145" lon="9.540358297526836">
        <ele>1881.74</ele>
        <time>2022-01-16T09:57:36Z</time>
      </trkpt>
      <trkpt lat="45.943135684356093" lon="9.540472710505128">
        <ele>1882.99</ele>
        <time>2022-01-16T09:57:50Z</time>
      </trkpt>
      <trkpt lat="45.943125542253256" lon="9.540577232837677">
        <ele>1883.1099999999999</ele>
        <time>2022-01-16T09:58:02Z</time>
      </trkpt>
      <trkpt lat="45.943115567788482" lon="9.540781835094094">
        <ele>1883.46</ele>
        <time>2022-01-16T09:58:20Z</time>
      </trkpt>
      <trkpt lat="45.943107940256596" lon="9.54094578512013">
        <ele>1883.8499999999999</ele>
        <time>2022-01-16T09:58:35Z</time>
      </trkpt>
      <trkpt lat="45.943097379058599" lon="9.54109531827271">
        <ele>1884.9300000000001</ele>
        <time>2022-01-16T09:58:49Z</time>
      </trkpt>
      <trkpt lat="45.943087823688984" lon="9.541147286072373">
        <ele>1885.4300000000001</ele>
        <time>2022-01-16T09:58:54Z</time>
      </trkpt>
      <trkpt lat="45.943067204207182" lon="9.541299166157842">
        <ele>1886.4000000000001</ele>
        <time>2022-01-16T09:59:07Z</time>
      </trkpt>
      <trkpt lat="45.943049434572458" lon="9.541402598842979">
        <ele>1886.8900000000001</ele>
        <time>2022-01-16T09:59:16Z</time>
      </trkpt>
      <trkpt lat="45.943015152588487" lon="9.541556322947145">
        <ele>1887.6900000000001</ele>
        <time>2022-01-16T09:59:28Z</time>
      </trkpt>
      <trkpt lat="45.942994114011526" lon="9.541652714833617">
        <ele>1888.6199999999999</ele>
        <time>2022-01-16T09:59:40Z</time>
      </trkpt>
      <trkpt lat="45.942987911403179" lon="9.541724380105734">
        <ele>1889.5</ele>
        <time>2022-01-16T09:59:54Z</time>
      </trkpt>
      <trkpt lat="45.942964693531394" lon="9.541793363168836">
        <ele>1890.28</ele>
        <time>2022-01-16T10:00:03Z</time>
      </trkpt>
      <trkpt lat="45.942941140383482" lon="9.54184097237885">
        <ele>1890.3</ele>
        <time>2022-01-16T10:00:14Z</time>
      </trkpt>
      <trkpt lat="45.942928567528725" lon="9.541890844702721">
        <ele>1890.6099999999999</ele>
        <time>2022-01-16T10:00:24Z</time>
      </trkpt>
      <trkpt lat="45.942916413769126" lon="9.54188640229404">
        <ele>1890.6400000000001</ele>
        <time>2022-01-16T10:00:58Z</time>
      </trkpt>
      <trkpt lat="45.942911636084318" lon="9.541881121695042">
        <ele>1890.96</ele>
        <time>2022-01-16T10:01:23Z</time>
      </trkpt>
      <trkpt lat="45.942911803722382" lon="9.541892856359482">
        <ele>1891.03</ele>
        <time>2022-01-16T10:01:41Z</time>
      </trkpt>
      <trkpt lat="45.942904176190495" lon="9.541921690106392">
        <ele>1890.78</ele>
        <time>2022-01-16T10:01:43Z</time>
      </trkpt>
      <trkpt lat="45.942894369363785" lon="9.541947590187192">
        <ele>1890.97</ele>
        <time>2022-01-16T10:01:45Z</time>
      </trkpt>
      <trkpt lat="45.942821195349097" lon="9.542140206322074">
        <ele>1892.45</ele>
        <time>2022-01-16T10:01:59Z</time>
      </trkpt>
      <trkpt lat="45.942729832604527" lon="9.542269203811884">
        <ele>1893.3499999999999</ele>
        <time>2022-01-16T10:02:12Z</time>
      </trkpt>
      <trkpt lat="45.94272312708199" lon="9.542278675362468">
        <ele>1893.6500000000001</ele>
        <time>2022-01-16T10:02:13Z</time>
      </trkpt>
      <trkpt lat="45.942640481516719" lon="9.542416809126735">
        <ele>1894.9000000000001</ele>
        <time>2022-01-16T10:02:26Z</time>
      </trkpt>
      <trkpt lat="45.942613994702697" lon="9.542461149394512">
        <ele>1895.52</ele>
        <time>2022-01-16T10:02:31Z</time>
      </trkpt>
      <trkpt lat="45.94254283234477" lon="9.542604060843587">
        <ele>1896.8499999999999</ele>
        <time>2022-01-16T10:02:43Z</time>
      </trkpt>
      <trkpt lat="45.942499414086342" lon="9.542672205716372">
        <ele>1897.8399999999999</ele>
        <time>2022-01-16T10:02:51Z</time>
      </trkpt>
      <trkpt lat="45.942404782399535" lon="9.542704308405519">
        <ele>1899.0899999999999</ele>
        <time>2022-01-16T10:03:04Z</time>
      </trkpt>
      <trkpt lat="45.942374691367149" lon="9.542701207101345">
        <ele>1899.73</ele>
        <time>2022-01-16T10:03:08Z</time>
      </trkpt>
      <trkpt lat="45.942359017208219" lon="9.542703805491328">
        <ele>1900.2</ele>
        <time>2022-01-16T10:03:18Z</time>
      </trkpt>
      <trkpt lat="45.942348707467318" lon="9.542755438014865">
        <ele>1900.51</ele>
        <time>2022-01-16T10:03:22Z</time>
      </trkpt>
      <trkpt lat="45.942321298643947" lon="9.54293598420918">
        <ele>1901</ele>
        <time>2022-01-16T10:03:35Z</time>
      </trkpt>
      <trkpt lat="45.942314006388187" lon="9.542960375547409">
        <ele>1900.79</ele>
        <time>2022-01-16T10:03:37Z</time>
      </trkpt>
      <trkpt lat="45.942267989739776" lon="9.543009744957089">
        <ele>1900.49</ele>
        <time>2022-01-16T10:03:50Z</time>
      </trkpt>
      <trkpt lat="45.942204622551799" lon="9.543076045811176">
        <ele>1900.75</ele>
        <time>2022-01-16T10:04:04Z</time>
      </trkpt>
      <trkpt lat="45.942147877067327" lon="9.543160619214177">
        <ele>1900.5</ele>
        <time>2022-01-16T10:04:18Z</time>
      </trkpt>
      <trkpt lat="45.942144356667995" lon="9.543167827650905">
        <ele>1900</ele>
        <time>2022-01-16T10:04:31Z</time>
      </trkpt>
      <trkpt lat="45.942141423001885" lon="9.54317444935441">
        <ele>1899.99</ele>
        <time>2022-01-16T10:04:32Z</time>
      </trkpt>
      <trkpt lat="45.942126922309399" lon="9.543213676661253">
        <ele>1900.0799999999999</ele>
        <time>2022-01-16T10:04:35Z</time>
      </trkpt>
      <trkpt lat="45.942074116319418" lon="9.543353570625186">
        <ele>1900.72</ele>
        <time>2022-01-16T10:04:50Z</time>
      </trkpt>
      <trkpt lat="45.942071350291371" lon="9.543371088802815">
        <ele>1900.73</ele>
        <time>2022-01-16T10:04:56Z</time>
      </trkpt>
      <trkpt lat="45.942061711102724" lon="9.543398078531027">
        <ele>1900.8</ele>
        <time>2022-01-16T10:04:58Z</time>
      </trkpt>
      <trkpt lat="45.941978394985199" lon="9.543571583926678">
        <ele>1900.8599999999999</ele>
        <time>2022-01-16T10:05:13Z</time>
      </trkpt>
      <trkpt lat="45.941947549581528" lon="9.543630592525005">
        <ele>1900.6099999999999</ele>
        <time>2022-01-16T10:05:24Z</time>
      </trkpt>
      <trkpt lat="45.941948220133781" lon="9.543685242533684">
        <ele>1901.45</ele>
        <time>2022-01-16T10:05:35Z</time>
      </trkpt>
      <trkpt lat="45.941928522661328" lon="9.543656995519996">
        <ele>1901.1600000000001</ele>
        <time>2022-01-16T10:05:48Z</time>
      </trkpt>
      <trkpt lat="45.941902957856655" lon="9.543646853417158">
        <ele>1900.8399999999999</ele>
        <time>2022-01-16T10:06:00Z</time>
      </trkpt>
      <trkpt lat="45.941877812147141" lon="9.54366403631866">
        <ele>1900.8499999999999</ele>
        <time>2022-01-16T10:06:03Z</time>
      </trkpt>
      <trkpt lat="45.941773625090718" lon="9.543777611106634">
        <ele>1901.98</ele>
        <time>2022-01-16T10:06:16Z</time>
      </trkpt>
      <trkpt lat="45.941736241802573" lon="9.543932424858213">
        <ele>1902.4300000000001</ele>
        <time>2022-01-16T10:06:30Z</time>
      </trkpt>
      <trkpt lat="45.94169701449573" lon="9.544064188376069">
        <ele>1902.71</ele>
        <time>2022-01-16T10:06:41Z</time>
      </trkpt>
      <trkpt lat="45.94165401533246" lon="9.544207770377398">
        <ele>1903.6199999999999</ele>
        <time>2022-01-16T10:06:54Z</time>
      </trkpt>
      <trkpt lat="45.941625097766519" lon="9.544293265789747">
        <ele>1906.8399999999999</ele>
        <time>2022-01-16T10:07:06Z</time>
      </trkpt>
      <trkpt lat="45.941603723913431" lon="9.544341964647174">
        <ele>1909.3800000000001</ele>
        <time>2022-01-16T10:07:19Z</time>
      </trkpt>
      <trkpt lat="45.941597772762179" lon="9.544356716796756">
        <ele>1910.05</ele>
        <time>2022-01-16T10:07:34Z</time>
      </trkpt>
      <trkpt lat="45.941591402515769" lon="9.54440189525485">
        <ele>1911.1199999999999</ele>
        <time>2022-01-16T10:07:48Z</time>
      </trkpt>
      <trkpt lat="45.941574051976204" lon="9.544448750093579">
        <ele>1913.8199999999999</ele>
        <time>2022-01-16T10:07:58Z</time>
      </trkpt>
      <trkpt lat="45.941577404737473" lon="9.544459478929639">
        <ele>1913.99</ele>
        <time>2022-01-16T10:08:13Z</time>
      </trkpt>
      <trkpt lat="45.941568436101079" lon="9.544496526941657">
        <ele>1914.48</ele>
        <time>2022-01-16T10:08:28Z</time>
      </trkpt>
      <trkpt lat="45.941518563777208" lon="9.54450205899775">
        <ele>1916.4000000000001</ele>
        <time>2022-01-16T10:08:39Z</time>
      </trkpt>
      <trkpt lat="45.941439690068364" lon="9.544465430080891">
        <ele>1917.6300000000001</ele>
        <time>2022-01-16T10:08:52Z</time>
      </trkpt>
      <trkpt lat="45.941447904333472" lon="9.54446442425251">
        <ele>1917.04</ele>
        <time>2022-01-16T10:09:12Z</time>
      </trkpt>
      <trkpt lat="45.941383615136147" lon="9.544526785612106">
        <ele>1919.1800000000001</ele>
        <time>2022-01-16T10:09:24Z</time>
      </trkpt>
      <trkpt lat="45.941351931542158" lon="9.544574143365026">
        <ele>1920.53</ele>
        <time>2022-01-16T10:09:35Z</time>
      </trkpt>
      <trkpt lat="45.94130415469408" lon="9.544629380106926">
        <ele>1922.9300000000001</ele>
        <time>2022-01-16T10:09:47Z</time>
      </trkpt>
      <trkpt lat="45.941273812204599" lon="9.544679252430797">
        <ele>1925.6300000000001</ele>
        <time>2022-01-16T10:10:00Z</time>
      </trkpt>
      <trkpt lat="45.941275991499424" lon="9.54470775090158">
        <ele>1925.99</ele>
        <time>2022-01-16T10:10:16Z</time>
      </trkpt>
      <trkpt lat="45.941232824698091" lon="9.544744212180376">
        <ele>1928.0699999999999</ele>
        <time>2022-01-16T10:10:29Z</time>
      </trkpt>
      <trkpt lat="45.941193932667375" lon="9.544802131131291">
        <ele>1930.3499999999999</ele>
        <time>2022-01-16T10:10:41Z</time>
      </trkpt>
      <trkpt lat="45.941150262951851" lon="9.544855859130621">
        <ele>1932.1400000000001</ele>
        <time>2022-01-16T10:10:52Z</time>
      </trkpt>
      <trkpt lat="45.941147413104773" lon="9.54485728405416">
        <ele>1932.45</ele>
        <time>2022-01-16T10:11:05Z</time>
      </trkpt>
      <trkpt lat="45.941133415326476" lon="9.544917298480868">
        <ele>1933.5999999999999</ele>
        <time>2022-01-16T10:11:19Z</time>
      </trkpt>
      <trkpt lat="45.941102150827646" lon="9.545016456395388">
        <ele>1936.53</ele>
        <time>2022-01-16T10:11:32Z</time>
      </trkpt>
      <trkpt lat="45.94106619246304" lon="9.545055432245135">
        <ele>1938.4200000000001</ele>
        <time>2022-01-16T10:11:45Z</time>
      </trkpt>
      <trkpt lat="45.941026043146849" lon="9.545058449730277">
        <ele>1940.0699999999999</ele>
        <time>2022-01-16T10:12:04Z</time>
      </trkpt>
      <trkpt lat="45.941007016226649" lon="9.545110920444131">
        <ele>1942.55</ele>
        <time>2022-01-16T10:12:15Z</time>
      </trkpt>
      <trkpt lat="45.94100215472281" lon="9.545120056718588">
        <ele>1942.3499999999999</ele>
        <time>2022-01-16T10:12:27Z</time>
      </trkpt>
      <trkpt lat="45.940973991528153" lon="9.545166827738285">
        <ele>1944.1199999999999</ele>
        <time>2022-01-16T10:12:41Z</time>
      </trkpt>
      <trkpt lat="45.94094155356288" lon="9.545237319543958">
        <ele>1945.9400000000001</ele>
        <time>2022-01-16T10:12:55Z</time>
      </trkpt>
      <trkpt lat="45.940936524420977" lon="9.545310828834772">
        <ele>1947.4300000000001</ele>
        <time>2022-01-16T10:13:09Z</time>
      </trkpt>
      <trkpt lat="45.940935350954533" lon="9.545346619561315">
        <ele>1948.3699999999999</ele>
        <time>2022-01-16T10:13:22Z</time>
      </trkpt>
      <trkpt lat="45.940914982929826" lon="9.545386349782348">
        <ele>1949.8599999999999</ele>
        <time>2022-01-16T10:13:34Z</time>
      </trkpt>
      <trkpt lat="45.940893776714802" lon="9.545471426099539">
        <ele>1951.6500000000001</ele>
        <time>2022-01-16T10:13:49Z</time>
      </trkpt>
      <trkpt lat="45.940871061757207" lon="9.545523310080171">
        <ele>1952.8499999999999</ele>
        <time>2022-01-16T10:13:59Z</time>
      </trkpt>
      <trkpt lat="45.940870977938175" lon="9.54560536891222">
        <ele>1954.55</ele>
        <time>2022-01-16T10:14:13Z</time>
      </trkpt>
      <trkpt lat="45.940850945189595" lon="9.545674603432417">
        <ele>1956.3699999999999</ele>
        <time>2022-01-16T10:14:27Z</time>
      </trkpt>
      <trkpt lat="45.94084189273417" lon="9.545681895688176">
        <ele>1957</ele>
        <time>2022-01-16T10:14:40Z</time>
      </trkpt>
      <trkpt lat="45.940818758681417" lon="9.545773509889841">
        <ele>1958.1500000000001</ele>
        <time>2022-01-16T10:14:53Z</time>
      </trkpt>
      <trkpt lat="45.94080719165504" lon="9.545866381376982">
        <ele>1958.8599999999999</ele>
        <time>2022-01-16T10:15:08Z</time>
      </trkpt>
      <trkpt lat="45.940789841115475" lon="9.545913739129901">
        <ele>1959.4300000000001</ele>
        <time>2022-01-16T10:15:22Z</time>
      </trkpt>
      <trkpt lat="45.940762097015977" lon="9.546015076339245">
        <ele>1962.0799999999999</ele>
        <time>2022-01-16T10:15:34Z</time>
      </trkpt>
      <trkpt lat="45.940747261047363" lon="9.546037036925554">
        <ele>1962.6199999999999</ele>
        <time>2022-01-16T10:15:47Z</time>
      </trkpt>
      <trkpt lat="45.940736196935177" lon="9.546052711084485">
        <ele>1963.9200000000001</ele>
        <time>2022-01-16T10:15:58Z</time>
      </trkpt>
      <trkpt lat="45.940718511119485" lon="9.546082969754934">
        <ele>1965.3800000000001</ele>
        <time>2022-01-16T10:16:09Z</time>
      </trkpt>
      <trkpt lat="45.940700992941856" lon="9.54609495587647">
        <ele>1966.1700000000001</ele>
        <time>2022-01-16T10:16:22Z</time>
      </trkpt>
      <trkpt lat="45.94068406149745" lon="9.54613066278398">
        <ele>1968.0799999999999</ele>
        <time>2022-01-16T10:16:35Z</time>
      </trkpt>
      <trkpt lat="45.940662939101458" lon="9.54617022536695">
        <ele>1969.3099999999999</ele>
        <time>2022-01-16T10:16:48Z</time>
      </trkpt>
      <trkpt lat="45.940645253285766" lon="9.546196796000004">
        <ele>1970.27</ele>
        <time>2022-01-16T10:17:00Z</time>
      </trkpt>
      <trkpt lat="45.940602254122496" lon="9.546219510957599">
        <ele>1970.77</ele>
        <time>2022-01-16T10:17:12Z</time>
      </trkpt>
      <trkpt lat="45.940584652125835" lon="9.546228982508183">
        <ele>1970.96</ele>
        <time>2022-01-16T10:17:25Z</time>
      </trkpt>
      <trkpt lat="45.940568810328841" lon="9.546260498464108">
        <ele>1971.78</ele>
        <time>2022-01-16T10:17:37Z</time>
      </trkpt>
      <trkpt lat="45.940556405112147" lon="9.546277849003673">
        <ele>1972.05</ele>
        <time>2022-01-16T10:17:51Z</time>
      </trkpt>
      <trkpt lat="45.940540563315153" lon="9.546298971399665">
        <ele>1972.3</ele>
        <time>2022-01-16T10:18:08Z</time>
      </trkpt>
      <trkpt lat="45.94053310342133" lon="9.546324200928211">
        <ele>1973.26</ele>
        <time>2022-01-16T10:18:24Z</time>
      </trkpt>
      <trkpt lat="45.940534360706806" lon="9.546327805146575">
        <ele>1973.54</ele>
        <time>2022-01-16T10:18:48Z</time>
      </trkpt>
      <trkpt lat="45.940542826429009" lon="9.546337779611349">
        <ele>1974.05</ele>
        <time>2022-01-16T10:19:12Z</time>
      </trkpt>
      <trkpt lat="45.940577946603298" lon="9.546329481527209">
        <ele>1977.0599999999999</ele>
        <time>2022-01-16T10:19:25Z</time>
      </trkpt>
      <trkpt lat="45.940620359033346" lon="9.5463299844414">
        <ele>1978.8699999999999</ele>
        <time>2022-01-16T10:19:36Z</time>
      </trkpt>
      <trkpt lat="45.940614407882094" lon="9.546356722712517">
        <ele>1979.95</ele>
        <time>2022-01-16T10:19:53Z</time>
      </trkpt>
      <trkpt lat="45.940582556650043" lon="9.546429729089141">
        <ele>1982.5699999999999</ele>
        <time>2022-01-16T10:20:06Z</time>
      </trkpt>
      <trkpt lat="45.940552465617657" lon="9.546492090448737">
        <ele>1984.26</ele>
        <time>2022-01-16T10:20:20Z</time>
      </trkpt>
      <trkpt lat="45.940539808943868" lon="9.546515895053744">
        <ele>1985.0599999999999</ele>
        <time>2022-01-16T10:20:31Z</time>
      </trkpt>
      <trkpt lat="45.940531846135855" lon="9.546541962772608">
        <ele>1985.3499999999999</ele>
        <time>2022-01-16T10:20:52Z</time>
      </trkpt>
      <trkpt lat="45.940525978803635" lon="9.546541292220354">
        <ele>1985.5799999999999</ele>
        <time>2022-01-16T10:21:10Z</time>
      </trkpt>
      <trkpt lat="45.940509969368577" lon="9.546575238928199">
        <ele>1986.6400000000001</ele>
        <time>2022-01-16T10:21:28Z</time>
      </trkpt>
      <trkpt lat="45.940485745668411" lon="9.546610610559583">
        <ele>1988.3800000000001</ele>
        <time>2022-01-16T10:21:40Z</time>
      </trkpt>
      <trkpt lat="45.940476693212986" lon="9.546618489548564">
        <ele>1988.8800000000001</ele>
        <time>2022-01-16T10:21:54Z</time>
      </trkpt>
      <trkpt lat="45.940460599958897" lon="9.546650005504489">
        <ele>1990.3099999999999</ele>
        <time>2022-01-16T10:22:07Z</time>
      </trkpt>
      <trkpt lat="45.940422713756561" lon="9.546681940555573">
        <ele>1991.75</ele>
        <time>2022-01-16T10:22:24Z</time>
      </trkpt>
      <trkpt lat="45.940415672957897" lon="9.546703062951565">
        <ele>1993.47</ele>
        <time>2022-01-16T10:22:28Z</time>
      </trkpt>
      <trkpt lat="45.940388012677431" lon="9.546740362420678">
        <ele>1995.74</ele>
        <time>2022-01-16T10:22:41Z</time>
      </trkpt>
      <trkpt lat="45.940373931080103" lon="9.546766430139542">
        <ele>1996.76</ele>
        <time>2022-01-16T10:22:52Z</time>
      </trkpt>
      <trkpt lat="45.940345767885447" lon="9.546802220866084">
        <ele>1999.4100000000001</ele>
        <time>2022-01-16T10:23:04Z</time>
      </trkpt>
      <trkpt lat="45.940327914431691" lon="9.546825857833028">
        <ele>1999.8900000000001</ele>
        <time>2022-01-16T10:23:16Z</time>
      </trkpt>
      <trkpt lat="45.940307294949889" lon="9.546848740428686">
        <ele>2001.3</ele>
        <time>2022-01-16T10:23:26Z</time>
      </trkpt>
      <trkpt lat="45.940261194482446" lon="9.546892493963242">
        <ele>2003.7</ele>
        <time>2022-01-16T10:23:40Z</time>
      </trkpt>
      <trkpt lat="45.940227750688791" lon="9.546938678249717">
        <ele>2005.48</ele>
        <time>2022-01-16T10:23:54Z</time>
      </trkpt>
      <trkpt lat="45.940196737647057" lon="9.546983940526843">
        <ele>2006.5799999999999</ele>
        <time>2022-01-16T10:24:09Z</time>
      </trkpt>
      <trkpt lat="45.940153235569596" lon="9.547016965225339">
        <ele>2008.24</ele>
        <time>2022-01-16T10:24:24Z</time>
      </trkpt>
      <trkpt lat="45.940124485641718" lon="9.547036830335856">
        <ele>2009.04</ele>
        <time>2022-01-16T10:24:36Z</time>
      </trkpt>
      <trkpt lat="45.94007570296526" lon="9.547052253037691">
        <ele>2008.96</ele>
        <time>2022-01-16T10:24:48Z</time>
      </trkpt>
      <trkpt lat="45.940066901966929" lon="9.547069687396288">
        <ele>2009.54</ele>
        <time>2022-01-16T10:25:06Z</time>
      </trkpt>
      <trkpt lat="45.940051395446062" lon="9.547073291614652">
        <ele>2008.8399999999999</ele>
        <time>2022-01-16T10:25:22Z</time>
      </trkpt>
      <trkpt lat="45.940040079876781" lon="9.547079410403967">
        <ele>2008.5699999999999</ele>
        <time>2022-01-16T10:25:32Z</time>
      </trkpt>
      <trkpt lat="45.940037900581956" lon="9.547090642154217">
        <ele>2008.4000000000001</ele>
        <time>2022-01-16T10:25:54Z</time>
      </trkpt>
      <trkpt lat="45.940032871440053" lon="9.547091815620661">
        <ele>2008.5</ele>
        <time>2022-01-16T10:26:14Z</time>
      </trkpt>
      <trkpt lat="45.940049383789301" lon="9.547144453972578">
        <ele>2009.04</ele>
        <time>2022-01-16T10:26:35Z</time>
      </trkpt>
      <trkpt lat="45.940073439851403" lon="9.547240091487765">
        <ele>2009.24</ele>
        <time>2022-01-16T10:26:48Z</time>
      </trkpt>
      <trkpt lat="45.940095651894808" lon="9.547229111194611">
        <ele>2009.1099999999999</ele>
        <time>2022-01-16T10:27:00Z</time>
      </trkpt>
      <trkpt lat="45.940065560862422" lon="9.547207318246365">
        <ele>2009.3099999999999</ele>
        <time>2022-01-16T10:27:11Z</time>
      </trkpt>
      <trkpt lat="45.94006740488112" lon="9.547212347388268">
        <ele>2008.5</ele>
        <time>2022-01-16T10:27:24Z</time>
      </trkpt>
      <trkpt lat="45.940067572519183" lon="9.547212766483426">
        <ele>2008.3299999999999</ele>
        <time>2022-01-16T10:28:03Z</time>
      </trkpt>
      <trkpt lat="45.940069667994976" lon="9.547217795625329">
        <ele>2008.8599999999999</ele>
        <time>2022-01-16T10:28:49Z</time>
      </trkpt>
      <trkpt lat="45.940063716843724" lon="9.547208743169904">
        <ele>2008.8099999999999</ele>
        <time>2022-01-16T10:29:23Z</time>
      </trkpt>
      <trkpt lat="45.9400615375489" lon="9.547201786190271">
        <ele>2009.0799999999999</ele>
        <time>2022-01-16T10:30:03Z</time>
      </trkpt>
      <trkpt lat="45.940065896138549" lon="9.547202456742525">
        <ele>2008.5999999999999</ele>
        <time>2022-01-16T10:30:43Z</time>
      </trkpt>
      <trkpt lat="45.940058939158916" lon="9.547212850302458">
        <ele>2008.5599999999999</ele>
        <time>2022-01-16T10:31:24Z</time>
      </trkpt>
      <trkpt lat="45.94005717895925" lon="9.547219220548868">
        <ele>2009.29</ele>
        <time>2022-01-16T10:32:03Z</time>
      </trkpt>
      <trkpt lat="45.940054161474109" lon="9.547203630208969">
        <ele>2008.48</ele>
        <time>2022-01-16T10:32:24Z</time>
      </trkpt>
      <trkpt lat="45.940054161474109" lon="9.547196086496115">
        <ele>2008.9200000000001</ele>
        <time>2022-01-16T10:32:49Z</time>
      </trkpt>
      <trkpt lat="45.940065141767263" lon="9.54719290137291">
        <ele>2008.8900000000001</ele>
        <time>2022-01-16T10:33:36Z</time>
      </trkpt>
      <trkpt lat="45.940068075433373" lon="9.547203043475747">
        <ele>2009.3900000000001</ele>
        <time>2022-01-16T10:33:52Z</time>
      </trkpt>
      <trkpt lat="45.94007033854723" lon="9.547223830595613">
        <ele>2009.9000000000001</ele>
        <time>2022-01-16T10:34:14Z</time>
      </trkpt>
      <trkpt lat="45.940063968300819" lon="9.547218047082424">
        <ele>2009.5</ele>
        <time>2022-01-16T10:34:46Z</time>
      </trkpt>
      <trkpt lat="45.940052904188633" lon="9.547207150608301">
        <ele>2010.26</ele>
        <time>2022-01-16T10:35:29Z</time>
      </trkpt>
      <trkpt lat="45.94004837796092" lon="9.547204384580255">
        <ele>2010.74</ele>
        <time>2022-01-16T10:36:11Z</time>
      </trkpt>
      <trkpt lat="45.940052233636379" lon="9.547211173921824">
        <ele>2010.8399999999999</ele>
        <time>2022-01-16T10:36:52Z</time>
      </trkpt>
      <trkpt lat="45.940051479265094" lon="9.547215113416314">
        <ele>2011.3399999999999</ele>
        <time>2022-01-16T10:37:27Z</time>
      </trkpt>
      <trkpt lat="45.940052149817348" lon="9.547229027375579">
        <ele>2012.3099999999999</ele>
        <time>2022-01-16T10:37:47Z</time>
      </trkpt>
      <trkpt lat="45.940051395446062" lon="9.547224752604961">
        <ele>2012.23</ele>
        <time>2022-01-16T10:37:57Z</time>
      </trkpt>
      <trkpt lat="45.940049802884459" lon="9.547219220548868">
        <ele>2012.3</ele>
        <time>2022-01-16T10:38:17Z</time>
      </trkpt>
      <trkpt lat="45.940065728500485" lon="9.547167085111141">
        <ele>2012.95</ele>
        <time>2022-01-16T10:38:31Z</time>
      </trkpt>
      <trkpt lat="45.940066985785961" lon="9.547165911644697">
        <ele>2012.9300000000001</ele>
        <time>2022-01-16T10:38:50Z</time>
      </trkpt>
      <trkpt lat="45.94007033854723" lon="9.547168845310807">
        <ele>2012.6500000000001</ele>
        <time>2022-01-16T10:39:04Z</time>
      </trkpt>
      <trkpt lat="45.940056340768933" lon="9.547219974920154">
        <ele>2012.71</ele>
        <time>2022-01-16T10:39:14Z</time>
      </trkpt>
      <trkpt lat="45.940064890310168" lon="9.547317624092102">
        <ele>2011.46</ele>
        <time>2022-01-16T10:39:26Z</time>
      </trkpt>
      <trkpt lat="45.940060531720519" lon="9.54731167294085">
        <ele>2011.47</ele>
        <time>2022-01-16T10:39:49Z</time>
      </trkpt>
      <trkpt lat="45.940058100968599" lon="9.547310834750533">
        <ele>2011.48</ele>
        <time>2022-01-16T10:40:05Z</time>
      </trkpt>
      <trkpt lat="45.940056927502155" lon="9.547262890264392">
        <ele>2011.72</ele>
        <time>2022-01-16T10:40:20Z</time>
      </trkpt>
      <trkpt lat="45.940059022977948" lon="9.547250987961888">
        <ele>2012.26</ele>
        <time>2022-01-16T10:40:36Z</time>
      </trkpt>
      <trkpt lat="45.940059022977948" lon="9.547257609665394">
        <ele>2011.9100000000001</ele>
        <time>2022-01-16T10:40:56Z</time>
      </trkpt>
      <trkpt lat="45.940060531720519" lon="9.547266913577914">
        <ele>2011.97</ele>
        <time>2022-01-16T10:41:17Z</time>
      </trkpt>
      <trkpt lat="45.940047958865762" lon="9.547197092324495">
        <ele>2012.9300000000001</ele>
        <time>2022-01-16T10:41:30Z</time>
      </trkpt>
      <trkpt lat="45.940035721287131" lon="9.547155434265733">
        <ele>2012.98</ele>
        <time>2022-01-16T10:41:42Z</time>
      </trkpt>
      <trkpt lat="45.940023148432374" lon="9.547104723751545">
        <ele>2012.7</ele>
        <time>2022-01-16T10:41:53Z</time>
      </trkpt>
      <trkpt lat="45.940029518678784" lon="9.547095168381929">
        <ele>2012.9300000000001</ele>
        <time>2022-01-16T10:42:10Z</time>
      </trkpt>
      <trkpt lat="45.940030692145228" lon="9.547095419839025">
        <ele>2012.72</ele>
        <time>2022-01-16T10:42:31Z</time>
      </trkpt>
      <trkpt lat="45.940031362697482" lon="9.547093911096454">
        <ele>2012.8299999999999</ele>
        <time>2022-01-16T10:42:51Z</time>
      </trkpt>
      <trkpt lat="45.940004037693143" lon="9.547102963551879">
        <ele>2011.96</ele>
        <time>2022-01-16T10:43:09Z</time>
      </trkpt>
      <trkpt lat="45.939961709082127" lon="9.547093827277422">
        <ele>2009.8099999999999</ele>
        <time>2022-01-16T10:43:20Z</time>
      </trkpt>
      <trkpt lat="45.93993354588747" lon="9.547090139240027">
        <ele>2008.48</ele>
        <time>2022-01-16T10:43:32Z</time>
      </trkpt>
      <trkpt lat="45.93991544097662" lon="9.547065077349544">
        <ele>2007.6700000000001</ele>
        <time>2022-01-16T10:43:43Z</time>
      </trkpt>
      <trkpt lat="45.939863724634051" lon="9.54701503738761">
        <ele>2004.8599999999999</ele>
        <time>2022-01-16T10:43:57Z</time>
      </trkpt>
      <trkpt lat="45.939826341345906" lon="9.546948820352554">
        <ele>2003.1800000000001</ele>
        <time>2022-01-16T10:44:08Z</time>
      </trkpt>
      <trkpt lat="45.939801195636392" lon="9.546944126486778">
        <ele>2001.3499999999999</ele>
        <time>2022-01-16T10:44:18Z</time>
      </trkpt>
      <trkpt lat="45.939805554226041" lon="9.546937001869083">
        <ele>2001.3299999999999</ele>
        <time>2022-01-16T10:44:36Z</time>
      </trkpt>
      <trkpt lat="45.939778480678797" lon="9.546888386830688">
        <ele>2000.0699999999999</ele>
        <time>2022-01-16T10:44:53Z</time>
      </trkpt>
      <trkpt lat="45.939750736579299" lon="9.546882268041372">
        <ele>1998.4200000000001</ele>
        <time>2022-01-16T10:45:06Z</time>
      </trkpt>
      <trkpt lat="45.939726261422038" lon="9.54687774181366">
        <ele>1996.46</ele>
        <time>2022-01-16T10:45:17Z</time>
      </trkpt>
      <trkpt lat="45.939696002751589" lon="9.546878915280104">
        <ele>1994.6700000000001</ele>
        <time>2022-01-16T10:45:28Z</time>
      </trkpt>
      <trkpt lat="45.939676808193326" lon="9.546845052391291">
        <ele>1993.5</ele>
        <time>2022-01-16T10:45:41Z</time>
      </trkpt>
      <trkpt lat="45.939645208418369" lon="9.546827869489789">
        <ele>1991.8099999999999</ele>
        <time>2022-01-16T10:45:51Z</time>
      </trkpt>
      <trkpt lat="45.93961444683373" lon="9.546811273321509">
        <ele>1989.4100000000001</ele>
        <time>2022-01-16T10:46:01Z</time>
      </trkpt>
      <trkpt lat="45.939603047445416" lon="9.546802304685116">
        <ele>1988.1300000000001</ele>
        <time>2022-01-16T10:46:17Z</time>
      </trkpt>
      <trkpt lat="45.939602544531226" lon="9.546791911125183">
        <ele>1988.5799999999999</ele>
        <time>2022-01-16T10:46:37Z</time>
      </trkpt>
      <trkpt lat="45.939585277810693" lon="9.546754276379943">
        <ele>1987.01</ele>
        <time>2022-01-16T10:46:50Z</time>
      </trkpt>
      <trkpt lat="45.939563484862447" lon="9.546741871163249">
        <ele>1985.8</ele>
        <time>2022-01-16T10:47:01Z</time>
      </trkpt>
      <trkpt lat="45.939542446285486" lon="9.546727035194635">
        <ele>1984.29</ele>
        <time>2022-01-16T10:47:11Z</time>
      </trkpt>
      <trkpt lat="45.93952358700335" lon="9.546691747382283">
        <ele>1983.5799999999999</ele>
        <time>2022-01-16T10:47:21Z</time>
      </trkpt>
      <trkpt lat="45.939497938379645" lon="9.546678671613336">
        <ele>1982.4300000000001</ele>
        <time>2022-01-16T10:47:31Z</time>
      </trkpt>
      <trkpt lat="45.939477989450097" lon="9.546642294153571">
        <ele>1980.75</ele>
        <time>2022-01-16T10:47:42Z</time>
      </trkpt>
      <trkpt lat="45.939466170966625" lon="9.546612203121185">
        <ele>1979.55</ele>
        <time>2022-01-16T10:47:54Z</time>
      </trkpt>
      <trkpt lat="45.93944831751287" lon="9.546607257798314">
        <ele>1979.4400000000001</ele>
        <time>2022-01-16T10:48:06Z</time>
      </trkpt>
      <trkpt lat="45.939438678324223" lon="9.546603569760919">
        <ele>1978.8399999999999</ele>
        <time>2022-01-16T10:48:26Z</time>
      </trkpt>
      <trkpt lat="45.939436750486493" lon="9.546578088775277">
        <ele>1977.3199999999999</ele>
        <time>2022-01-16T10:48:37Z</time>
      </trkpt>
      <trkpt lat="45.939410096034408" lon="9.546550512313843">
        <ele>1975.05</ele>
        <time>2022-01-16T10:48:47Z</time>
      </trkpt>
      <trkpt lat="45.939377238973975" lon="9.546538274735212">
        <ele>1973.3299999999999</ele>
        <time>2022-01-16T10:48:58Z</time>
      </trkpt>
      <trkpt lat="45.939377574250102" lon="9.546529892832041">
        <ele>1972.6300000000001</ele>
        <time>2022-01-16T10:49:13Z</time>
      </trkpt>
      <trkpt lat="45.939374389126897" lon="9.546541711315513">
        <ele>1972.8599999999999</ele>
        <time>2022-01-16T10:49:26Z</time>
      </trkpt>
      <trkpt lat="45.939356619492173" lon="9.546541627496481">
        <ele>1970.76</ele>
        <time>2022-01-16T10:49:37Z</time>
      </trkpt>
      <trkpt lat="45.939332228153944" lon="9.546507261693478">
        <ele>1969.22</ele>
        <time>2022-01-16T10:49:48Z</time>
      </trkpt>
      <trkpt lat="45.93931051902473" lon="9.546454288065434">
        <ele>1967.8199999999999</ele>
        <time>2022-01-16T10:49:59Z</time>
      </trkpt>
      <trkpt lat="45.939285205677152" lon="9.546418413519859">
        <ele>1966.4200000000001</ele>
        <time>2022-01-16T10:50:09Z</time>
      </trkpt>
      <trkpt lat="45.939286462962627" lon="9.546409193426371">
        <ele>1966.01</ele>
        <time>2022-01-16T10:50:26Z</time>
      </trkpt>
      <trkpt lat="45.93932032585144" lon="9.546378348022699">
        <ele>1964.5899999999999</ele>
        <time>2022-01-16T10:50:41Z</time>
      </trkpt>
      <trkpt lat="45.939306160435081" lon="9.546362422406673">
        <ele>1963.3800000000001</ele>
        <time>2022-01-16T10:50:51Z</time>
      </trkpt>
      <trkpt lat="45.939294761046767" lon="9.546356052160263">
        <ele>1962.6500000000001</ele>
        <time>2022-01-16T10:51:07Z</time>
      </trkpt>
      <trkpt lat="45.939272213727236" lon="9.546341048553586">
        <ele>1961.8</ele>
        <time>2022-01-16T10:51:23Z</time>
      </trkpt>
      <trkpt lat="45.939253522083163" lon="9.54634708352387">
        <ele>1961.01</ele>
        <time>2022-01-16T10:51:40Z</time>
      </trkpt>
      <trkpt lat="45.939245307818055" lon="9.546344233676791">
        <ele>1961.8099999999999</ele>
        <time>2022-01-16T10:51:53Z</time>
      </trkpt>
      <trkpt lat="45.939244050532579" lon="9.546360997483134">
        <ele>1962.8099999999999</ele>
        <time>2022-01-16T10:52:07Z</time>
      </trkpt>
      <trkpt lat="45.93925628811121" lon="9.54637155868113">
        <ele>1963.49</ele>
        <time>2022-01-16T10:52:21Z</time>
      </trkpt>
      <trkpt lat="45.93927288427949" lon="9.546385807916522">
        <ele>1965.6199999999999</ele>
        <time>2022-01-16T10:52:33Z</time>
      </trkpt>
      <trkpt lat="45.939266011118889" lon="9.546386813744903">
        <ele>1965.76</ele>
        <time>2022-01-16T10:52:45Z</time>
      </trkpt>
      <trkpt lat="45.939277159050107" lon="9.546392094343901">
        <ele>1965.1600000000001</ele>
        <time>2022-01-16T10:53:01Z</time>
      </trkpt>
      <trkpt lat="45.939271794632077" lon="9.546390250325203">
        <ele>1964.8599999999999</ele>
        <time>2022-01-16T10:53:22Z</time>
      </trkpt>
      <trkpt lat="45.93928562477231" lon="9.54639938659966">
        <ele>1964.8900000000001</ele>
        <time>2022-01-16T10:53:43Z</time>
      </trkpt>
      <trkpt lat="45.939281098544598" lon="9.546405337750912">
        <ele>1964.97</ele>
        <time>2022-01-16T10:54:16Z</time>
      </trkpt>
      <trkpt lat="45.939278667792678" lon="9.546405086293817">
        <ele>1964.9200000000001</ele>
        <time>2022-01-16T10:54:52Z</time>
      </trkpt>
      <trkpt lat="45.939275147393346" lon="9.546404834836721">
        <ele>1965.53</ele>
        <time>2022-01-16T10:55:38Z</time>
      </trkpt>
      <trkpt lat="45.939274141564965" lon="9.546409612521529">
        <ele>1965.0699999999999</ele>
        <time>2022-01-16T10:56:18Z</time>
      </trkpt>
      <trkpt lat="45.939271878451109" lon="9.546412294730544">
        <ele>1965.04</ele>
        <time>2022-01-16T10:57:04Z</time>
      </trkpt>
      <trkpt lat="45.939275985583663" lon="9.546410031616688">
        <ele>1964.5799999999999</ele>
        <time>2022-01-16T10:57:53Z</time>
      </trkpt>
      <trkpt lat="45.939275734126568" lon="9.546410450711846">
        <ele>1964.4100000000001</ele>
        <time>2022-01-16T10:58:41Z</time>
      </trkpt>
      <trkpt lat="45.939268106594682" lon="9.54641749151051">
        <ele>1964.49</ele>
        <time>2022-01-16T10:59:27Z</time>
      </trkpt>
      <trkpt lat="45.93925871886313" lon="9.546413971111178">
        <ele>1964.29</ele>
        <time>2022-01-16T11:00:01Z</time>
      </trkpt>
      <trkpt lat="45.939261233434081" lon="9.546417826786637">
        <ele>1965.01</ele>
        <time>2022-01-16T11:00:31Z</time>
      </trkpt>
      <trkpt lat="45.939261484891176" lon="9.546416737139225">
        <ele>1965.27</ele>
        <time>2022-01-16T11:01:12Z</time>
      </trkpt>
      <trkpt lat="45.93927045352757" lon="9.546422604471445">
        <ele>1965.0999999999999</ele>
        <time>2022-01-16T11:01:45Z</time>
      </trkpt>
      <trkpt lat="45.93926458619535" lon="9.546416150406003">
        <ele>1964.4300000000001</ele>
        <time>2022-01-16T11:02:07Z</time>
      </trkpt>
      <trkpt lat="45.93926751986146" lon="9.546420425176621">
        <ele>1965.1800000000001</ele>
        <time>2022-01-16T11:02:30Z</time>
      </trkpt>
      <trkpt lat="45.939252264797688" lon="9.546408941969276">
        <ele>1965.7</ele>
        <time>2022-01-16T11:03:09Z</time>
      </trkpt>
      <trkpt lat="45.939249414950609" lon="9.546409025788307">
        <ele>1965.74</ele>
        <time>2022-01-16T11:03:59Z</time>
      </trkpt>
      <trkpt lat="45.939249247312546" lon="9.546406511217356">
        <ele>1965.74</ele>
        <time>2022-01-16T11:04:43Z</time>
      </trkpt>
      <trkpt lat="45.939248241484165" lon="9.546413384377956">
        <ele>1965.4200000000001</ele>
        <time>2022-01-16T11:05:27Z</time>
      </trkpt>
      <trkpt lat="45.939247151836753" lon="9.54641405493021">
        <ele>1965.3099999999999</ele>
        <time>2022-01-16T11:06:13Z</time>
      </trkpt>
      <trkpt lat="45.939248744398355" lon="9.546413300558925">
        <ele>1965.8699999999999</ele>
        <time>2022-01-16T11:06:59Z</time>
      </trkpt>
      <trkpt lat="45.939246900379658" lon="9.546415060758591">
        <ele>1966.1800000000001</ele>
        <time>2022-01-16T11:07:46Z</time>
      </trkpt>
      <trkpt lat="45.939244804903865" lon="9.546413719654083">
        <ele>1966.48</ele>
        <time>2022-01-16T11:08:29Z</time>
      </trkpt>
      <trkpt lat="45.939246816560626" lon="9.54641355201602">
        <ele>1966.6800000000001</ele>
        <time>2022-01-16T11:09:15Z</time>
      </trkpt>
      <trkpt lat="45.939245810732245" lon="9.546415144577622">
        <ele>1966.6500000000001</ele>
        <time>2022-01-16T11:09:56Z</time>
      </trkpt>
      <trkpt lat="45.939245391637087" lon="9.546422017738223">
        <ele>1967.0599999999999</ele>
        <time>2022-01-16T11:10:41Z</time>
      </trkpt>
      <trkpt lat="45.939246648922563" lon="9.546419838443399">
        <ele>1967.6099999999999</ele>
        <time>2022-01-16T11:11:28Z</time>
      </trkpt>
      <trkpt lat="45.939254276454449" lon="9.546400392428041">
        <ele>1967.51</ele>
        <time>2022-01-16T11:12:02Z</time>
      </trkpt>
      <trkpt lat="45.939239524304867" lon="9.546393854543567">
        <ele>1967.6700000000001</ele>
        <time>2022-01-16T11:12:16Z</time>
      </trkpt>
      <trkpt lat="45.939227705821395" lon="9.546347921714187">
        <ele>1965.1400000000001</ele>
        <time>2022-01-16T11:12:27Z</time>
      </trkpt>
      <trkpt lat="45.939247151836753" lon="9.546340629458427">
        <ele>1964.49</ele>
        <time>2022-01-16T11:12:39Z</time>
      </trkpt>
      <trkpt lat="45.939242960885167" lon="9.546332079917193">
        <ele>1963.8599999999999</ele>
        <time>2022-01-16T11:12:53Z</time>
      </trkpt>
      <trkpt lat="45.939248325303197" lon="9.546324536204338">
        <ele>1963.05</ele>
        <time>2022-01-16T11:13:11Z</time>
      </trkpt>
      <trkpt lat="45.939271710813046" lon="9.546303497627378">
        <ele>1960.9400000000001</ele>
        <time>2022-01-16T11:13:27Z</time>
      </trkpt>
      <trkpt lat="45.939268777146935" lon="9.546277849003673">
        <ele>1958.96</ele>
        <time>2022-01-16T11:13:39Z</time>
      </trkpt>
      <trkpt lat="45.939266597852111" lon="9.546291930601001">
        <ele>1958.74</ele>
        <time>2022-01-16T11:13:57Z</time>
      </trkpt>
      <trkpt lat="45.939263161271811" lon="9.546256894245744">
        <ele>1958.01</ele>
        <time>2022-01-16T11:14:09Z</time>
      </trkpt>
      <trkpt lat="45.939241787418723" lon="9.546247841790319">
        <ele>1957.1300000000001</ele>
        <time>2022-01-16T11:14:18Z</time>
      </trkpt>
      <trkpt lat="45.939225945621729" lon="9.546256391331554">
        <ele>1956.23</ele>
        <time>2022-01-16T11:14:31Z</time>
      </trkpt>
      <trkpt lat="45.939224855974317" lon="9.546258738264442">
        <ele>1955.8299999999999</ele>
        <time>2022-01-16T11:14:47Z</time>
      </trkpt>
      <trkpt lat="45.939228041097522" lon="9.546257900074124">
        <ele>1956.24</ele>
        <time>2022-01-16T11:15:03Z</time>
      </trkpt>
      <trkpt lat="45.939217563718557" lon="9.546259408816695">
        <ele>1956.0599999999999</ele>
        <time>2022-01-16T11:15:20Z</time>
      </trkpt>
      <trkpt lat="45.939223850145936" lon="9.546254379674792">
        <ele>1956.0899999999999</ele>
        <time>2022-01-16T11:15:37Z</time>
      </trkpt>
      <trkpt lat="45.939221167936921" lon="9.546257564797998">
        <ele>1955.8</ele>
        <time>2022-01-16T11:15:58Z</time>
      </trkpt>
      <trkpt lat="45.939219491556287" lon="9.546257061883807">
        <ele>1955.8499999999999</ele>
        <time>2022-01-16T11:16:18Z</time>
      </trkpt>
      <trkpt lat="45.939215216785669" lon="9.546259911730886">
        <ele>1955.73</ele>
        <time>2022-01-16T11:16:35Z</time>
      </trkpt>
      <trkpt lat="45.939212953671813" lon="9.546257145702839">
        <ele>1955.6700000000001</ele>
        <time>2022-01-16T11:16:55Z</time>
      </trkpt>
      <trkpt lat="45.939217563718557" lon="9.546255888417363">
        <ele>1955.9000000000001</ele>
        <time>2022-01-16T11:17:20Z</time>
      </trkpt>
      <trkpt lat="45.939220748841763" lon="9.546254295855761">
        <ele>1955.6900000000001</ele>
        <time>2022-01-16T11:17:46Z</time>
      </trkpt>
      <trkpt lat="45.939222173765302" lon="9.546258319169283">
        <ele>1955.5699999999999</ele>
        <time>2022-01-16T11:18:09Z</time>
      </trkpt>
      <trkpt lat="45.939216893166304" lon="9.546267203986645">
        <ele>1955.4100000000001</ele>
        <time>2022-01-16T11:18:37Z</time>
      </trkpt>
      <trkpt lat="45.939216557890177" lon="9.546257900074124">
        <ele>1955.47</ele>
        <time>2022-01-16T11:18:58Z</time>
      </trkpt>
      <trkpt lat="45.939208930358291" lon="9.546252870932221">
        <ele>1954.79</ele>
        <time>2022-01-16T11:19:17Z</time>
      </trkpt>
      <trkpt lat="45.939193340018392" lon="9.546230742707849">
        <ele>1953.4300000000001</ele>
        <time>2022-01-16T11:19:29Z</time>
      </trkpt>
      <trkpt lat="45.939191076904535" lon="9.546231413260102">
        <ele>1953.8199999999999</ele>
        <time>2022-01-16T11:19:46Z</time>
      </trkpt>
      <trkpt lat="45.939192585647106" lon="9.546225462108851">
        <ele>1953.6500000000001</ele>
        <time>2022-01-16T11:20:00Z</time>
      </trkpt>
      <trkpt lat="45.939185796305537" lon="9.546217499300838">
        <ele>1953.1400000000001</ele>
        <time>2022-01-16T11:20:15Z</time>
      </trkpt>
      <trkpt lat="45.939184371381998" lon="9.54619319178164">
        <ele>1952.4200000000001</ele>
        <time>2022-01-16T11:20:27Z</time>
      </trkpt>
      <trkpt lat="45.939189987257123" lon="9.546169303357601">
        <ele>1951.8299999999999</ele>
        <time>2022-01-16T11:20:42Z</time>
      </trkpt>
      <trkpt lat="45.939184539020061" lon="9.54615362919867">
        <ele>1950.8299999999999</ele>
        <time>2022-01-16T11:20:56Z</time>
      </trkpt>
      <trkpt lat="45.939172636717558" lon="9.546126974746585">
        <ele>1949.6600000000001</ele>
        <time>2022-01-16T11:21:11Z</time>
      </trkpt>
      <trkpt lat="45.939176073297858" lon="9.546081880107522">
        <ele>1948.03</ele>
        <time>2022-01-16T11:21:19Z</time>
      </trkpt>
      <trkpt lat="45.939165093004704" lon="9.546074420213699">
        <ele>1947.51</ele>
        <time>2022-01-16T11:21:25Z</time>
      </trkpt>
      <trkpt lat="45.93912092037499" lon="9.546043826267123">
        <ele>1945.0999999999999</ele>
        <time>2022-01-16T11:21:36Z</time>
      </trkpt>
      <trkpt lat="45.939103569835424" lon="9.545992445200682">
        <ele>1942.77</ele>
        <time>2022-01-16T11:21:48Z</time>
      </trkpt>
      <trkpt lat="45.939088398590684" lon="9.545941231772304">
        <ele>1940.79</ele>
        <time>2022-01-16T11:21:58Z</time>
      </trkpt>
      <trkpt lat="45.9390530269593" lon="9.545905189588666">
        <ele>1939.1600000000001</ele>
        <time>2022-01-16T11:22:11Z</time>
      </trkpt>
      <trkpt lat="45.939033664762974" lon="9.545872416347265">
        <ele>1938.3900000000001</ele>
        <time>2022-01-16T11:22:21Z</time>
      </trkpt>
      <trkpt lat="45.93899636529386" lon="9.545826315879822">
        <ele>1937.1099999999999</ele>
        <time>2022-01-16T11:22:29Z</time>
      </trkpt>
      <trkpt lat="45.938911708071828" lon="9.545706789940596">
        <ele>1935.1600000000001</ele>
        <time>2022-01-16T11:22:43Z</time>
      </trkpt>
      <trkpt lat="45.938880443572998" lon="9.54565716907382">
        <ele>1933.5999999999999</ele>
        <time>2022-01-16T11:22:50Z</time>
      </trkpt>
      <trkpt lat="45.938776759430766" lon="9.545547617599368">
        <ele>1932.45</ele>
        <time>2022-01-16T11:23:06Z</time>
      </trkpt>
      <trkpt lat="45.938729317858815" lon="9.545482406392694">
        <ele>1931.1199999999999</ele>
        <time>2022-01-16T11:23:17Z</time>
      </trkpt>
      <trkpt lat="45.938679445534945" lon="9.545384757220745">
        <ele>1928.05</ele>
        <time>2022-01-16T11:23:28Z</time>
      </trkpt>
      <trkpt lat="45.938646588474512" lon="9.54532734118402">
        <ele>1925.6600000000001</ele>
        <time>2022-01-16T11:23:39Z</time>
      </trkpt>
      <trkpt lat="45.93863233923912" lon="9.545239163562655">
        <ele>1923.2</ele>
        <time>2022-01-16T11:23:52Z</time>
      </trkpt>
      <trkpt lat="45.938621861860156" lon="9.545143526047468">
        <ele>1920.29</ele>
        <time>2022-01-16T11:24:03Z</time>
      </trkpt>
      <trkpt lat="45.938600320369005" lon="9.545068927109242">
        <ele>1917.7</ele>
        <time>2022-01-16T11:24:14Z</time>
      </trkpt>
      <trkpt lat="45.938585568219423" lon="9.545044535771012">
        <ele>1916.6300000000001</ele>
        <time>2022-01-16T11:24:18Z</time>
      </trkpt>
      <trkpt lat="45.938573582097888" lon="9.544989047572017">
        <ele>1914.8499999999999</ele>
        <time>2022-01-16T11:24:29Z</time>
      </trkpt>
      <trkpt lat="45.938558829948306" lon="9.544881172478199">
        <ele>1912.3900000000001</ele>
        <time>2022-01-16T11:24:41Z</time>
      </trkpt>
      <trkpt lat="45.938547514379025" lon="9.544800454750657">
        <ele>1909.27</ele>
        <time>2022-01-16T11:24:51Z</time>
      </trkpt>
      <trkpt lat="45.938499150797725" lon="9.544683527201414">
        <ele>1906.6800000000001</ele>
        <time>2022-01-16T11:25:05Z</time>
      </trkpt>
      <trkpt lat="45.938476771116257" lon="9.544650670140982">
        <ele>1905.4000000000001</ele>
        <time>2022-01-16T11:25:17Z</time>
      </trkpt>
      <trkpt lat="45.938469646498561" lon="9.544599624350667">
        <ele>1903.74</ele>
        <time>2022-01-16T11:25:25Z</time>
      </trkpt>
      <trkpt lat="45.938451122492552" lon="9.544529635459185">
        <ele>1901.0699999999999</ele>
        <time>2022-01-16T11:25:34Z</time>
      </trkpt>
      <trkpt lat="45.938441734761" lon="9.544458892196417">
        <ele>1897.99</ele>
        <time>2022-01-16T11:25:43Z</time>
      </trkpt>
      <trkpt lat="45.938427988439798" lon="9.544401811435819">
        <ele>1895.28</ele>
        <time>2022-01-16T11:25:51Z</time>
      </trkpt>
      <trkpt lat="45.938390688970685" lon="9.544314723461866">
        <ele>1891.8900000000001</ele>
        <time>2022-01-16T11:26:00Z</time>
      </trkpt>
      <trkpt lat="45.938378870487213" lon="9.544290499761701">
        <ele>1890.97</ele>
        <time>2022-01-16T11:26:02Z</time>
      </trkpt>
      <trkpt lat="45.938346516340971" lon="9.544220007956028">
        <ele>1888.46</ele>
        <time>2022-01-16T11:26:07Z</time>
      </trkpt>
      <trkpt lat="45.938325729221106" lon="9.544191006571055">
        <ele>1886.74</ele>
        <time>2022-01-16T11:26:10Z</time>
      </trkpt>
      <trkpt lat="45.938272085040808" lon="9.544091513380408">
        <ele>1884.49</ele>
        <time>2022-01-16T11:26:22Z</time>
      </trkpt>
      <trkpt lat="45.938283819705248" lon="9.544090507552028">
        <ele>1884.3</ele>
        <time>2022-01-16T11:26:46Z</time>
      </trkpt>
      <trkpt lat="45.938269486650825" lon="9.544080700725317">
        <ele>1885.28</ele>
        <time>2022-01-16T11:27:01Z</time>
      </trkpt>
      <trkpt lat="45.938209723681211" lon="9.544006269425154">
        <ele>1883.26</ele>
        <time>2022-01-16T11:27:12Z</time>
      </trkpt>
      <trkpt lat="45.938194133341312" lon="9.54399922862649">
        <ele>1883.1500000000001</ele>
        <time>2022-01-16T11:27:24Z</time>
      </trkpt>
      <trkpt lat="45.938185751438141" lon="9.543996881693602">
        <ele>1883.3900000000001</ele>
        <time>2022-01-16T11:27:29Z</time>
      </trkpt>
      <trkpt lat="45.938128586858511" lon="9.543982297182083">
        <ele>1882.5599999999999</ele>
        <time>2022-01-16T11:27:34Z</time>
      </trkpt>
      <trkpt lat="45.938077289611101" lon="9.543980620801449">
        <ele>1881.97</ele>
        <time>2022-01-16T11:27:39Z</time>
      </trkpt>
      <trkpt lat="45.937971929088235" lon="9.543958324939013">
        <ele>1878.9000000000001</ele>
        <time>2022-01-16T11:27:49Z</time>
      </trkpt>
      <trkpt lat="45.93784611672163" lon="9.54391373321414">
        <ele>1877.05</ele>
        <time>2022-01-16T11:28:00Z</time>
      </trkpt>
      <trkpt lat="45.937712928280234" lon="9.543902166187763">
        <ele>1876.23</ele>
        <time>2022-01-16T11:28:14Z</time>
      </trkpt>
      <trkpt lat="45.937689794227481" lon="9.5438829716295">
        <ele>1875.9200000000001</ele>
        <time>2022-01-16T11:28:17Z</time>
      </trkpt>
      <trkpt lat="45.937542608007789" lon="9.543763445690274">
        <ele>1874.1199999999999</ele>
        <time>2022-01-16T11:28:34Z</time>
      </trkpt>
      <trkpt lat="45.937421321868896" lon="9.543669484555721">
        <ele>1870.8499999999999</ele>
        <time>2022-01-16T11:28:48Z</time>
      </trkpt>
      <trkpt lat="45.937362313270569" lon="9.543587425723672">
        <ele>1869.25</ele>
        <time>2022-01-16T11:28:58Z</time>
      </trkpt>
      <trkpt lat="45.937333898618817" lon="9.543547946959734">
        <ele>1868.02</ele>
        <time>2022-01-16T11:29:02Z</time>
      </trkpt>
      <trkpt lat="45.93723876401782" lon="9.543428588658571">
        <ele>1864.6600000000001</ele>
        <time>2022-01-16T11:29:14Z</time>
      </trkpt>
      <trkpt lat="45.937109934166074" lon="9.543352229520679">
        <ele>1861.6600000000001</ele>
        <time>2022-01-16T11:29:27Z</time>
      </trkpt>
      <trkpt lat="45.93698026612401" lon="9.543260280042887">
        <ele>1858.29</ele>
        <time>2022-01-16T11:29:41Z</time>
      </trkpt>
      <trkpt lat="45.936877001076937" lon="9.543169001117349">
        <ele>1855.22</ele>
        <time>2022-01-16T11:29:54Z</time>
      </trkpt>
      <trkpt lat="45.936886556446552" lon="9.543103370815516">
        <ele>1853.5</ele>
        <time>2022-01-16T11:30:04Z</time>
      </trkpt>
      <trkpt lat="45.936888484284282" lon="9.543101862072945">
        <ele>1854.5799999999999</ele>
        <time>2022-01-16T11:30:18Z</time>
      </trkpt>
      <trkpt lat="45.936888065189123" lon="9.543104041367769">
        <ele>1853.4100000000001</ele>
        <time>2022-01-16T11:30:20Z</time>
      </trkpt>
      <trkpt lat="45.936871971935034" lon="9.543095240369439">
        <ele>1852.73</ele>
        <time>2022-01-16T11:30:26Z</time>
      </trkpt>
      <trkpt lat="45.936850514262915" lon="9.543043356388807">
        <ele>1851.7</ele>
        <time>2022-01-16T11:30:31Z</time>
      </trkpt>
      <trkpt lat="45.936831319704652" lon="9.542979067191482">
        <ele>1850.0899999999999</ele>
        <time>2022-01-16T11:30:45Z</time>
      </trkpt>
      <trkpt lat="45.936835594475269" lon="9.542977139353752">
        <ele>1850.8099999999999</ele>
        <time>2022-01-16T11:31:03Z</time>
      </trkpt>
      <trkpt lat="45.936835678294301" lon="9.542980827391148">
        <ele>1850.29</ele>
        <time>2022-01-16T11:31:23Z</time>
      </trkpt>
      <trkpt lat="45.936800893396139" lon="9.543056013062596">
        <ele>1848.8399999999999</ele>
        <time>2022-01-16T11:31:36Z</time>
      </trkpt>
      <trkpt lat="45.936767030507326" lon="9.543069340288639">
        <ele>1848.23</ele>
        <time>2022-01-16T11:31:42Z</time>
      </trkpt>
      <trkpt lat="45.936688994988799" lon="9.543022904545069">
        <ele>1844.6900000000001</ele>
        <time>2022-01-16T11:31:48Z</time>
      </trkpt>
      <trkpt lat="45.936627304181457" lon="9.543005134910345">
        <ele>1842.1400000000001</ele>
        <time>2022-01-16T11:31:52Z</time>
      </trkpt>
      <trkpt lat="45.936548765748739" lon="9.542989041656256">
        <ele>1839.3699999999999</ele>
        <time>2022-01-16T11:31:57Z</time>
      </trkpt>
      <trkpt lat="45.936513394117355" lon="9.542939085513353">
        <ele>1837.02</ele>
        <time>2022-01-16T11:32:01Z</time>
      </trkpt>
      <trkpt lat="45.936488667502999" lon="9.542886698618531">
        <ele>1835.8900000000001</ele>
        <time>2022-01-16T11:32:05Z</time>
      </trkpt>
      <trkpt lat="45.936487410217524" lon="9.542850153520703">
        <ele>1835.48</ele>
        <time>2022-01-16T11:32:08Z</time>
      </trkpt>
      <trkpt lat="45.936457654461265" lon="9.542809668928385">
        <ele>1833.55</ele>
        <time>2022-01-16T11:32:12Z</time>
      </trkpt>
      <trkpt lat="45.93634994700551" lon="9.542749235406518">
        <ele>1829.95</ele>
        <time>2022-01-16T11:32:23Z</time>
      </trkpt>
      <trkpt lat="45.936246765777469" lon="9.542661728337407">
        <ele>1827.8499999999999</ele>
        <time>2022-01-16T11:32:33Z</time>
      </trkpt>
      <trkpt lat="45.936232348904014" lon="9.542627027258277">
        <ele>1827.47</ele>
        <time>2022-01-16T11:32:37Z</time>
      </trkpt>
      <trkpt lat="45.93613495118916" lon="9.542485205456615">
        <ele>1823.71</ele>
        <time>2022-01-16T11:32:52Z</time>
      </trkpt>
      <trkpt lat="45.936080636456609" lon="9.542425191029906">
        <ele>1821.73</ele>
        <time>2022-01-16T11:33:06Z</time>
      </trkpt>
      <trkpt lat="45.936060519888997" lon="9.542417814955115">
        <ele>1821.4400000000001</ele>
        <time>2022-01-16T11:33:19Z</time>
      </trkpt>
      <trkpt lat="45.93605431728065" lon="9.542413540184498">
        <ele>1821.02</ele>
        <time>2022-01-16T11:33:34Z</time>
      </trkpt>
      <trkpt lat="45.935998577624559" lon="9.542371882125735">
        <ele>1818.99</ele>
        <time>2022-01-16T11:33:46Z</time>
      </trkpt>
      <trkpt lat="45.93597024679184" lon="9.542345479130745">
        <ele>1817.54</ele>
        <time>2022-01-16T11:33:54Z</time>
      </trkpt>
      <trkpt lat="45.936015592887998" lon="9.542274652048945">
        <ele>1815.3499999999999</ele>
        <time>2022-01-16T11:34:05Z</time>
      </trkpt>
      <trkpt lat="45.936018610373139" lon="9.542244141921401">
        <ele>1814.52</ele>
        <time>2022-01-16T11:34:17Z</time>
      </trkpt>
      <trkpt lat="45.936009306460619" lon="9.542229557409883">
        <ele>1813.45</ele>
        <time>2022-01-16T11:34:27Z</time>
      </trkpt>
      <trkpt lat="45.935983993113041" lon="9.542190665379167">
        <ele>1811.4100000000001</ele>
        <time>2022-01-16T11:34:40Z</time>
      </trkpt>
      <trkpt lat="45.935967648401856" lon="9.542166106402874">
        <ele>1810.03</ele>
        <time>2022-01-16T11:34:51Z</time>
      </trkpt>
      <trkpt lat="45.935949292033911" lon="9.542122017592192">
        <ele>1807.9300000000001</ele>
        <time>2022-01-16T11:35:05Z</time>
      </trkpt>
      <trkpt lat="45.935945436358452" lon="9.542087065055966">
        <ele>1807.45</ele>
        <time>2022-01-16T11:35:17Z</time>
      </trkpt>
      <trkpt lat="45.9359170217067" lon="9.542084382846952">
        <ele>1806.49</ele>
        <time>2022-01-16T11:35:31Z</time>
      </trkpt>
      <trkpt lat="45.935890283435583" lon="9.542037360370159">
        <ele>1803.75</ele>
        <time>2022-01-16T11:35:38Z</time>
      </trkpt>
      <trkpt lat="45.935860779136419" lon="9.541981872171164">
        <ele>1801.0899999999999</ele>
        <time>2022-01-16T11:35:45Z</time>
      </trkpt>
      <trkpt lat="45.935847954824567" lon="9.541944824159145">
        <ele>1799.21</ele>
        <time>2022-01-16T11:35:49Z</time>
      </trkpt>
      <trkpt lat="45.93583052046597" lon="9.541919594630599">
        <ele>1797.28</ele>
        <time>2022-01-16T11:35:53Z</time>
      </trkpt>
      <trkpt lat="45.935824234038591" lon="9.541917918249965">
        <ele>1796.75</ele>
        <time>2022-01-16T11:35:54Z</time>
      </trkpt>
      <trkpt lat="45.935807805508375" lon="9.54184340313077">
        <ele>1793.8299999999999</ele>
        <time>2022-01-16T11:36:00Z</time>
      </trkpt>
      <trkpt lat="45.935846697539091" lon="9.541785651817918">
        <ele>1792.74</ele>
        <time>2022-01-16T11:36:06Z</time>
      </trkpt>
      <trkpt lat="45.935865137726068" lon="9.541750028729439">
        <ele>1791.7</ele>
        <time>2022-01-16T11:36:09Z</time>
      </trkpt>
      <trkpt lat="45.935876369476318" lon="9.541725888848305">
        <ele>1791.3499999999999</ele>
        <time>2022-01-16T11:36:11Z</time>
      </trkpt>
      <trkpt lat="45.935897156596184" lon="9.541621869429946">
        <ele>1787.5699999999999</ele>
        <time>2022-01-16T11:36:18Z</time>
      </trkpt>
      <trkpt lat="45.93589698895812" lon="9.541612397879362">
        <ele>1787.3699999999999</ele>
        <time>2022-01-16T11:36:19Z</time>
      </trkpt>
      <trkpt lat="45.935891289263964" lon="9.541598064824939">
        <ele>1786.22</ele>
        <time>2022-01-16T11:36:29Z</time>
      </trkpt>
      <trkpt lat="45.935869831591845" lon="9.541592029854655">
        <ele>1786.3699999999999</ele>
        <time>2022-01-16T11:36:35Z</time>
      </trkpt>
      <trkpt lat="45.935870334506035" lon="9.541597226634622">
        <ele>1786.8699999999999</ele>
        <time>2022-01-16T11:36:42Z</time>
      </trkpt>
      <trkpt lat="45.935872429981828" lon="9.541595801711083">
        <ele>1785.6600000000001</ele>
        <time>2022-01-16T11:37:01Z</time>
      </trkpt>
      <trkpt lat="45.935879806056619" lon="9.541598651558161">
        <ele>1786.01</ele>
        <time>2022-01-16T11:37:16Z</time>
      </trkpt>
      <trkpt lat="45.935878632590175" lon="9.541601585224271">
        <ele>1785.75</ele>
        <time>2022-01-16T11:37:34Z</time>
      </trkpt>
      <trkpt lat="45.935799507424235" lon="9.541629664599896">
        <ele>1784.6199999999999</ele>
        <time>2022-01-16T11:37:44Z</time>
      </trkpt>
      <trkpt lat="45.935713592916727" lon="9.541630418971181">
        <ele>1783.8199999999999</ele>
        <time>2022-01-16T11:37:57Z</time>
      </trkpt>
      <trkpt lat="45.935666905716062" lon="9.541641063988209">
        <ele>1782.01</ele>
        <time>2022-01-16T11:38:08Z</time>
      </trkpt>
      <trkpt lat="45.935635222122073" lon="9.541652798652649">
        <ele>1781.3900000000001</ele>
        <time>2022-01-16T11:38:14Z</time>
      </trkpt>
      <trkpt lat="45.935556096956134" lon="9.541663024574518">
        <ele>1781.05</ele>
        <time>2022-01-16T11:38:27Z</time>
      </trkpt>
      <trkpt lat="45.935553917661309" lon="9.541663276031613">
        <ele>1781.01</ele>
        <time>2022-01-16T11:38:28Z</time>
      </trkpt>
      <trkpt lat="45.935474541038275" lon="9.541634190827608">
        <ele>1777.73</ele>
        <time>2022-01-16T11:38:35Z</time>
      </trkpt>
      <trkpt lat="45.935456687584519" lon="9.541632682085037">
        <ele>1777.1800000000001</ele>
        <time>2022-01-16T11:38:36Z</time>
      </trkpt>
      <trkpt lat="45.935436319559813" lon="9.541633855551481">
        <ele>1776.3399999999999</ele>
        <time>2022-01-16T11:38:37Z</time>
      </trkpt>
      <trkpt lat="45.935419891029596" lon="9.541634023189545">
        <ele>1776.0699999999999</ele>
        <time>2022-01-16T11:38:38Z</time>
      </trkpt>
      <trkpt lat="45.935395834967494" lon="9.541627988219261">
        <ele>1775.45</ele>
        <time>2022-01-16T11:38:40Z</time>
      </trkpt>
      <trkpt lat="45.935384854674339" lon="9.541616169735789">
        <ele>1774.79</ele>
        <time>2022-01-16T11:38:41Z</time>
      </trkpt>
      <trkpt lat="45.935376472771168" lon="9.541603680700064">
        <ele>1774.3199999999999</ele>
        <time>2022-01-16T11:38:42Z</time>
      </trkpt>
      <trkpt lat="45.935301790013909" lon="9.541462194174528">
        <ele>1771.3</ele>
        <time>2022-01-16T11:38:51Z</time>
      </trkpt>
      <trkpt lat="45.935274884104729" lon="9.541350631043315">
        <ele>1769.0599999999999</ele>
        <time>2022-01-16T11:38:58Z</time>
      </trkpt>
      <trkpt lat="45.935269352048635" lon="9.541334705427289">
        <ele>1768.8599999999999</ele>
        <time>2022-01-16T11:38:59Z</time>
      </trkpt>
      <trkpt lat="45.935262814164162" lon="9.541318025439978">
        <ele>1768.6400000000001</ele>
        <time>2022-01-16T11:39:00Z</time>
      </trkpt>
      <trkpt lat="45.935254767537117" lon="9.541302686557174">
        <ele>1768.1199999999999</ele>
        <time>2022-01-16T11:39:01Z</time>
      </trkpt>
      <trkpt lat="45.93524906784296" lon="9.541287515312433">
        <ele>1767.5</ele>
        <time>2022-01-16T11:39:02Z</time>
      </trkpt>
      <trkpt lat="45.935245882719755" lon="9.541271422058344">
        <ele>1767.3</ele>
        <time>2022-01-16T11:39:03Z</time>
      </trkpt>
      <trkpt lat="45.935242949053645" lon="9.541257256641984">
        <ele>1767.0799999999999</ele>
        <time>2022-01-16T11:39:04Z</time>
      </trkpt>
      <trkpt lat="45.935238003730774" lon="9.541241666302085">
        <ele>1766.99</ele>
        <time>2022-01-16T11:39:05Z</time>
      </trkpt>
      <trkpt lat="45.93521922826767" lon="9.541207132861018">
        <ele>1766.21</ele>
        <time>2022-01-16T11:39:08Z</time>
      </trkpt>
      <trkpt lat="45.935208834707737" lon="9.541196068748832">
        <ele>1765.9000000000001</ele>
        <time>2022-01-16T11:39:09Z</time>
      </trkpt>
      <trkpt lat="45.935181342065334" lon="9.541148208081722">
        <ele>1764.6700000000001</ele>
        <time>2022-01-16T11:39:13Z</time>
      </trkpt>
      <trkpt lat="45.935187041759491" lon="9.541133120656014">
        <ele>1764.55</ele>
        <time>2022-01-16T11:39:14Z</time>
      </trkpt>
      <trkpt lat="45.935204811394215" lon="9.541091378778219">
        <ele>1763.48</ele>
        <time>2022-01-16T11:39:17Z</time>
      </trkpt>
      <trkpt lat="45.935160387307405" lon="9.540946539491415">
        <ele>1760.25</ele>
        <time>2022-01-16T11:39:28Z</time>
      </trkpt>
      <trkpt lat="45.935139013454318" lon="9.54092625528574">
        <ele>1759.3399999999999</ele>
        <time>2022-01-16T11:39:31Z</time>
      </trkpt>
      <trkpt lat="45.935109341517091" lon="9.540888452902436">
        <ele>1757.8199999999999</ele>
        <time>2022-01-16T11:39:43Z</time>
      </trkpt>
      <trkpt lat="45.935086626559496" lon="9.540800610557199">
        <ele>1756.3199999999999</ele>
        <time>2022-01-16T11:39:54Z</time>
      </trkpt>
      <trkpt lat="45.935087716206908" lon="9.540800023823977">
        <ele>1756</ele>
        <time>2022-01-16T11:40:11Z</time>
      </trkpt>
      <trkpt lat="45.935057708993554" lon="9.540797844529152">
        <ele>1755.4400000000001</ele>
        <time>2022-01-16T11:40:26Z</time>
      </trkpt>
      <trkpt lat="45.934982774779201" lon="9.540788792073727">
        <ele>1752.6300000000001</ele>
        <time>2022-01-16T11:40:37Z</time>
      </trkpt>
      <trkpt lat="45.934860315173864" lon="9.540644623339176">
        <ele>1749.01</ele>
        <time>2022-01-16T11:40:51Z</time>
      </trkpt>
      <trkpt lat="45.934747327119112" lon="9.5404845289886">
        <ele>1747.3399999999999</ele>
        <time>2022-01-16T11:41:04Z</time>
      </trkpt>
      <trkpt lat="45.934652108699083" lon="9.540398446843028">
        <ele>1744.8099999999999</ele>
        <time>2022-01-16T11:41:17Z</time>
      </trkpt>
      <trkpt lat="45.934644229710102" lon="9.540390986949205">
        <ele>1744.55</ele>
        <time>2022-01-16T11:41:18Z</time>
      </trkpt>
      <trkpt lat="45.934582455083728" lon="9.540342874825001">
        <ele>1742.55</ele>
        <time>2022-01-16T11:41:26Z</time>
      </trkpt>
      <trkpt lat="45.93454540707171" lon="9.540289901196957">
        <ele>1741.1500000000001</ele>
        <time>2022-01-16T11:41:32Z</time>
      </trkpt>
      <trkpt lat="45.934517914429307" lon="9.54023483209312">
        <ele>1739.46</ele>
        <time>2022-01-16T11:41:38Z</time>
      </trkpt>
      <trkpt lat="45.934421941637993" lon="9.540179008617997">
        <ele>1736.21</ele>
        <time>2022-01-16T11:41:49Z</time>
      </trkpt>
      <trkpt lat="45.934324627742171" lon="9.540104828774929">
        <ele>1732.79</ele>
        <time>2022-01-16T11:42:00Z</time>
      </trkpt>
      <trkpt lat="45.93427961692214" lon="9.539946829900146">
        <ele>1728.99</ele>
        <time>2022-01-16T11:42:12Z</time>
      </trkpt>
      <trkpt lat="45.934252711012959" lon="9.539914559572935">
        <ele>1726.8900000000001</ele>
        <time>2022-01-16T11:42:16Z</time>
      </trkpt>
      <trkpt lat="45.934183727949858" lon="9.539867453277111">
        <ele>1723.78</ele>
        <time>2022-01-16T11:42:23Z</time>
      </trkpt>
      <trkpt lat="45.934200156480074" lon="9.539761673659086">
        <ele>1720.1700000000001</ele>
        <time>2022-01-16T11:42:33Z</time>
      </trkpt>
      <trkpt lat="45.934212729334831" lon="9.539642399176955">
        <ele>1716.98</ele>
        <time>2022-01-16T11:42:44Z</time>
      </trkpt>
      <trkpt lat="45.934245586395264" lon="9.539573667570949">
        <ele>1715.1500000000001</ele>
        <time>2022-01-16T11:42:51Z</time>
      </trkpt>
      <trkpt lat="45.934269893914461" lon="9.539513569325209">
        <ele>1713.45</ele>
        <time>2022-01-16T11:42:57Z</time>
      </trkpt>
      <trkpt lat="45.934257237240672" lon="9.539421536028385">
        <ele>1710.78</ele>
        <time>2022-01-16T11:43:05Z</time>
      </trkpt>
      <trkpt lat="45.934265535324812" lon="9.539375435560942">
        <ele>1709.1099999999999</ele>
        <time>2022-01-16T11:43:09Z</time>
      </trkpt>
      <trkpt lat="45.934233264997602" lon="9.539266051724553">
        <ele>1706.3800000000001</ele>
        <time>2022-01-16T11:43:19Z</time>
      </trkpt>
      <trkpt lat="45.934220775961876" lon="9.539227997884154">
        <ele>1705.0999999999999</ele>
        <time>2022-01-16T11:43:22Z</time>
      </trkpt>
      <trkpt lat="45.934188757091761" lon="9.539107298478484">
        <ele>1702.0799999999999</ele>
        <time>2022-01-16T11:43:33Z</time>
      </trkpt>
      <trkpt lat="45.934135280549526" lon="9.538988610729575">
        <ele>1698.9300000000001</ele>
        <time>2022-01-16T11:43:44Z</time>
      </trkpt>
      <trkpt lat="45.934092113748193" lon="9.538843687623739">
        <ele>1695.7</ele>
        <time>2022-01-16T11:43:56Z</time>
      </trkpt>
      <trkpt lat="45.934052132070065" lon="9.538702704012394">
        <ele>1692.5799999999999</ele>
        <time>2022-01-16T11:44:08Z</time>
      </trkpt>
      <trkpt lat="45.933992872014642" lon="9.538626428693533">
        <ele>1690.9000000000001</ele>
        <time>2022-01-16T11:44:22Z</time>
      </trkpt>
      <trkpt lat="45.93400351703167" lon="9.538496341556311">
        <ele>1688.4200000000001</ele>
        <time>2022-01-16T11:44:34Z</time>
      </trkpt>
      <trkpt lat="45.934057245030999" lon="9.538375725969672">
        <ele>1686.02</ele>
        <time>2022-01-16T11:44:48Z</time>
      </trkpt>
      <trkpt lat="45.934129748493433" lon="9.538272796198726">
        <ele>1683.77</ele>
        <time>2022-01-16T11:45:02Z</time>
      </trkpt>
      <trkpt lat="45.934196384623647" lon="9.538167351856828">
        <ele>1681.5899999999999</ele>
        <time>2022-01-16T11:45:15Z</time>
      </trkpt>
      <trkpt lat="45.934249693527818" lon="9.538036091253161">
        <ele>1678.55</ele>
        <time>2022-01-16T11:45:29Z</time>
      </trkpt>
      <trkpt lat="45.934309037402272" lon="9.537968533113599">
        <ele>1677.54</ele>
        <time>2022-01-16T11:45:37Z</time>
      </trkpt>
      <trkpt lat="45.934385564178228" lon="9.537813300266862">
        <ele>1676.6900000000001</ele>
        <time>2022-01-16T11:45:52Z</time>
      </trkpt>
      <trkpt lat="45.934417163953185" lon="9.537628646939993">
        <ele>1674.78</ele>
        <time>2022-01-16T11:46:05Z</time>
      </trkpt>
      <trkpt lat="45.93437684699893" lon="9.537462769076228">
        <ele>1673.0999999999999</ele>
        <time>2022-01-16T11:46:17Z</time>
      </trkpt>
      <trkpt lat="45.934396041557193" lon="9.537312565371394">
        <ele>1672.78</ele>
        <time>2022-01-16T11:46:29Z</time>
      </trkpt>
      <trkpt lat="45.934494445100427" lon="9.537233272567391">
        <ele>1671.46</ele>
        <time>2022-01-16T11:46:42Z</time>
      </trkpt>
      <trkpt lat="45.934565272182226" lon="9.537155907601118">
        <ele>1668.76</ele>
        <time>2022-01-16T11:46:55Z</time>
      </trkpt>
      <trkpt lat="45.934574659913778" lon="9.537081308662891">
        <ele>1666.27</ele>
        <time>2022-01-16T11:47:07Z</time>
      </trkpt>
      <trkpt lat="45.934591758996248" lon="9.536997573450208">
        <ele>1663.7</ele>
        <time>2022-01-16T11:47:18Z</time>
      </trkpt>
      <trkpt lat="45.934565272182226" lon="9.536917107179761">
        <ele>1662.4100000000001</ele>
        <time>2022-01-16T11:47:27Z</time>
      </trkpt>
      <trkpt lat="45.934543646872044" lon="9.536866564303637">
        <ele>1661.8399999999999</ele>
        <time>2022-01-16T11:47:34Z</time>
      </trkpt>
      <trkpt lat="45.934529397636652" lon="9.5367372315377">
        <ele>1660.52</ele>
        <time>2022-01-16T11:47:45Z</time>
      </trkpt>
      <trkpt lat="45.93452294357121" lon="9.536723149940372">
        <ele>1660.47</ele>
        <time>2022-01-16T11:47:46Z</time>
      </trkpt>
      <trkpt lat="45.934440549463034" lon="9.536490803584456">
        <ele>1658.6099999999999</ele>
        <time>2022-01-16T11:48:02Z</time>
      </trkpt>
      <trkpt lat="45.934379529207945" lon="9.536325680091977">
        <ele>1656.26</ele>
        <time>2022-01-16T11:48:14Z</time>
      </trkpt>
      <trkpt lat="45.934333680197597" lon="9.536167681217194">
        <ele>1654.3</ele>
        <time>2022-01-16T11:48:25Z</time>
      </trkpt>
      <trkpt lat="45.93431331217289" lon="9.536083359271288">
        <ele>1653.0799999999999</ele>
        <time>2022-01-16T11:48:31Z</time>
      </trkpt>
      <trkpt lat="45.934282215312123" lon="9.53603751026094">
        <ele>1652.4400000000001</ele>
        <time>2022-01-16T11:48:35Z</time>
      </trkpt>
      <trkpt lat="45.934238210320473" lon="9.535885462537408">
        <ele>1650.6600000000001</ele>
        <time>2022-01-16T11:48:46Z</time>
      </trkpt>
      <trkpt lat="45.934191104024649" lon="9.535705000162125">
        <ele>1649.6300000000001</ele>
        <time>2022-01-16T11:48:59Z</time>
      </trkpt>
      <trkpt lat="45.934146763756871" lon="9.53559092245996">
        <ele>1648.95</ele>
        <time>2022-01-16T11:49:08Z</time>
      </trkpt>
      <trkpt lat="45.934079540893435" lon="9.535431833937764">
        <ele>1649.02</ele>
        <time>2022-01-16T11:49:20Z</time>
      </trkpt>
      <trkpt lat="45.934003265574574" lon="9.535266878083348">
        <ele>1648.9200000000001</ele>
        <time>2022-01-16T11:49:32Z</time>
      </trkpt>
      <trkpt lat="45.933966971933842" lon="9.535136455669999">
        <ele>1649.77</ele>
        <time>2022-01-16T11:49:43Z</time>
      </trkpt>
      <trkpt lat="45.933939395472407" lon="9.535104604437947">
        <ele>1649.49</ele>
        <time>2022-01-16T11:49:47Z</time>
      </trkpt>
      <trkpt lat="45.933906454592943" lon="9.535034028813243">
        <ele>1649.8800000000001</ele>
        <time>2022-01-16T11:49:53Z</time>
      </trkpt>
      <trkpt lat="45.933839734643698" lon="9.534907378256321">
        <ele>1650.27</ele>
        <time>2022-01-16T11:50:04Z</time>
      </trkpt>
      <trkpt lat="45.933785252273083" lon="9.534782068803906">
        <ele>1650.27</ele>
        <time>2022-01-16T11:50:15Z</time>
      </trkpt>
      <trkpt lat="45.933703109622002" lon="9.534738482907414">
        <ele>1649.9000000000001</ele>
        <time>2022-01-16T11:50:23Z</time>
      </trkpt>
      <trkpt lat="45.933637311682105" lon="9.534624489024282">
        <ele>1649.6400000000001</ele>
        <time>2022-01-16T11:50:34Z</time>
      </trkpt>
      <trkpt lat="45.933579225093126" lon="9.534482583403587">
        <ele>1649.0699999999999</ele>
        <time>2022-01-16T11:50:45Z</time>
      </trkpt>
      <trkpt lat="45.933466907590628" lon="9.534279322251678">
        <ele>1648.26</ele>
        <time>2022-01-16T11:51:01Z</time>
      </trkpt>
      <trkpt lat="45.933387028053403" lon="9.534138506278396">
        <ele>1647.47</ele>
        <time>2022-01-16T11:51:13Z</time>
      </trkpt>
      <trkpt lat="45.933259958401322" lon="9.534015962854028">
        <ele>1647.9100000000001</ele>
        <time>2022-01-16T11:51:28Z</time>
      </trkpt>
      <trkpt lat="45.933247804641724" lon="9.534009927883744">
        <ele>1648.3099999999999</ele>
        <time>2022-01-16T11:51:39Z</time>
      </trkpt>
      <trkpt lat="45.933243194594979" lon="9.534007161855698">
        <ele>1647.8900000000001</ele>
        <time>2022-01-16T11:51:57Z</time>
      </trkpt>
      <trkpt lat="45.933236069977283" lon="9.533997941762209">
        <ele>1648.3299999999999</ele>
        <time>2022-01-16T11:52:10Z</time>
      </trkpt>
      <trkpt lat="45.933229615911841" lon="9.533996684476733">
        <ele>1648.0599999999999</ele>
        <time>2022-01-16T11:52:26Z</time>
      </trkpt>
      <trkpt lat="45.933228442445397" lon="9.534001462161541">
        <ele>1648.01</ele>
        <time>2022-01-16T11:52:40Z</time>
      </trkpt>
      <trkpt lat="45.933218887075782" lon="9.533987212926149">
        <ele>1648.04</ele>
        <time>2022-01-16T11:52:59Z</time>
      </trkpt>
      <trkpt lat="45.93321779742837" lon="9.533982938155532">
        <ele>1648.25</ele>
        <time>2022-01-16T11:53:13Z</time>
      </trkpt>
      <trkpt lat="45.933222156018019" lon="9.533980004489422">
        <ele>1648.53</ele>
        <time>2022-01-16T11:53:32Z</time>
      </trkpt>
      <trkpt lat="45.933235483244061" lon="9.533923678100109">
        <ele>1648.45</ele>
        <time>2022-01-16T11:53:43Z</time>
      </trkpt>
      <trkpt lat="45.933284936472774" lon="9.533778838813305">
        <ele>1646.9200000000001</ele>
        <time>2022-01-16T11:53:54Z</time>
      </trkpt>
      <trkpt lat="45.933294408023357" lon="9.533592173829675">
        <ele>1646.2</ele>
        <time>2022-01-16T11:54:06Z</time>
      </trkpt>
      <trkpt lat="45.933342268690467" lon="9.53342872671783">
        <ele>1643.99</ele>
        <time>2022-01-16T11:54:18Z</time>
      </trkpt>
      <trkpt lat="45.933383842930198" lon="9.533209959045053">
        <ele>1643.3199999999999</ele>
        <time>2022-01-16T11:54:35Z</time>
      </trkpt>
      <trkpt lat="45.933429691940546" lon="9.533102167770267">
        <ele>1642.96</ele>
        <time>2022-01-16T11:54:46Z</time>
      </trkpt>
      <trkpt lat="45.933474870398641" lon="9.532966883853078">
        <ele>1642.97</ele>
        <time>2022-01-16T11:54:59Z</time>
      </trkpt>
      <trkpt lat="45.933479899540544" lon="9.532958418130875">
        <ele>1642.9400000000001</ele>
        <time>2022-01-16T11:55:00Z</time>
      </trkpt>
      <trkpt lat="45.933527508750558" lon="9.532841825857759">
        <ele>1643.1199999999999</ele>
        <time>2022-01-16T11:55:11Z</time>
      </trkpt>
      <trkpt lat="45.93354863114655" lon="9.532686593011022">
        <ele>1642.3800000000001</ele>
        <time>2022-01-16T11:55:23Z</time>
      </trkpt>
      <trkpt lat="45.933552486822009" lon="9.532674942165613">
        <ele>1642.3299999999999</ele>
        <time>2022-01-16T11:55:24Z</time>
      </trkpt>
      <trkpt lat="45.933604789897799" lon="9.53256044536829">
        <ele>1642.5699999999999</ele>
        <time>2022-01-16T11:55:35Z</time>
      </trkpt>
      <trkpt lat="45.933674108237028" lon="9.532445194199681">
        <ele>1642.3599999999999</ele>
        <time>2022-01-16T11:55:48Z</time>
      </trkpt>
      <trkpt lat="45.933725908398628" lon="9.532329859212041">
        <ele>1642.5</ele>
        <time>2022-01-16T11:55:59Z</time>
      </trkpt>
      <trkpt lat="45.933788269758224" lon="9.532217541709542">
        <ele>1642.54</ele>
        <time>2022-01-16T11:56:11Z</time>
      </trkpt>
      <trkpt lat="45.933843674138188" lon="9.53220865689218">
        <ele>1642.9000000000001</ele>
        <time>2022-01-16T11:56:20Z</time>
      </trkpt>
      <trkpt lat="45.933904191479087" lon="9.532109498977661">
        <ele>1643.7</ele>
        <time>2022-01-16T11:56:31Z</time>
      </trkpt>
      <trkpt lat="45.933955321088433" lon="9.532024338841438">
        <ele>1644.45</ele>
        <time>2022-01-16T11:56:41Z</time>
      </trkpt>
      <trkpt lat="45.93399622477591" lon="9.53188712708652">
        <ele>1644.1500000000001</ele>
        <time>2022-01-16T11:56:53Z</time>
      </trkpt>
      <trkpt lat="45.934009300544858" lon="9.531745808199048">
        <ele>1644.0699999999999</ele>
        <time>2022-01-16T11:57:05Z</time>
      </trkpt>
      <trkpt lat="45.934012904763222" lon="9.531651008874178">
        <ele>1643.76</ele>
        <time>2022-01-16T11:57:13Z</time>
      </trkpt>
      <trkpt lat="45.933960601687431" lon="9.531518993899226">
        <ele>1643.8699999999999</ele>
        <time>2022-01-16T11:57:24Z</time>
      </trkpt>
      <trkpt lat="45.933956746011972" lon="9.531508097425103">
        <ele>1643.9100000000001</ele>
        <time>2022-01-16T11:57:25Z</time>
      </trkpt>
      <trkpt lat="45.933953309431672" lon="9.531481275334954">
        <ele>1643.8599999999999</ele>
        <time>2022-01-16T11:57:27Z</time>
      </trkpt>
      <trkpt lat="45.933938976377249" lon="9.531408604234457">
        <ele>1643.76</ele>
        <time>2022-01-16T11:57:38Z</time>
      </trkpt>
      <trkpt lat="45.933949621394277" lon="9.53139703720808">
        <ele>1643.73</ele>
        <time>2022-01-16T11:58:00Z</time>
      </trkpt>
      <trkpt lat="45.933953896164894" lon="9.531308943405747">
        <ele>1644.1400000000001</ele>
        <time>2022-01-16T11:58:09Z</time>
      </trkpt>
      <trkpt lat="45.933960350230336" lon="9.531272063031793">
        <ele>1644.3399999999999</ele>
        <time>2022-01-16T11:58:12Z</time>
      </trkpt>
      <trkpt lat="45.933983735740185" lon="9.531154716387391">
        <ele>1644.1099999999999</ele>
        <time>2022-01-16T11:58:23Z</time>
      </trkpt>
      <trkpt lat="45.9339898545295" lon="9.531137701123953">
        <ele>1644.1800000000001</ele>
        <time>2022-01-16T11:58:35Z</time>
      </trkpt>
      <trkpt lat="45.93401868827641" lon="9.531090678647161">
        <ele>1643.55</ele>
        <time>2022-01-16T11:58:48Z</time>
      </trkpt>
      <trkpt lat="45.934053808450699" lon="9.53105840831995">
        <ele>1643.79</ele>
        <time>2022-01-16T11:59:00Z</time>
      </trkpt>
      <trkpt lat="45.934089012444019" lon="9.53100711107254">
        <ele>1643.8299999999999</ele>
        <time>2022-01-16T11:59:12Z</time>
      </trkpt>
      <trkpt lat="45.934092616662383" lon="9.531011553481221">
        <ele>1643.5699999999999</ele>
        <time>2022-01-16T11:59:37Z</time>
      </trkpt>
      <trkpt lat="45.934096639975905" lon="9.531015325337648">
        <ele>1644.24</ele>
        <time>2022-01-16T11:59:42Z</time>
      </trkpt>
      <trkpt lat="45.934095969423652" lon="9.531014235690236">
        <ele>1642.9100000000001</ele>
        <time>2022-01-16T11:59:48Z</time>
      </trkpt>
      <trkpt lat="45.93410518951714" lon="9.531022366136313">
        <ele>1642.9400000000001</ele>
        <time>2022-01-16T12:00:10Z</time>
      </trkpt>
      <trkpt lat="45.934106782078743" lon="9.531029490754008">
        <ele>1643.25</ele>
        <time>2022-01-16T12:00:34Z</time>
      </trkpt>
      <trkpt lat="45.934093706309795" lon="9.531028736382723">
        <ele>1643.21</ele>
        <time>2022-01-16T12:00:56Z</time>
      </trkpt>
      <trkpt lat="45.934081049636006" lon="9.531017756089568">
        <ele>1643.1300000000001</ele>
        <time>2022-01-16T12:01:27Z</time>
      </trkpt>
      <trkpt lat="45.934089012444019" lon="9.531019516289234">
        <ele>1643.8399999999999</ele>
        <time>2022-01-16T12:02:04Z</time>
      </trkpt>
      <trkpt lat="45.934098483994603" lon="9.531019348651171">
        <ele>1643.1099999999999</ele>
        <time>2022-01-16T12:02:50Z</time>
      </trkpt>
      <trkpt lat="45.934116002172232" lon="9.531018510460854">
        <ele>1642.98</ele>
        <time>2022-01-16T12:03:12Z</time>
      </trkpt>
      <trkpt lat="45.934127485379577" lon="9.531021527945995">
        <ele>1643.1199999999999</ele>
        <time>2022-01-16T12:03:37Z</time>
      </trkpt>
      <trkpt lat="45.934114241972566" lon="9.531018594279885">
        <ele>1642.8299999999999</ele>
        <time>2022-01-16T12:04:01Z</time>
      </trkpt>
      <trkpt lat="45.934105692431331" lon="9.531015241518617">
        <ele>1643</ele>
        <time>2022-01-16T12:04:27Z</time>
      </trkpt>
      <trkpt lat="45.934097142890096" lon="9.53100124374032">
        <ele>1642.5599999999999</ele>
        <time>2022-01-16T12:04:53Z</time>
      </trkpt>
      <trkpt lat="45.934079876169562" lon="9.531013565137982">
        <ele>1643.1400000000001</ele>
        <time>2022-01-16T12:05:18Z</time>
      </trkpt>
      <trkpt lat="45.934088928624988" lon="9.531021695584059">
        <ele>1642.6700000000001</ele>
        <time>2022-01-16T12:05:44Z</time>
      </trkpt>
      <trkpt lat="45.934090185910463" lon="9.531032172963023">
        <ele>1642.74</ele>
        <time>2022-01-16T12:06:10Z</time>
      </trkpt>
      <trkpt lat="45.934103848412633" lon="9.531034603714943">
        <ele>1642.8399999999999</ele>
        <time>2022-01-16T12:06:36Z</time>
      </trkpt>
      <trkpt lat="45.934105105698109" lon="9.53103887848556">
        <ele>1642.7</ele>
        <time>2022-01-16T12:07:02Z</time>
      </trkpt>
      <trkpt lat="45.934099657461047" lon="9.531037705019116">
        <ele>1642.4200000000001</ele>
        <time>2022-01-16T12:07:26Z</time>
      </trkpt>
      <trkpt lat="45.934109129011631" lon="9.5310178399086">
        <ele>1642.4400000000001</ele>
        <time>2022-01-16T12:07:49Z</time>
      </trkpt>
      <trkpt lat="45.93411105684936" lon="9.531022869050503">
        <ele>1642.3199999999999</ele>
        <time>2022-01-16T12:08:13Z</time>
      </trkpt>
      <trkpt lat="45.934125557541847" lon="9.531041057780385">
        <ele>1642.3199999999999</ele>
        <time>2022-01-16T12:08:38Z</time>
      </trkpt>
      <trkpt lat="45.934085911139846" lon="9.531032843515277">
        <ele>1642.52</ele>
        <time>2022-01-16T12:09:06Z</time>
      </trkpt>
      <trkpt lat="45.934089850634336" lon="9.531037788838148">
        <ele>1642.8399999999999</ele>
        <time>2022-01-16T12:09:28Z</time>
      </trkpt>
      <trkpt lat="45.934094963595271" lon="9.531032843515277">
        <ele>1642.1099999999999</ele>
        <time>2022-01-16T12:09:53Z</time>
      </trkpt>
      <trkpt lat="45.934108207002282" lon="9.531033346429467">
        <ele>1642.5599999999999</ele>
        <time>2022-01-16T12:10:04Z</time>
      </trkpt>
      <trkpt lat="45.934111475944519" lon="9.531038710847497">
        <ele>1642.6400000000001</ele>
        <time>2022-01-16T12:10:26Z</time>
      </trkpt>
      <trkpt lat="45.934100830927491" lon="9.531040135771036">
        <ele>1642.8900000000001</ele>
        <time>2022-01-16T12:10:42Z</time>
      </trkpt>
      <trkpt lat="45.934103596955538" lon="9.531025970354676">
        <ele>1642.9200000000001</ele>
        <time>2022-01-16T12:11:29Z</time>
      </trkpt>
      <trkpt lat="45.934100663289428" lon="9.531027814373374">
        <ele>1642.76</ele>
        <time>2022-01-16T12:12:06Z</time>
      </trkpt>
      <trkpt lat="45.934092197567225" lon="9.531022952869535">
        <ele>1642.8099999999999</ele>
        <time>2022-01-16T12:12:34Z</time>
      </trkpt>
      <trkpt lat="45.934097981080413" lon="9.531032424420118">
        <ele>1642.51</ele>
        <time>2022-01-16T12:13:23Z</time>
      </trkpt>
      <trkpt lat="45.934094963595271" lon="9.531027562916279">
        <ele>1642.54</ele>
        <time>2022-01-16T12:14:20Z</time>
      </trkpt>
      <trkpt lat="45.934091527014971" lon="9.531032927334309">
        <ele>1641.9100000000001</ele>
        <time>2022-01-16T12:15:08Z</time>
      </trkpt>
      <trkpt lat="45.934095969423652" lon="9.531022030860186">
        <ele>1641.99</ele>
        <time>2022-01-16T12:15:33Z</time>
      </trkpt>
      <trkpt lat="45.934100076556206" lon="9.531033094972372">
        <ele>1641.76</ele>
        <time>2022-01-16T12:16:11Z</time>
      </trkpt>
      <trkpt lat="45.934112230315804" lon="9.531035861000419">
        <ele>1641.6900000000001</ele>
        <time>2022-01-16T12:16:40Z</time>
      </trkpt>
      <trkpt lat="45.934107955545187" lon="9.53102907165885">
        <ele>1641.9100000000001</ele>
        <time>2022-01-16T12:17:02Z</time>
      </trkpt>
      <trkpt lat="45.93410812318325" lon="9.531028736382723">
        <ele>1641.75</ele>
        <time>2022-01-16T12:17:25Z</time>
      </trkpt>
      <trkpt lat="45.934110637754202" lon="9.53104130923748">
        <ele>1641.95</ele>
        <time>2022-01-16T12:17:52Z</time>
      </trkpt>
      <trkpt lat="45.934096975252032" lon="9.531027060002089">
        <ele>1641.8299999999999</ele>
        <time>2022-01-16T12:18:19Z</time>
      </trkpt>
      <trkpt lat="45.934094293043017" lon="9.531032089143992">
        <ele>1641.5699999999999</ele>
        <time>2022-01-16T12:18:46Z</time>
      </trkpt>
      <trkpt lat="45.934106782078743" lon="9.531023036688566">
        <ele>1641.5599999999999</ele>
        <time>2022-01-16T12:19:20Z</time>
      </trkpt>
      <trkpt lat="45.934111978858709" lon="9.531029323115945">
        <ele>1641.5699999999999</ele>
        <time>2022-01-16T12:19:56Z</time>
      </trkpt>
      <trkpt lat="45.934108374640346" lon="9.531030245125294">
        <ele>1641.3599999999999</ele>
        <time>2022-01-16T12:20:20Z</time>
      </trkpt>
      <trkpt lat="45.934091778472066" lon="9.531028484925628">
        <ele>1641.4000000000001</ele>
        <time>2022-01-16T12:20:43Z</time>
      </trkpt>
      <trkpt lat="45.934090856462717" lon="9.531019600108266">
        <ele>1641.0699999999999</ele>
        <time>2022-01-16T12:21:06Z</time>
      </trkpt>
      <trkpt lat="45.934106111526489" lon="9.531005267053843">
        <ele>1640.6099999999999</ele>
        <time>2022-01-16T12:21:29Z</time>
      </trkpt>
      <trkpt lat="45.934092868119478" lon="9.531014654785395">
        <ele>1640.76</ele>
        <time>2022-01-16T12:21:51Z</time>
      </trkpt>
      <trkpt lat="45.934092616662383" lon="9.531031167134643">
        <ele>1640.8800000000001</ele>
        <time>2022-01-16T12:22:14Z</time>
      </trkpt>
      <trkpt lat="45.934091862291098" lon="9.531038710847497">
        <ele>1640.6800000000001</ele>
        <time>2022-01-16T12:22:37Z</time>
      </trkpt>
      <trkpt lat="45.934098735451698" lon="9.531016834080219">
        <ele>1640.7</ele>
        <time>2022-01-16T12:23:03Z</time>
      </trkpt>
      <trkpt lat="45.934102507308125" lon="9.531020857393742">
        <ele>1640.76</ele>
        <time>2022-01-16T12:23:27Z</time>
      </trkpt>
      <trkpt lat="45.93410711735487" lon="9.531048685312271">
        <ele>1640.6900000000001</ele>
        <time>2022-01-16T12:23:54Z</time>
      </trkpt>
      <trkpt lat="45.934092700481415" lon="9.531037956476212">
        <ele>1640.5599999999999</ele>
        <time>2022-01-16T12:24:18Z</time>
      </trkpt>
      <trkpt lat="45.934090688824654" lon="9.531042147427797">
        <ele>1640.3399999999999</ele>
        <time>2022-01-16T12:24:42Z</time>
      </trkpt>
      <trkpt lat="45.934122623875737" lon="9.531031250953674">
        <ele>1640.1099999999999</ele>
        <time>2022-01-16T12:25:08Z</time>
      </trkpt>
      <trkpt lat="45.934129664674401" lon="9.531043153256178">
        <ele>1640.25</ele>
        <time>2022-01-16T12:25:36Z</time>
      </trkpt>
      <trkpt lat="45.934132430702448" lon="9.531044159084559">
        <ele>1640.28</ele>
        <time>2022-01-16T12:26:05Z</time>
      </trkpt>
      <trkpt lat="45.934134945273399" lon="9.531032256782055">
        <ele>1640.1099999999999</ele>
        <time>2022-01-16T12:26:29Z</time>
      </trkpt>
      <trkpt lat="45.934120276942849" lon="9.531044075265527">
        <ele>1640.0699999999999</ele>
        <time>2022-01-16T12:26:55Z</time>
      </trkpt>
      <trkpt lat="45.934107201173902" lon="9.531051954254508">
        <ele>1640.1500000000001</ele>
        <time>2022-01-16T12:27:17Z</time>
      </trkpt>
      <trkpt lat="45.934109799563885" lon="9.531037285923958">
        <ele>1640.0599999999999</ele>
        <time>2022-01-16T12:27:45Z</time>
      </trkpt>
      <trkpt lat="45.934115080162883" lon="9.531026305630803">
        <ele>1640.1700000000001</ele>
        <time>2022-01-16T12:28:11Z</time>
      </trkpt>
      <trkpt lat="45.934112314134836" lon="9.531035106629133">
        <ele>1640.29</ele>
        <time>2022-01-16T12:28:38Z</time>
      </trkpt>
      <trkpt lat="45.934113739058375" lon="9.531033514067531">
        <ele>1639.8199999999999</ele>
        <time>2022-01-16T12:29:03Z</time>
      </trkpt>
      <trkpt lat="45.934117678552866" lon="9.531029909849167">
        <ele>1639.96</ele>
        <time>2022-01-16T12:29:30Z</time>
      </trkpt>
      <trkpt lat="45.93412664718926" lon="9.531031837686896">
        <ele>1640.02</ele>
        <time>2022-01-16T12:29:54Z</time>
      </trkpt>
      <trkpt lat="45.9341159183532" lon="9.531027479097247">
        <ele>1640.1199999999999</ele>
        <time>2022-01-16T12:30:18Z</time>
      </trkpt>
      <trkpt lat="45.934115666896105" lon="9.531043069437146">
        <ele>1640.1199999999999</ele>
        <time>2022-01-16T12:30:44Z</time>
      </trkpt>
      <trkpt lat="45.934124467894435" lon="9.531018594279885">
        <ele>1640.0699999999999</ele>
        <time>2022-01-16T12:31:14Z</time>
      </trkpt>
      <trkpt lat="45.934106279164553" lon="9.531033514067531">
        <ele>1639.9200000000001</ele>
        <time>2022-01-16T12:31:37Z</time>
      </trkpt>
      <trkpt lat="45.934127317741513" lon="9.531041225418448">
        <ele>1640.1099999999999</ele>
        <time>2022-01-16T12:31:58Z</time>
      </trkpt>
      <trkpt lat="45.934125725179911" lon="9.531022282317281">
        <ele>1640.1900000000001</ele>
        <time>2022-01-16T12:32:21Z</time>
      </trkpt>
      <trkpt lat="45.934116924181581" lon="9.531039297580719">
        <ele>1639.9400000000001</ele>
        <time>2022-01-16T12:32:44Z</time>
      </trkpt>
      <trkpt lat="45.934124886989594" lon="9.531034771353006">
        <ele>1640.04</ele>
        <time>2022-01-16T12:33:06Z</time>
      </trkpt>
      <trkpt lat="45.934114325791597" lon="9.531041560694575">
        <ele>1640.1700000000001</ele>
        <time>2022-01-16T12:33:29Z</time>
      </trkpt>
      <trkpt lat="45.934105524793267" lon="9.531036615371704">
        <ele>1640.24</ele>
        <time>2022-01-16T12:34:02Z</time>
      </trkpt>
      <trkpt lat="45.93410812318325" lon="9.531036699190736">
        <ele>1639.5899999999999</ele>
        <time>2022-01-16T12:34:48Z</time>
      </trkpt>
      <trkpt lat="45.93410954810679" lon="9.531049272045493">
        <ele>1639.8499999999999</ele>
        <time>2022-01-16T12:35:35Z</time>
      </trkpt>
      <trkpt lat="45.934114996343851" lon="9.531039297580719">
        <ele>1639.6900000000001</ele>
        <time>2022-01-16T12:36:21Z</time>
      </trkpt>
      <trkpt lat="45.934123042970896" lon="9.531035861000419">
        <ele>1639.7</ele>
        <time>2022-01-16T12:37:08Z</time>
      </trkpt>
      <trkpt lat="45.934127569198608" lon="9.531030915677548">
        <ele>1639.6099999999999</ele>
        <time>2022-01-16T12:37:49Z</time>
      </trkpt>
      <trkpt lat="45.934127401560545" lon="9.531030831858516">
        <ele>1639.3599999999999</ele>
        <time>2022-01-16T12:38:14Z</time>
      </trkpt>
      <trkpt lat="45.934113403782248" lon="9.531045081093907">
        <ele>1639.29</ele>
        <time>2022-01-16T12:38:38Z</time>
      </trkpt>
      <trkpt lat="45.934112062677741" lon="9.531051786616445">
        <ele>1639.48</ele>
        <time>2022-01-16T12:39:03Z</time>
      </trkpt>
      <trkpt lat="45.934120025485754" lon="9.531047679483891">
        <ele>1639.4300000000001</ele>
        <time>2022-01-16T12:39:48Z</time>
      </trkpt>
      <trkpt lat="45.934115080162883" lon="9.531037118285894">
        <ele>1639.24</ele>
        <time>2022-01-16T12:40:33Z</time>
      </trkpt>
      <trkpt lat="45.9341193549335" lon="9.531030915677548">
        <ele>1639.3699999999999</ele>
        <time>2022-01-16T12:41:22Z</time>
      </trkpt>
      <trkpt lat="45.934111895039678" lon="9.531036028638482">
        <ele>1639.1400000000001</ele>
        <time>2022-01-16T12:42:07Z</time>
      </trkpt>
      <trkpt lat="45.934104518964887" lon="9.531040638685226">
        <ele>1639.0899999999999</ele>
        <time>2022-01-16T12:42:36Z</time>
      </trkpt>
      <trkpt lat="45.934109129011631" lon="9.531026976183057">
        <ele>1639.02</ele>
        <time>2022-01-16T12:43:27Z</time>
      </trkpt>
      <trkpt lat="45.93410812318325" lon="9.531018761917949">
        <ele>1639.0599999999999</ele>
        <time>2022-01-16T12:43:51Z</time>
      </trkpt>
      <trkpt lat="45.934107704088092" lon="9.531038794666529">
        <ele>1639.1099999999999</ele>
        <time>2022-01-16T12:44:19Z</time>
      </trkpt>
      <trkpt lat="45.934109464287758" lon="9.531044326722622">
        <ele>1638.9100000000001</ele>
        <time>2022-01-16T12:45:02Z</time>
      </trkpt>
      <trkpt lat="45.934104016050696" lon="9.531051283702254">
        <ele>1638.8099999999999</ele>
        <time>2022-01-16T12:45:54Z</time>
      </trkpt>
      <trkpt lat="45.934104518964887" lon="9.531053965911269">
        <ele>1638.4300000000001</ele>
        <time>2022-01-16T12:46:18Z</time>
      </trkpt>
      <trkpt lat="45.934109212830663" lon="9.531051786616445">
        <ele>1638.5999999999999</ele>
        <time>2022-01-16T12:46:43Z</time>
      </trkpt>
      <trkpt lat="45.934110637754202" lon="9.531045584008098">
        <ele>1638.6600000000001</ele>
        <time>2022-01-16T12:47:32Z</time>
      </trkpt>
      <trkpt lat="45.934106698259711" lon="9.53103736974299">
        <ele>1638.8399999999999</ele>
        <time>2022-01-16T12:48:23Z</time>
      </trkpt>
      <trkpt lat="45.934098400175571" lon="9.531039465218782">
        <ele>1638.79</ele>
        <time>2022-01-16T12:49:09Z</time>
      </trkpt>
      <trkpt lat="45.934099741280079" lon="9.531038962304592">
        <ele>1638.25</ele>
        <time>2022-01-16T12:50:02Z</time>
      </trkpt>
      <trkpt lat="45.9340934548527" lon="9.531051451340318">
        <ele>1638.02</ele>
        <time>2022-01-16T12:50:46Z</time>
      </trkpt>
      <trkpt lat="45.934088341891766" lon="9.531051283702254">
        <ele>1632.8299999999999</ele>
        <time>2022-01-16T12:51:03Z</time>
      </trkpt>
      <trkpt lat="45.934089180082083" lon="9.531050445511937">
        <ele>1632.8299999999999</ele>
        <time>2022-01-16T12:51:04Z</time>
      </trkpt>
      <trkpt lat="45.934090437367558" lon="9.531050780788064">
        <ele>1636.54</ele>
        <time>2022-01-16T12:51:06Z</time>
      </trkpt>
      <trkpt lat="45.934094041585922" lon="9.531051535159349">
        <ele>1637.52</ele>
        <time>2022-01-16T12:51:08Z</time>
      </trkpt>
      <trkpt lat="45.934089012444019" lon="9.531048517674208">
        <ele>1637.9400000000001</ele>
        <time>2022-01-16T12:51:31Z</time>
      </trkpt>
      <trkpt lat="45.934089431539178" lon="9.531039213761687">
        <ele>1637.8</ele>
        <time>2022-01-16T12:52:10Z</time>
      </trkpt>
      <trkpt lat="45.934097394347191" lon="9.531030161306262">
        <ele>1637.4300000000001</ele>
        <time>2022-01-16T12:52:59Z</time>
      </trkpt>
      <trkpt lat="45.934089263901114" lon="9.531047763302922">
        <ele>1637.48</ele>
        <time>2022-01-16T12:53:48Z</time>
      </trkpt>
      <trkpt lat="45.93409244902432" lon="9.531044326722622">
        <ele>1637.54</ele>
        <time>2022-01-16T12:54:46Z</time>
      </trkpt>
      <trkpt lat="45.934089766815305" lon="9.53103787265718">
        <ele>1637.6400000000001</ele>
        <time>2022-01-16T12:55:46Z</time>
      </trkpt>
      <trkpt lat="45.934088509529829" lon="9.531041895970702">
        <ele>1637.5599999999999</ele>
        <time>2022-01-16T12:56:11Z</time>
      </trkpt>
      <trkpt lat="45.934084067121148" lon="9.53106326982379">
        <ele>1637.74</ele>
        <time>2022-01-16T12:56:25Z</time>
      </trkpt>
      <trkpt lat="45.934077780693769" lon="9.531062515452504">
        <ele>1637.7</ele>
        <time>2022-01-16T12:57:18Z</time>
      </trkpt>
      <trkpt lat="45.934083564206958" lon="9.531055055558682">
        <ele>1638.3</ele>
        <time>2022-01-16T12:58:10Z</time>
      </trkpt>
      <trkpt lat="45.934089347720146" lon="9.531049691140652">
        <ele>1647.46</ele>
        <time>2022-01-16T12:58:35Z</time>
      </trkpt>
      <trkpt lat="45.934090688824654" lon="9.531048098579049">
        <ele>1644.5899999999999</ele>
        <time>2022-01-16T12:58:36Z</time>
      </trkpt>
      <trkpt lat="45.93409244902432" lon="9.531047763302922">
        <ele>1641.0799999999999</ele>
        <time>2022-01-16T12:58:37Z</time>
      </trkpt>
      <trkpt lat="45.934093873947859" lon="9.531049942597747">
        <ele>1638.6600000000001</ele>
        <time>2022-01-16T12:58:40Z</time>
      </trkpt>
      <trkpt lat="45.93409881927073" lon="9.531057821586728">
        <ele>1637.8699999999999</ele>
        <time>2022-01-16T12:59:06Z</time>
      </trkpt>
      <trkpt lat="45.934107033535838" lon="9.531066538766027">
        <ele>1637.98</ele>
        <time>2022-01-16T12:59:31Z</time>
      </trkpt>
      <trkpt lat="45.934119103476405" lon="9.531056061387062">
        <ele>1637.96</ele>
        <time>2022-01-16T13:00:02Z</time>
      </trkpt>
      <trkpt lat="45.934124048799276" lon="9.531048852950335">
        <ele>1638.6400000000001</ele>
        <time>2022-01-16T13:00:37Z</time>
      </trkpt>
      <trkpt lat="45.934130251407623" lon="9.531039465218782">
        <ele>1638.24</ele>
        <time>2022-01-16T13:01:02Z</time>
      </trkpt>
      <trkpt lat="45.934106195345521" lon="9.531043572351337">
        <ele>1634.3499999999999</ele>
        <time>2022-01-16T13:01:54Z</time>
      </trkpt>
      <trkpt lat="45.934105357155204" lon="9.531043572351337">
        <ele>1642.01</ele>
        <time>2022-01-16T13:01:56Z</time>
      </trkpt>
      <trkpt lat="45.934107452630997" lon="9.531042817980051">
        <ele>1638.8900000000001</ele>
        <time>2022-01-16T13:01:59Z</time>
      </trkpt>
      <trkpt lat="45.934114409610629" lon="9.531042147427797">
        <ele>1634.23</ele>
        <time>2022-01-16T13:02:18Z</time>
      </trkpt>
      <trkpt lat="45.934114661067724" lon="9.531042650341988">
        <ele>1640.45</ele>
        <time>2022-01-16T13:02:19Z</time>
      </trkpt>
      <trkpt lat="45.934115750715137" lon="9.531043404713273">
        <ele>1638.0899999999999</ele>
        <time>2022-01-16T13:02:22Z</time>
      </trkpt>
      <trkpt lat="45.934117846190929" lon="9.531042734161019">
        <ele>1641.95</ele>
        <time>2022-01-16T13:02:25Z</time>
      </trkpt>
      <trkpt lat="45.934117846190929" lon="9.531041812151671">
        <ele>1640.29</ele>
        <time>2022-01-16T13:02:26Z</time>
      </trkpt>
      <trkpt lat="45.934116169810295" lon="9.531047344207764">
        <ele>1638.5999999999999</ele>
        <time>2022-01-16T13:02:43Z</time>
      </trkpt>
      <trkpt lat="45.93411834910512" lon="9.531063186004758">
        <ele>1638.8499999999999</ele>
        <time>2022-01-16T13:03:33Z</time>
      </trkpt>
      <trkpt lat="45.934117427095771" lon="9.531064359471202">
        <ele>1638.74</ele>
        <time>2022-01-16T13:04:29Z</time>
      </trkpt>
      <trkpt lat="45.934121031314135" lon="9.531061677262187">
        <ele>1638.9100000000001</ele>
        <time>2022-01-16T13:05:27Z</time>
      </trkpt>
      <trkpt lat="45.934117343276739" lon="9.531088415533304">
        <ele>1638.95</ele>
        <time>2022-01-16T13:06:29Z</time>
      </trkpt>
      <trkpt lat="45.934126479551196" lon="9.53110677190125">
        <ele>1639.3499999999999</ele>
        <time>2022-01-16T13:07:27Z</time>
      </trkpt>
      <trkpt lat="45.934123126789927" lon="9.531090594828129">
        <ele>1639.51</ele>
        <time>2022-01-16T13:08:25Z</time>
      </trkpt>
      <trkpt lat="45.934117930009961" lon="9.531090846285224">
        <ele>1640.0999999999999</ele>
        <time>2022-01-16T13:09:11Z</time>
      </trkpt>
      <trkpt lat="45.934110637754202" lon="9.531098222360015">
        <ele>1639.8800000000001</ele>
        <time>2022-01-16T13:10:04Z</time>
      </trkpt>
      <trkpt lat="45.934121031314135" lon="9.531082380563021">
        <ele>1640.2</ele>
        <time>2022-01-16T13:10:57Z</time>
      </trkpt>
      <trkpt lat="45.934120444580913" lon="9.531076932325959">
        <ele>1639.98</ele>
        <time>2022-01-16T13:11:46Z</time>
      </trkpt>
      <trkpt lat="45.934114241972566" lon="9.531077854335308">
        <ele>1640.21</ele>
        <time>2022-01-16T13:12:50Z</time>
      </trkpt>
      <trkpt lat="45.934113403782248" lon="9.53110191039741">
        <ele>1640.49</ele>
        <time>2022-01-16T13:13:46Z</time>
      </trkpt>
      <trkpt lat="45.93411298468709" lon="9.531089505180717">
        <ele>1640.5599999999999</ele>
        <time>2022-01-16T13:14:38Z</time>
      </trkpt>
      <trkpt lat="45.934113319963217" lon="9.531080285087228">
        <ele>1640.6500000000001</ele>
        <time>2022-01-16T13:15:25Z</time>
      </trkpt>
      <trkpt lat="45.934113403782248" lon="9.53107550740242">
        <ele>1641.28</ele>
        <time>2022-01-16T13:16:14Z</time>
      </trkpt>
      <trkpt lat="45.934116924181581" lon="9.531070478260517">
        <ele>1641</ele>
        <time>2022-01-16T13:17:07Z</time>
      </trkpt>
      <trkpt lat="45.934117427095771" lon="9.531058575958014">
        <ele>1641.6099999999999</ele>
        <time>2022-01-16T13:17:55Z</time>
      </trkpt>
      <trkpt lat="45.934121534228325" lon="9.531051786616445">
        <ele>1641.3699999999999</ele>
        <time>2022-01-16T13:18:42Z</time>
      </trkpt>
      <trkpt lat="45.934119606390595" lon="9.53106134198606">
        <ele>1641.8099999999999</ele>
        <time>2022-01-16T13:19:27Z</time>
      </trkpt>
      <trkpt lat="45.934123294427991" lon="9.531053211539984">
        <ele>1641.72</ele>
        <time>2022-01-16T13:20:18Z</time>
      </trkpt>
      <trkpt lat="45.934112900868058" lon="9.531045919284225">
        <ele>1641.8199999999999</ele>
        <time>2022-01-16T13:21:13Z</time>
      </trkpt>
      <trkpt lat="45.934109715744853" lon="9.531050864607096">
        <ele>1641.8399999999999</ele>
        <time>2022-01-16T13:22:06Z</time>
      </trkpt>
      <trkpt lat="45.934119690209627" lon="9.531054720282555">
        <ele>1642.3399999999999</ele>
        <time>2022-01-16T13:23:04Z</time>
      </trkpt>
      <trkpt lat="45.934121115133166" lon="9.531048266217113">
        <ele>1642.1900000000001</ele>
        <time>2022-01-16T13:23:59Z</time>
      </trkpt>
      <trkpt lat="45.934113739058375" lon="9.53105497173965">
        <ele>1642.55</ele>
        <time>2022-01-16T13:24:50Z</time>
      </trkpt>
      <trkpt lat="45.934121953323483" lon="9.531053546816111">
        <ele>1642.76</ele>
        <time>2022-01-16T13:25:42Z</time>
      </trkpt>
      <trkpt lat="45.934115583077073" lon="9.531051032245159">
        <ele>1642.4400000000001</ele>
        <time>2022-01-16T13:26:32Z</time>
      </trkpt>
      <trkpt lat="45.934115080162883" lon="9.53105790540576">
        <ele>1642.24</ele>
        <time>2022-01-16T13:27:27Z</time>
      </trkpt>
      <trkpt lat="45.934114996343851" lon="9.531046925112605">
        <ele>1642.25</ele>
        <time>2022-01-16T13:28:20Z</time>
      </trkpt>
      <trkpt lat="45.934123378247023" lon="9.531036280095577">
        <ele>1642</ele>
        <time>2022-01-16T13:29:16Z</time>
      </trkpt>
      <trkpt lat="45.934123797342181" lon="9.531040471047163">
        <ele>1641.99</ele>
        <time>2022-01-16T13:30:06Z</time>
      </trkpt>
      <trkpt lat="45.934124970808625" lon="9.531043572351337">
        <ele>1642.1600000000001</ele>
        <time>2022-01-16T13:30:52Z</time>
      </trkpt>
      <trkpt lat="45.934117594733834" lon="9.531066454946995">
        <ele>1641.8900000000001</ele>
        <time>2022-01-16T13:31:36Z</time>
      </trkpt>
      <trkpt lat="45.934125054627657" lon="9.53106083907187">
        <ele>1642.0899999999999</ele>
        <time>2022-01-16T13:32:20Z</time>
      </trkpt>
      <trkpt lat="45.934119019657373" lon="9.531071064993739">
        <ele>1642.04</ele>
        <time>2022-01-16T13:33:11Z</time>
      </trkpt>
      <trkpt lat="45.934120696038008" lon="9.531081123277545">
        <ele>1641.8199999999999</ele>
        <time>2022-01-16T13:33:58Z</time>
      </trkpt>
      <trkpt lat="45.934107284992933" lon="9.531074166297913">
        <ele>1641.5799999999999</ele>
        <time>2022-01-16T13:34:43Z</time>
      </trkpt>
      <trkpt lat="45.934099992737174" lon="9.531044578179717">
        <ele>1641.52</ele>
        <time>2022-01-16T13:35:30Z</time>
      </trkpt>
      <trkpt lat="45.934109296649694" lon="9.531043572351337">
        <ele>1641.8099999999999</ele>
        <time>2022-01-16T13:36:10Z</time>
      </trkpt>
      <trkpt lat="45.934110805392265" lon="9.531056145206094">
        <ele>1641.8</ele>
        <time>2022-01-16T13:36:56Z</time>
      </trkpt>
      <trkpt lat="45.934108207002282" lon="9.531050194054842">
        <ele>1641.6300000000001</ele>
        <time>2022-01-16T13:37:38Z</time>
      </trkpt>
      <trkpt lat="45.934108374640346" lon="9.531057570129633">
        <ele>1641.9100000000001</ele>
        <time>2022-01-16T13:38:18Z</time>
      </trkpt>
      <trkpt lat="45.934107871726155" lon="9.531063856557012">
        <ele>1641.8199999999999</ele>
        <time>2022-01-16T13:39:02Z</time>
      </trkpt>
      <trkpt lat="45.934110302478075" lon="9.531054887920618">
        <ele>1641.79</ele>
        <time>2022-01-16T13:39:50Z</time>
      </trkpt>
      <trkpt lat="45.934107704088092" lon="9.531062180176377">
        <ele>1641.6199999999999</ele>
        <time>2022-01-16T13:40:30Z</time>
      </trkpt>
      <trkpt lat="45.93411055393517" lon="9.531066874042153">
        <ele>1641.3399999999999</ele>
        <time>2022-01-16T13:41:08Z</time>
      </trkpt>
      <trkpt lat="45.93411005102098" lon="9.53106083907187">
        <ele>1641.74</ele>
        <time>2022-01-16T13:41:49Z</time>
      </trkpt>
      <trkpt lat="45.934105860069394" lon="9.53104667365551">
        <ele>1642.3</ele>
        <time>2022-01-16T13:42:27Z</time>
      </trkpt>
      <trkpt lat="45.934108458459377" lon="9.531046757474542">
        <ele>1641.6900000000001</ele>
        <time>2022-01-16T13:43:11Z</time>
      </trkpt>
      <trkpt lat="45.934110218659043" lon="9.531047092750669">
        <ele>1641.5</ele>
        <time>2022-01-16T13:43:53Z</time>
      </trkpt>
      <trkpt lat="45.934117762371898" lon="9.531049523502588">
        <ele>1642.0899999999999</ele>
        <time>2022-01-16T13:44:27Z</time>
      </trkpt>
      <trkpt lat="45.934117091819644" lon="9.531058995053172">
        <ele>1641.8699999999999</ele>
        <time>2022-01-16T13:44:37Z</time>
      </trkpt>
      <trkpt lat="45.934117091819644" lon="9.531068550422788">
        <ele>1642.49</ele>
        <time>2022-01-16T13:44:54Z</time>
      </trkpt>
      <trkpt lat="45.934115583077073" lon="9.531067712232471">
        <ele>1642.7</ele>
        <time>2022-01-16T13:45:08Z</time>
      </trkpt>
      <trkpt lat="45.934117091819644" lon="9.531068801879883">
        <ele>1643.25</ele>
        <time>2022-01-16T13:45:25Z</time>
      </trkpt>
      <trkpt lat="45.9341159183532" lon="9.531070310622454">
        <ele>1642.7</ele>
        <time>2022-01-16T13:45:37Z</time>
      </trkpt>
      <trkpt lat="45.934108626097441" lon="9.531069053336978">
        <ele>1642.02</ele>
        <time>2022-01-16T13:45:49Z</time>
      </trkpt>
      <trkpt lat="45.934111559763551" lon="9.53107014298439">
        <ele>1641.6099999999999</ele>
        <time>2022-01-16T13:46:00Z</time>
      </trkpt>
      <trkpt lat="45.934098148718476" lon="9.531080955639482">
        <ele>1641.3199999999999</ele>
        <time>2022-01-16T13:46:40Z</time>
      </trkpt>
      <trkpt lat="45.934099657461047" lon="9.53105740249157">
        <ele>1642.49</ele>
        <time>2022-01-16T13:47:11Z</time>
      </trkpt>
      <trkpt lat="45.934107368811965" lon="9.531051786616445">
        <ele>1642.8800000000001</ele>
        <time>2022-01-16T13:47:26Z</time>
      </trkpt>
      <trkpt lat="45.934112733229995" lon="9.531059749424458">
        <ele>1643.27</ele>
        <time>2022-01-16T13:47:40Z</time>
      </trkpt>
      <trkpt lat="45.934112733229995" lon="9.531051870435476">
        <ele>1642.52</ele>
        <time>2022-01-16T13:47:58Z</time>
      </trkpt>
      <trkpt lat="45.934108877554536" lon="9.531059497967362">
        <ele>1642.46</ele>
        <time>2022-01-16T13:48:16Z</time>
      </trkpt>
      <trkpt lat="45.934109296649694" lon="9.531058073043823">
        <ele>1642.0999999999999</ele>
        <time>2022-01-16T13:48:34Z</time>
      </trkpt>
      <trkpt lat="45.934110218659043" lon="9.531064024195075">
        <ele>1642.3</ele>
        <time>2022-01-16T13:48:51Z</time>
      </trkpt>
      <trkpt lat="45.934107787907124" lon="9.531071735545993">
        <ele>1642.1700000000001</ele>
        <time>2022-01-16T13:49:02Z</time>
      </trkpt>
      <trkpt lat="45.934073589742184" lon="9.531094366684556">
        <ele>1641.6900000000001</ele>
        <time>2022-01-16T13:49:15Z</time>
      </trkpt>
      <trkpt lat="45.934010809287429" lon="9.531129654496908">
        <ele>1640.25</ele>
        <time>2022-01-16T13:49:28Z</time>
      </trkpt>
      <trkpt lat="45.933958757668734" lon="9.53111850656569">
        <ele>1639.0799999999999</ele>
        <time>2022-01-16T13:49:38Z</time>
      </trkpt>
      <trkpt lat="45.933895893394947" lon="9.531064191833139">
        <ele>1637.8399999999999</ele>
        <time>2022-01-16T13:49:52Z</time>
      </trkpt>
      <trkpt lat="45.933856833726168" lon="9.531026389449835">
        <ele>1636.8299999999999</ele>
        <time>2022-01-16T13:50:03Z</time>
      </trkpt>
      <trkpt lat="45.933826826512814" lon="9.53095237724483">
        <ele>1634.6900000000001</ele>
        <time>2022-01-16T13:50:14Z</time>
      </trkpt>
      <trkpt lat="45.933795729652047" lon="9.530866630375385">
        <ele>1633</ele>
        <time>2022-01-16T13:50:25Z</time>
      </trkpt>
      <trkpt lat="45.933763459324837" lon="9.530747774988413">
        <ele>1631.5999999999999</ele>
        <time>2022-01-16T13:50:36Z</time>
      </trkpt>
      <trkpt lat="45.933714089915156" lon="9.53068558126688">
        <ele>1629.8199999999999</ele>
        <time>2022-01-16T13:50:43Z</time>
      </trkpt>
      <trkpt lat="45.93369229696691" lon="9.530511237680912">
        <ele>1627.1500000000001</ele>
        <time>2022-01-16T13:50:57Z</time>
      </trkpt>
      <trkpt lat="45.933660445734859" lon="9.530356591567397">
        <ele>1624.6400000000001</ele>
        <time>2022-01-16T13:51:11Z</time>
      </trkpt>
      <trkpt lat="45.933627504855394" lon="9.530293308198452">
        <ele>1625.04</ele>
        <time>2022-01-16T13:51:17Z</time>
      </trkpt>
      <trkpt lat="45.933457184582949" lon="9.530157940462232">
        <ele>1624.2</ele>
        <time>2022-01-16T13:51:33Z</time>
      </trkpt>
      <trkpt lat="45.933328103274107" lon="9.53005425632">
        <ele>1625.7</ele>
        <time>2022-01-16T13:51:48Z</time>
      </trkpt>
      <trkpt lat="45.933237997815013" lon="9.52994043007493">
        <ele>1626.8399999999999</ele>
        <time>2022-01-16T13:52:00Z</time>
      </trkpt>
      <trkpt lat="45.93317337334156" lon="9.529822077602148">
        <ele>1628.3</ele>
        <time>2022-01-16T13:52:12Z</time>
      </trkpt>
      <trkpt lat="45.933146383613348" lon="9.529672460630536">
        <ele>1630.29</ele>
        <time>2022-01-16T13:52:27Z</time>
      </trkpt>
      <trkpt lat="45.933196423575282" lon="9.529526783153415">
        <ele>1631.1099999999999</ele>
        <time>2022-01-16T13:52:40Z</time>
      </trkpt>
      <trkpt lat="45.933277895674109" lon="9.529384206980467">
        <ele>1631.8299999999999</ele>
        <time>2022-01-16T13:52:54Z</time>
      </trkpt>
      <trkpt lat="45.933336652815342" lon="9.529293263331056">
        <ele>1632.51</ele>
        <time>2022-01-16T13:53:04Z</time>
      </trkpt>
      <trkpt lat="45.933425584807992" lon="9.52911171130836">
        <ele>1633.8199999999999</ele>
        <time>2022-01-16T13:53:21Z</time>
      </trkpt>
      <trkpt lat="45.933478474617004" lon="9.528945833444595">
        <ele>1635.3800000000001</ele>
        <time>2022-01-16T13:53:35Z</time>
      </trkpt>
      <trkpt lat="45.933525580912828" lon="9.528790432959795">
        <ele>1636.6600000000001</ele>
        <time>2022-01-16T13:53:48Z</time>
      </trkpt>
      <trkpt lat="45.933542428538203" lon="9.528662860393524">
        <ele>1638.1600000000001</ele>
        <time>2022-01-16T13:53:59Z</time>
      </trkpt>
      <trkpt lat="45.933543853461742" lon="9.528597816824913">
        <ele>1638.5</ele>
        <time>2022-01-16T13:54:04Z</time>
      </trkpt>
      <trkpt lat="45.933545948937535" lon="9.528414253145456">
        <ele>1639.24</ele>
        <time>2022-01-16T13:54:17Z</time>
      </trkpt>
      <trkpt lat="45.933565059676766" lon="9.528245106339455">
        <ele>1640.9200000000001</ele>
        <time>2022-01-16T13:54:30Z</time>
      </trkpt>
      <trkpt lat="45.933579141274095" lon="9.528123987838626">
        <ele>1642.9400000000001</ele>
        <time>2022-01-16T13:54:41Z</time>
      </trkpt>
      <trkpt lat="45.933587187901139" lon="9.52796389348805">
        <ele>1644.5999999999999</ele>
        <time>2022-01-16T13:54:54Z</time>
      </trkpt>
      <trkpt lat="45.933595653623343" lon="9.527798183262348">
        <ele>1645.3</ele>
        <time>2022-01-16T13:55:06Z</time>
      </trkpt>
      <trkpt lat="45.93360043130815" lon="9.527628868818283">
        <ele>1645.74</ele>
        <time>2022-01-16T13:55:18Z</time>
      </trkpt>
      <trkpt lat="45.933601269498467" lon="9.52744941227138">
        <ele>1645.48</ele>
        <time>2022-01-16T13:55:30Z</time>
      </trkpt>
      <trkpt lat="45.933638904243708" lon="9.527278421446681">
        <ele>1646.97</ele>
        <time>2022-01-16T13:55:43Z</time>
      </trkpt>
      <trkpt lat="45.933649884536862" lon="9.527243049815297">
        <ele>1647.1800000000001</ele>
        <time>2022-01-16T13:55:46Z</time>
      </trkpt>
      <trkpt lat="45.933698834851384" lon="9.527088738977909">
        <ele>1647.6099999999999</ele>
        <time>2022-01-16T13:55:58Z</time>
      </trkpt>
      <trkpt lat="45.933709144592285" lon="9.526878520846367">
        <ele>1647.95</ele>
        <time>2022-01-16T13:56:12Z</time>
      </trkpt>
      <trkpt lat="45.933696823194623" lon="9.526641899719834">
        <ele>1648.54</ele>
        <time>2022-01-16T13:56:28Z</time>
      </trkpt>
      <trkpt lat="45.933693386614323" lon="9.526436291635037">
        <ele>1649.8900000000001</ele>
        <time>2022-01-16T13:56:42Z</time>
      </trkpt>
      <trkpt lat="45.93368056230247" lon="9.526226911693811">
        <ele>1650.75</ele>
        <time>2022-01-16T13:56:56Z</time>
      </trkpt>
      <trkpt lat="45.933643681928515" lon="9.525993643328548">
        <ele>1651.8699999999999</ele>
        <time>2022-01-16T13:57:11Z</time>
      </trkpt>
      <trkpt lat="45.933573776856065" lon="9.525776049122214">
        <ele>1652.8099999999999</ele>
        <time>2022-01-16T13:57:27Z</time>
      </trkpt>
      <trkpt lat="45.933494819328189" lon="9.525573877617717">
        <ele>1652.72</ele>
        <time>2022-01-16T13:57:41Z</time>
      </trkpt>
      <trkpt lat="45.933429440483451" lon="9.525330550968647">
        <ele>1651.97</ele>
        <time>2022-01-16T13:57:56Z</time>
      </trkpt>
      <trkpt lat="45.933305388316512" lon="9.525112872943282">
        <ele>1650.3900000000001</ele>
        <time>2022-01-16T13:58:12Z</time>
      </trkpt>
      <trkpt lat="45.933244787156582" lon="9.524806430563331">
        <ele>1649.53</ele>
        <time>2022-01-16T13:58:30Z</time>
      </trkpt>
      <trkpt lat="45.933222910389304" lon="9.524553632363677">
        <ele>1649.4000000000001</ele>
        <time>2022-01-16T13:58:44Z</time>
      </trkpt>
      <trkpt lat="45.933207236230373" lon="9.524321705102921">
        <ele>1649.27</ele>
        <time>2022-01-16T13:58:59Z</time>
      </trkpt>
      <trkpt lat="45.933175049722195" lon="9.524230342358351">
        <ele>1649.1199999999999</ele>
        <time>2022-01-16T13:59:08Z</time>
      </trkpt>
      <trkpt lat="45.933184185996652" lon="9.524095645174384">
        <ele>1648.3699999999999</ele>
        <time>2022-01-16T13:59:19Z</time>
      </trkpt>
      <trkpt lat="45.933149736374617" lon="9.524090783670545">
        <ele>1647.8900000000001</ele>
        <time>2022-01-16T13:59:56Z</time>
      </trkpt>
      <trkpt lat="45.933152502402663" lon="9.524047197774053">
        <ele>1647.8399999999999</ele>
        <time>2022-01-16T14:00:05Z</time>
      </trkpt>
      <trkpt lat="45.933137917891145" lon="9.524083575233817">
        <ele>1647.9300000000001</ele>
        <time>2022-01-16T14:00:25Z</time>
      </trkpt>
      <trkpt lat="45.933123417198658" lon="9.524072427302599">
        <ele>1647.3</ele>
        <time>2022-01-16T14:00:28Z</time>
      </trkpt>
      <trkpt lat="45.933110089972615" lon="9.524077959358692">
        <ele>1646.8499999999999</ele>
        <time>2022-01-16T14:00:30Z</time>
      </trkpt>
      <trkpt lat="45.933068515732884" lon="9.523930856958032">
        <ele>1646.3800000000001</ele>
        <time>2022-01-16T14:00:43Z</time>
      </trkpt>
    </trkseg>
  </trk>

</gpx>